Provisional Data: Little Mehoopany Creek near North Mehoopany, PA


Please select a monitoring station.
Please select start date.
Please select start date.

Toggle Unit: C/F Toggle Unit: C/F
Sample Time Temperature (C) Temperature (F) Specific Conductivity (mS/cm) pH   Turbidity (NTU+) DO (mg/L)
3/7/2021 12:00:00 AM 1.61 34.898 0.115 7.46 3.27 14.27
3/7/2021 12:15:00 AM 1.57 34.826 0.115 7.48 3.22 14.29
3/7/2021 12:30:00 AM 1.52 34.736 0.115 7.48 3.23 14.31
3/7/2021 12:45:00 AM 1.52 34.736 0.115 7.47 3.23 14.3
3/7/2021 1:00:00 AM 1.51 34.718 0.115 7.46 3.12 14.31
3/7/2021 1:15:00 AM 1.48 34.664 0.115 7.48 3.29 14.34
3/7/2021 1:30:00 AM 1.47 34.646 0.114 7.47 3.26 14.34
3/7/2021 1:45:00 AM 1.47 34.646 0.115 7.47 3.31 14.35
3/7/2021 2:00:00 AM 1.46 34.628 0.115 7.46 3.3 14.34
3/7/2021 2:15:00 AM 1.4 34.52 0.115 7.49 3.23 14.38
3/7/2021 2:30:00 AM 1.39 34.502 0.115 7.48 3.16 14.35
3/7/2021 2:45:00 AM 1.37 34.466 0.115 7.47 3.3 14.37
3/7/2021 3:00:00 AM 1.34 34.412 0.115 7.46 3.29 14.37
3/7/2021 3:15:00 AM 1.29 34.322 0.115 7.48 3.37 14.42
3/7/2021 3:30:00 AM 1.28 34.304 0.115 7.47 3.23 14.41
3/7/2021 3:45:00 AM 1.23 34.214 0.115 7.47 3.18 14.44
3/7/2021 4:00:00 AM 1.2 34.16 0.115 7.46 3.31 14.45
3/7/2021 4:15:00 AM 1.15 34.07 0.115 7.48 3.31 14.5
3/7/2021 4:30:00 AM 1.1 33.98 0.115 7.48 3.28 14.51
3/7/2021 4:45:00 AM 1.09 33.962 0.115 7.46 3.32 14.51
3/7/2021 5:00:00 AM 1.01 33.818 0.115 7.48 3.2 14.55
3/7/2021 5:15:00 AM 1 33.8 0.115 7.48 3.26 14.57
3/7/2021 5:30:00 AM 0.97 33.746 0.115 7.47 3.37 14.56
3/7/2021 5:45:00 AM 0.92 33.656 0.115 7.47 3.19 14.58
3/7/2021 6:00:00 AM 0.9 33.62 0.115 7.46 3.24 14.57
3/7/2021 6:15:00 AM 0.85 33.53 0.115 7.47 3.32 14.61
3/7/2021 6:30:00 AM 0.8 33.44 0.115 7.48 3.34 14.64
3/7/2021 6:45:00 AM 0.77 33.386 0.115 7.48 3.25 14.67
3/7/2021 7:00:00 AM 0.75 33.35 0.115 7.48 3.27 14.72
3/7/2021 7:15:00 AM 0.74 33.332 0.115 7.48 3.26 14.77
3/7/2021 7:30:00 AM 0.74 33.332 0.115 7.49 3.15 14.81
3/7/2021 7:45:00 AM 0.76 33.368 0.115 7.49 3.28 14.85
3/7/2021 8:00:00 AM 0.74 33.332 0.115 7.52 3.36 14.9
3/7/2021 8:15:00 AM 0.75 33.35 0.115 7.53 3.21 14.95
3/7/2021 8:30:00 AM 0.78 33.404 0.115 7.54 3.26 14.97
3/7/2021 8:45:00 AM 0.84 33.512 0.115 7.54 3.18 14.97
3/7/2021 9:00:00 AM 0.87 33.566 0.115 7.55 3.36 14.99
3/7/2021 9:15:00 AM 0.95 33.71 0.114 7.56 3.27 14.99
3/7/2021 9:30:00 AM 1.05 33.89 0.114 7.57 3.26 14.98
3/7/2021 9:45:00 AM 1.2 34.16 0.114 7.58 3.25 14.96
3/7/2021 10:00:00 AM 1.34 34.412 0.114 7.59 3.28 14.93
3/7/2021 10:15:00 AM 1.55 34.79 0.114 7.55 3.19 14.87
3/7/2021 10:30:00 AM 1.65 34.97 0.114 7.61 3.18 14.87
3/7/2021 10:45:00 AM 1.79 35.222 0.114 7.62 3.26 14.82
3/7/2021 11:00:00 AM 2 35.6 0.113 7.6 3.26 14.75
3/7/2021 11:15:00 AM 2.13 35.834 0.113 7.61 3.2 14.71
3/7/2021 11:30:00 AM 2.29 36.122 0.113 7.63 3.43 14.68
3/7/2021 11:45:00 AM 2.34 36.212 0.113 7.63 3.41 14.63
3/7/2021 12:00:00 PM 2.53 36.554 0.113 7.62 3.45 14.56
3/7/2021 12:15:00 PM 2.67 36.806 0.113 7.62 3.42 14.51
3/7/2021 12:30:00 PM 2.71 36.878 0.113 7.64 3.33 14.45
3/7/2021 12:45:00 PM 2.89 37.202 0.112 7.65 3.28 14.41
3/7/2021 1:00:00 PM 2.95 37.31 0.113 7.64 3.16 14.38
3/7/2021 1:15:00 PM 3.05 37.49 0.112 7.66 3.23 14.36
3/7/2021 1:30:00 PM 3.16 37.688 0.112 7.68 3.35 14.3
3/7/2021 1:45:00 PM 3.19 37.742 0.112 7.68 3.27 14.23
3/7/2021 2:00:00 PM 3.31 37.958 0.112 7.66 3.36 14.2
3/7/2021 2:15:00 PM 3.35 38.03 0.112 7.63 3.3 14.17
3/7/2021 2:30:00 PM 3.26 37.868 0.112 7.67 3.3 14.21
3/7/2021 2:45:00 PM 3.31 37.958 0.112 7.66 3.29 14.22
3/7/2021 3:00:00 PM 3.29 37.922 0.113 7.67 3.24 14.2
3/7/2021 3:15:00 PM 3.26 37.868 0.112 7.68 3.36 14.18
3/7/2021 3:30:00 PM 3.36 38.048 0.112 7.65 3.29 14.11
3/7/2021 3:45:00 PM 3.38 38.084 0.112 7.61 3.22 14.04
3/7/2021 4:00:00 PM 3.29 37.922 0.112 7.65 3.26 14.05
3/7/2021 4:15:00 PM 3.28 37.904 0.112 7.62 3.09 14.01
3/7/2021 4:30:00 PM 3.24 37.832 0.112 7.62 3.24 13.99
3/7/2021 4:45:00 PM 3.23 37.814 0.112 7.59 3.16 13.97
3/7/2021 5:00:00 PM 3.18 37.724 0.112 7.57 3.17 13.94
3/7/2021 5:15:00 PM 3.08 37.544 0.112 7.58 3.08 13.98
3/7/2021 5:30:00 PM 2.99 37.382 0.112 7.57 3.16 13.98
3/7/2021 5:45:00 PM 2.9 37.22 0.112 7.55 3.26 13.98
3/7/2021 6:00:00 PM 2.79 37.022 0.113 7.54 3.14 13.98
3/7/2021 6:15:00 PM 2.71 36.878 0.113 7.53 3.11 13.97
3/7/2021 6:30:00 PM 2.61 36.698 0.113 7.5 3.07 13.96
3/7/2021 6:45:00 PM 2.52 36.536 0.113 7.5 3.15 14
3/7/2021 7:00:00 PM 2.45 36.41 0.113 7.48 3.16 14.01
3/7/2021 7:15:00 PM 2.38 36.284 0.113 7.47 3.14 14.01
3/7/2021 7:30:00 PM 2.29 36.122 0.113 7.49 3.11 14.08
3/7/2021 7:45:00 PM 2.21 35.978 0.114 7.48 3.18 14.1
3/7/2021 8:00:00 PM 2.14 35.852 0.114 7.48 3.21 14.12
3/7/2021 8:15:00 PM 2.09 35.762 0.114 7.49 3.73 14.15
3/7/2021 8:30:00 PM 1.99 35.582 0.114 7.49 3.23 14.18
3/7/2021 8:45:00 PM 1.93 35.474 0.115 7.49 3.09 14.19
3/7/2021 9:00:00 PM 1.88 35.384 0.114 7.47 3.08 14.23
3/7/2021 9:15:00 PM 1.79 35.222 0.114 7.49 3.19 14.28
3/7/2021 9:30:00 PM 1.73 35.114 0.114 7.48 3.24 14.31
3/7/2021 9:45:00 PM 1.68 35.024 0.114 7.48 3.3 14.33
3/7/2021 10:00:00 PM 1.6 34.88 0.115 7.48 3.21 14.36
3/7/2021 10:15:00 PM 1.53 34.754 0.114 7.48 3.13 14.39
3/7/2021 10:30:00 PM 1.46 34.628 0.115 7.47 3.24 14.41
3/7/2021 10:45:00 PM 1.39 34.502 0.115 7.48 3.21 14.42
3/7/2021 11:00:00 PM 1.37 34.466 0.115 7.46 3.05 14.43
3/7/2021 11:15:00 PM 1.27 34.286 0.115 7.48 3.11 14.5
3/7/2021 11:30:00 PM 1.23 34.214 0.115 7.47 3.09 14.49
3/7/2021 11:45:00 PM 1.15 34.07 0.115 7.47 3.12 14.54
3/8/2021 12:00:00 AM 1.13 34.034 0.115 7.47 3.15 14.51
3/8/2021 12:15:00 AM 1.06 33.908 0.115 7.45 3.22 14.56
3/8/2021 12:30:00 AM 0.99 33.782 0.115 7.46 3.28 14.6
3/8/2021 12:45:00 AM 0.94 33.692 0.115 7.46 3.18 14.62
3/8/2021 1:00:00 AM 0.89 33.602 0.115 7.46 3.27 14.64
3/8/2021 1:15:00 AM 0.83 33.494 0.115 7.46 3.08 14.67
3/8/2021 1:30:00 AM 0.78 33.404 0.115 7.46 3.09 14.67
3/8/2021 1:45:00 AM 0.74 33.332 0.115 7.47 3.12 14.69
3/8/2021 2:00:00 AM 0.66 33.188 0.116 7.48 2.99 14.75
3/8/2021 2:15:00 AM 0.64 33.152 0.115 7.46 3.17 14.75
3/8/2021 2:30:00 AM 0.63 33.134 0.115 7.44 3.21 14.74
3/8/2021 2:45:00 AM 0.55 32.99 0.115 7.46 3.09 14.79
3/8/2021 3:00:00 AM 0.49 32.882 0.115 7.46 3.1 14.82
3/8/2021 3:15:00 AM 0.46 32.828 0.115 7.47 3.12 14.85
3/8/2021 3:30:00 AM 0.44 32.792 0.115 7.45 3.16 14.85
3/8/2021 3:45:00 AM 0.38 32.684 0.115 7.46 3.11 14.85
3/8/2021 4:00:00 AM 0.34 32.612 0.115 7.46 3.1 14.9
3/8/2021 4:15:00 AM 0.3 32.54 0.115 7.46 3.13 14.91
3/8/2021 4:30:00 AM 0.29 32.522 0.116 7.45 2.99 14.9
3/8/2021 4:45:00 AM 0.23 32.414 0.115 7.46 3.1 14.95
3/8/2021 5:00:00 AM 0.21 32.378 0.115 7.46 3.02 14.95
3/8/2021 5:15:00 AM 0.14 32.252 0.115 7.47 3.23 14.98
3/8/2021 5:30:00 AM 0.11 32.198 0.116 7.47 3.05 15
3/8/2021 5:45:00 AM 0.08 32.144 0.116 7.46 3.1 15
3/8/2021 6:00:00 AM 0.09 32.162 0.116 7.45 3.06 14.98
3/8/2021 6:15:00 AM 0.02 32.036 0.116 7.46 3.05 15.05
3/8/2021 6:30:00 AM 0.01 32.018 0.116 7.45 3.05 15.05
3/8/2021 6:45:00 AM -0.01 31.982 0.116 7.46 3.14 15.11
3/8/2021 7:00:00 AM -0.03 31.946 0.116 7.49 3.13 15.18
3/8/2021 7:15:00 AM -0.03 31.946 0.116 7.5 3.09 15.23
3/8/2021 7:30:00 AM -0.02 31.964 0.116 7.51 3.24 15.28
3/8/2021 7:45:00 AM -0.03 31.946 0.116 7.53 3.09 15.33
3/8/2021 8:00:00 AM 0.01 32.018 0.115 7.53 3.19 15.36
3/8/2021 8:15:00 AM 0.02 32.036 0.115 7.54 3.05 15.37
3/8/2021 8:30:00 AM 0.05 32.09 0.115 7.56 3.33 15.39
3/8/2021 8:45:00 AM 0.13 32.234 0.115 7.57 3.22 15.4
3/8/2021 9:00:00 AM 0.22 32.396 0.115 7.57 3.08 15.39
3/8/2021 9:15:00 AM 0.31 32.558 0.115 7.58 3.02 15.39
3/8/2021 9:30:00 AM 0.46 32.828 0.114 7.57 3.12 15.36
3/8/2021 9:45:00 AM 0.62 33.116 0.114 7.58 3.15 15.33
3/8/2021 10:00:00 AM 0.8 33.44 0.114 7.58 3.15 15.29
3/8/2021 10:15:00 AM 0.94 33.692 0.113 7.61 3.08 15.27
3/8/2021 10:30:00 AM 1.15 34.07 0.113 7.61 3.13 15.21
3/8/2021 10:45:00 AM 1.37 34.466 0.113 7.61 2.97 15.11
3/8/2021 11:00:00 AM 1.52 34.736 0.113 7.62 3.02 15.07
3/8/2021 11:15:00 AM 1.71 35.078 0.113 7.62 3.12 15.01
3/8/2021 11:30:00 AM 1.95 35.51 0.113 7.61 3.04 14.91
3/8/2021 11:45:00 AM 2.03 35.654 0.113 7.64 3.18 14.86
3/8/2021 12:00:00 PM 2.18 35.924 0.112 7.66 3.31 14.81
3/8/2021 12:15:00 PM 2.36 36.248 0.112 7.65 3.28 14.75
3/8/2021 12:30:00 PM 2.56 36.608 0.112 7.64 3.15 14.66
3/8/2021 12:45:00 PM 2.7 36.86 0.112 7.63 3.1 14.57
3/8/2021 1:00:00 PM 2.81 37.058 0.112 7.64 3.14 14.52
3/8/2021 1:15:00 PM 2.96 37.328 0.112 7.62 3.09 14.44
3/8/2021 1:30:00 PM 2.97 37.346 0.112 7.67 3.1 14.43
3/8/2021 1:45:00 PM 3.14 37.652 0.112 7.68 2.99 14.4
3/8/2021 2:00:00 PM 3.31 37.958 0.112 7.64 3 14.3
3/8/2021 2:15:00 PM 3.35 38.03 0.111 7.69 2.99 14.25
3/8/2021 2:30:00 PM 3.44 38.192 0.111 7.69 3.12 14.23
3/8/2021 2:45:00 PM 3.53 38.354 0.111 7.68 3.06 14.24
3/8/2021 3:00:00 PM 3.55 38.39 0.111 7.69 3.16 14.22
3/8/2021 3:15:00 PM 3.55 38.39 0.111 7.66 3.07 14.18
3/8/2021 3:30:00 PM 3.57 38.426 0.111 7.69 3.32 14.19
3/8/2021 3:45:00 PM 3.58 38.444 0.111 7.67 2.97 14.13
3/8/2021 4:00:00 PM 3.6 38.48 0.111 7.67 3.1 14.11
3/8/2021 4:15:00 PM 3.61 38.498 0.111 7.66 3.03 14.09
3/8/2021 4:30:00 PM 3.59 38.462 0.111 7.63 3.01 14.05
3/8/2021 4:45:00 PM 3.54 38.372 0.111 7.63 3.05 14.02
3/8/2021 5:00:00 PM 3.52 38.336 0.111 7.63 3.07 14
3/8/2021 5:15:00 PM 3.52 38.336 0.111 7.58 2.97 13.93
3/8/2021 5:30:00 PM 3.48 38.264 0.111 7.59 3.09 13.89
3/8/2021 5:45:00 PM 3.44 38.192 0.111 7.55 3.01 13.83
3/8/2021 6:00:00 PM 3.38 38.084 0.111 7.53 3.06 13.76
3/8/2021 6:15:00 PM 3.32 37.976 0.112 7.52 3.06 13.72
3/8/2021 6:30:00 PM 3.26 37.868 0.112 7.5 3.08 13.71
3/8/2021 6:45:00 PM 3.16 37.688 0.112 7.49 2.98 13.72
3/8/2021 7:00:00 PM 3.1 37.58 0.112 7.48 2.89 13.72
3/8/2021 7:15:00 PM 3.01 37.418 0.113 7.48 2.89 13.75
3/8/2021 7:30:00 PM 2.96 37.328 0.113 7.47 2.99 13.75
3/8/2021 7:45:00 PM 2.91 37.238 0.113 7.45 3.02 13.76
3/8/2021 8:00:00 PM 2.85 37.13 0.113 7.45 3.01 13.78
3/8/2021 8:15:00 PM 2.81 37.058 0.113 7.46 3.05 13.82
3/8/2021 8:30:00 PM 2.77 36.986 0.113 7.47 3 13.83
3/8/2021 8:45:00 PM 2.74 36.932 0.113 7.47 2.95 13.84
3/8/2021 9:00:00 PM 2.69 36.842 0.113 7.47 3 13.85
3/8/2021 9:15:00 PM 2.69 36.842 0.113 7.45 3.08 13.85
3/8/2021 9:30:00 PM 2.66 36.788 0.114 7.46 3.01 13.86
3/8/2021 9:45:00 PM 2.64 36.752 0.114 7.46 3.12 13.88
3/8/2021 10:00:00 PM 2.62 36.716 0.114 7.47 3.12 13.88
3/8/2021 10:15:00 PM 2.62 36.716 0.114 7.45 2.96 13.89
3/8/2021 10:30:00 PM 2.6 36.68 0.114 7.45 3.31 13.86
3/8/2021 10:45:00 PM 2.59 36.662 0.114 7.45 2.99 13.91
3/8/2021 11:00:00 PM 2.56 36.608 0.114 7.46 3.05 13.89
3/8/2021 11:15:00 PM 2.56 36.608 0.114 7.44 2.95 13.87
3/8/2021 11:30:00 PM 2.57 36.626 0.114 7.43 2.99 13.88
3/8/2021 11:45:00 PM 2.51 36.518 0.114 7.47 3.05 13.93
3/9/2021 12:00:00 AM 2.51 36.518 0.114 7.44 2.94 13.91
3/9/2021 12:15:00 AM 2.51 36.518 0.114 7.44 2.94 13.91
3/9/2021 12:30:00 AM 2.48 36.464 0.115 7.46 2.98 13.96
3/9/2021 12:45:00 AM 2.49 36.482 0.114 7.44 2.91 13.88
3/9/2021 1:00:00 AM 2.49 36.482 0.114 7.45 2.98 13.91
3/9/2021 1:15:00 AM 2.49 36.482 0.114 7.43 2.92 13.91
3/9/2021 1:30:00 AM 2.45 36.41 0.114 7.45 2.91 13.92
3/9/2021 1:45:00 AM 2.46 36.428 0.114 7.45 2.93 13.95
3/9/2021 2:00:00 AM 2.44 36.392 0.114 7.45 2.95 13.95
3/9/2021 2:15:00 AM 2.41 36.338 0.114 7.46 3.01 13.97
3/9/2021 2:30:00 AM 2.44 36.392 0.114 7.43 2.94 13.92
3/9/2021 2:45:00 AM 2.42 36.356 0.114 7.44 2.96 13.94
3/9/2021 3:00:00 AM 2.38 36.284 0.114 7.44 3.02 13.96
3/9/2021 3:15:00 AM 2.34 36.212 0.113 7.43 2.99 13.93
3/9/2021 3:30:00 AM 2.32 36.176 0.114 7.44 2.94 13.96
3/9/2021 3:45:00 AM 2.32 36.176 0.114 7.42 2.86 13.95
3/9/2021 4:00:00 AM 2.28 36.104 0.113 7.45 2.98 13.99
3/9/2021 4:15:00 AM 2.26 36.068 0.113 7.44 3 14
3/9/2021 4:30:00 AM 2.26 36.068 0.113 7.44 2.89 13.99
3/9/2021 4:45:00 AM 2.28 36.104 0.113 7.44 3.06 13.99
3/9/2021 5:00:00 AM 2.29 36.122 0.113 7.42 2.89 13.98
3/9/2021 5:15:00 AM 2.24 36.032 0.113 7.45 2.98 14.03
3/9/2021 5:30:00 AM 2.24 36.032 0.113 7.44 2.98 14.01
3/9/2021 5:45:00 AM 2.23 36.014 0.113 7.43 2.9 14.01
3/9/2021 6:00:00 AM 2.21 35.978 0.114 7.44 2.93 14.02
3/9/2021 6:15:00 AM 2.19 35.942 0.113 7.43 2.95 14.03
3/9/2021 6:30:00 AM 2.16 35.888 0.113 7.44 3.05 14.05
3/9/2021 6:45:00 AM 2.17 35.906 0.113 7.44 2.88 14.07
3/9/2021 7:00:00 AM 2.17 35.906 0.113 7.45 2.89 14.14
3/9/2021 7:15:00 AM 2.16 35.888 0.113 7.47 2.92 14.21
3/9/2021 7:30:00 AM 2.19 35.942 0.113 7.49 2.92 14.29
3/9/2021 7:45:00 AM 2.22 35.996 0.113 7.49 2.91 14.33
3/9/2021 8:00:00 AM 2.25 36.05 0.113 7.52 2.97 14.39
3/9/2021 8:15:00 AM 2.31 36.158 0.112 7.52 2.93 14.41
3/9/2021 8:30:00 AM 2.39 36.302 0.112 7.53 2.98 14.45
3/9/2021 8:45:00 AM 2.47 36.446 0.112 7.55 3.03 14.44
3/9/2021 9:00:00 AM 2.59 36.662 0.112 7.55 3 14.42
3/9/2021 9:15:00 AM 2.72 36.896 0.112 7.56 2.97 14.4
3/9/2021 9:30:00 AM 2.86 37.148 0.112 7.6 2.95 14.41
3/9/2021 9:45:00 AM 3.07 37.526 0.111 7.62 2.95 14.39
3/9/2021 10:00:00 AM 3.3 37.94 0.111 7.61 2.96 14.33
3/9/2021 10:15:00 AM 3.5 38.3 0.111 7.64 2.94 14.31
3/9/2021 10:30:00 AM 3.74 38.732 0.112 7.65 2.91 14.24
3/9/2021 10:45:00 AM 3.94 39.092 0.111 7.67 3 14.17
3/9/2021 11:00:00 AM 4.15 39.47 0.111 7.68 2.97 14.13
3/9/2021 11:15:00 AM 4.36 39.848 0.11 7.7 2.89 14.08
3/9/2021 11:30:00 AM 4.56 40.208 0.11 7.69 2.95 13.99
3/9/2021 11:45:00 AM 4.76 40.568 0.11 7.68 2.98 13.93
3/9/2021 12:00:00 PM 4.93 40.874 0.11 7.69 3.01 13.87
3/9/2021 12:15:00 PM 5.11 41.198 0.11 7.71 3.01 13.83
3/9/2021 12:30:00 PM 5.2 41.36 0.11 7.71 3.06 13.76
3/9/2021 12:45:00 PM 5.38 41.684 0.11 7.71 3 13.7
3/9/2021 1:00:00 PM 5.5 41.9 0.11 7.71 2.92 13.64
3/9/2021 1:15:00 PM 5.63 42.134 0.11 7.69 3.04 13.6
3/9/2021 1:30:00 PM 5.76 42.368 0.11 7.73 3.01 13.56
3/9/2021 1:45:00 PM 5.89 42.602 0.109 7.74 2.92 13.48
3/9/2021 2:00:00 PM 6.02 42.836 0.109 7.71 2.97 13.43
3/9/2021 2:15:00 PM 6.06 42.908 0.109 7.73 3.08 13.4
3/9/2021 2:30:00 PM 6.08 42.944 0.109 7.72 3.11 13.35
3/9/2021 2:45:00 PM 6.14 43.052 0.109 7.74 3.09 13.33
3/9/2021 3:00:00 PM 6.17 43.106 0.109 7.73 2.98 13.28
3/9/2021 3:15:00 PM 6.19 43.142 0.109 7.71 3.02 13.25
3/9/2021 3:30:00 PM 6.19 43.142 0.109 7.68 3.06 13.2
3/9/2021 3:45:00 PM 6.14 43.052 0.109 7.69 3.08 13.18
3/9/2021 4:00:00 PM 6.13 43.034 0.109 7.64 3.09 13.11
3/9/2021 4:15:00 PM 6.05 42.89 0.109 7.66 3.16 13.09
3/9/2021 4:30:00 PM 6 42.8 0.109 7.65 3.26 13.08
3/9/2021 4:45:00 PM 5.92 42.656 0.109 7.63 3.47 13.07
3/9/2021 5:00:00 PM 5.85 42.53 0.109 7.61 3.44 13.06
3/9/2021 5:15:00 PM 5.77 42.386 0.109 7.59 3.62 13.06
3/9/2021 5:30:00 PM 5.63 42.134 0.109 7.58 3.7 13.06
3/9/2021 5:45:00 PM 5.51 41.918 0.109 7.57 3.56 13.08
3/9/2021 6:00:00 PM 5.39 41.702 0.109 7.53 3.76 13.05
3/9/2021 6:15:00 PM 5.23 41.414 0.109 7.54 3.79 13.06
3/9/2021 6:30:00 PM 5.1 41.18 0.11 7.5 3.95 13.06
3/9/2021 6:45:00 PM 4.95 40.91 0.11 7.5 3.85 13.11
3/9/2021 7:00:00 PM 4.82 40.676 0.11 7.48 3.97 13.13
3/9/2021 7:15:00 PM 4.7 40.46 0.11 7.47 4.06 13.16
3/9/2021 7:30:00 PM 4.57 40.226 0.11 7.47 3.97 13.18
3/9/2021 7:45:00 PM 4.45 40.01 0.11 7.47 3.97 13.25
3/9/2021 8:00:00 PM 4.36 39.848 0.111 7.46 3.92 13.28
3/9/2021 8:15:00 PM 4.23 39.614 0.11 7.48 3.97 13.37
3/9/2021 8:30:00 PM 4.14 39.452 0.11 7.48 4 13.38
3/9/2021 8:45:00 PM 4.05 39.29 0.11 7.47 3.95 13.41
3/9/2021 9:00:00 PM 3.96 39.128 0.11 7.46 3.72 13.43
3/9/2021 9:15:00 PM 3.85 38.93 0.11 7.47 3.72 13.47
3/9/2021 9:30:00 PM 3.76 38.768 0.111 7.47 3.78 13.53
3/9/2021 9:45:00 PM 3.66 38.588 0.111 7.47 3.62 13.58
3/9/2021 10:00:00 PM 3.56 38.408 0.111 7.47 3.64 13.61
3/9/2021 10:15:00 PM 3.49 38.282 0.111 7.46 3.56 13.61
3/9/2021 10:30:00 PM 3.4 38.12 0.111 7.47 3.7 13.67
3/9/2021 10:45:00 PM 3.32 37.976 0.111 7.46 3.66 13.7
3/9/2021 11:00:00 PM 3.24 37.832 0.111 7.45 3.66 13.71
3/9/2021 11:15:00 PM 3.13 37.634 0.111 7.47 3.7 13.79
3/9/2021 11:30:00 PM 3.07 37.526 0.111 7.46 3.54 13.82
3/9/2021 11:45:00 PM 2.99 37.382 0.111 7.47 3.63 13.85
3/10/2021 12:00:00 AM 2.91 37.238 0.111 7.47 3.53 13.87
3/10/2021 12:15:00 AM 2.85 37.13 0.111 7.45 3.6 13.88
3/10/2021 12:30:00 AM 2.77 36.986 0.111 7.47 3.61 13.94
3/10/2021 12:45:00 AM 2.72 36.896 0.111 7.46 3.58 13.93
3/10/2021 1:00:00 AM 2.67 36.806 0.111 7.46 3.46 13.96
3/10/2021 1:15:00 AM 2.61 36.698 0.111 7.45 3.49 13.98
3/10/2021 1:30:00 AM 2.56 36.608 0.111 7.45 3.4 14
3/10/2021 1:45:00 AM 2.5 36.5 0.111 7.46 3.44 14.04
3/10/2021 2:00:00 AM 2.43 36.374 0.111 7.47 3.48 14.06
3/10/2021 2:15:00 AM 2.43 36.374 0.111 7.45 3.46 14.08
3/10/2021 2:30:00 AM 2.38 36.284 0.111 7.45 3.51 14.09
3/10/2021 2:45:00 AM 2.34 36.212 0.111 7.46 3.52 14.09
3/10/2021 3:00:00 AM 2.32 36.176 0.112 7.46 3.61 14.11
3/10/2021 3:15:00 AM 2.27 36.086 0.111 7.46 3.48 14.14
3/10/2021 3:30:00 AM 2.24 36.032 0.111 7.45 3.41 14.14
3/10/2021 3:45:00 AM 2.21 35.978 0.11 7.46 3.7 14.17
3/10/2021 4:00:00 AM 2.16 35.888 0.11 7.47 3.42 14.18
3/10/2021 4:15:00 AM 2.15 35.87 0.11 7.46 3.39 14.19
3/10/2021 4:30:00 AM 2.15 35.87 0.11 7.46 3.49 14.2
3/10/2021 4:45:00 AM 2.12 35.816 0.11 7.47 3.51 14.21
3/10/2021 5:00:00 AM 2.12 35.816 0.11 7.46 3.41 14.21
3/10/2021 5:15:00 AM 2.08 35.744 0.11 7.47 3.49 14.24
3/10/2021 5:30:00 AM 2.07 35.726 0.11 7.46 3.29 14.22
3/10/2021 5:45:00 AM 2.03 35.654 0.11 7.46 3.46 14.26
3/10/2021 6:00:00 AM 2.02 35.636 0.11 7.45 3.36 14.22
3/10/2021 6:15:00 AM 2.01 35.618 0.11 7.45 3.43 14.24
3/10/2021 6:30:00 AM 1.99 35.582 0.11 7.46 3.34 14.27
3/10/2021 6:45:00 AM 1.97 35.546 0.109 7.46 3.29 14.3
3/10/2021 7:00:00 AM 1.95 35.51 0.109 7.48 3.41 14.35
3/10/2021 7:15:00 AM 1.96 35.528 0.11 7.49 3.28 14.43
3/10/2021 7:30:00 AM 1.98 35.564 0.109 7.5 3.3 14.47
3/10/2021 7:45:00 AM 2.03 35.654 0.109 7.5 3.42 14.46
3/10/2021 8:00:00 AM 2.03 35.654 0.108 7.54 3.41 14.57
3/10/2021 8:15:00 AM 2.09 35.762 0.108 7.54 3.39 14.58
3/10/2021 8:30:00 AM 2.13 35.834 0.108 7.56 3.4 14.6
3/10/2021 8:45:00 AM 2.2 35.96 0.108 7.58 3.38 14.6
3/10/2021 9:00:00 AM 2.3 36.14 0.107 7.58 3.33 14.59
3/10/2021 9:15:00 AM 2.43 36.374 0.107 7.59 3.31 14.57
3/10/2021 9:30:00 AM 2.6 36.68 0.107 7.58 3.19 14.52
3/10/2021 9:45:00 AM 2.75 36.95 0.107 7.62 3.34 14.52
3/10/2021 10:00:00 AM 2.97 37.346 0.106 7.61 3.24 14.47
3/10/2021 10:15:00 AM 3.21 37.778 0.107 7.59 3.35 14.4
3/10/2021 10:30:00 AM 3.4 38.12 0.106 7.63 3.43 14.35
3/10/2021 10:45:00 AM 3.6 38.48 0.107 7.65 3.22 14.3
3/10/2021 11:00:00 AM 3.86 38.948 0.106 7.65 3.38 14.23
3/10/2021 11:15:00 AM 4.03 39.254 0.107 7.69 3.11 14.16
3/10/2021 11:30:00 AM 4.27 39.686 0.106 7.66 3.21 14.08
3/10/2021 11:45:00 AM 4.42 39.956 0.106 7.68 3.4 14.02
3/10/2021 12:00:00 PM 4.61 40.298 0.106 7.69 3.21 13.95
3/10/2021 12:15:00 PM 4.8 40.64 0.105 7.71 3.29 13.88
3/10/2021 12:30:00 PM 4.98 40.964 0.105 7.72 3.2 13.83
3/10/2021 12:45:00 PM 5.17 41.306 0.105 7.68 3.4 13.71
3/10/2021 1:00:00 PM 5.3 41.54 0.105 7.7 3.29 13.66
3/10/2021 1:15:00 PM 5.53 41.954 0.105 7.69 3.22 13.58
3/10/2021 1:30:00 PM 5.68 42.224 0.105 7.71 3.33 13.53
3/10/2021 1:45:00 PM 5.82 42.476 0.105 7.71 3.24 13.47
3/10/2021 2:00:00 PM 5.98 42.764 0.106 7.72 3.19 13.38
3/10/2021 2:15:00 PM 6.09 42.962 0.105 7.75 3.26 13.36
3/10/2021 2:30:00 PM 6.14 43.052 0.105 7.72 3.25 13.3
3/10/2021 2:45:00 PM 6.25 43.25 0.106 7.7 3.24 13.25
3/10/2021 3:00:00 PM 6.31 43.358 0.105 7.7 3.33 13.21
3/10/2021 3:15:00 PM 6.33 43.394 0.106 7.72 3.3 13.17
3/10/2021 3:30:00 PM 6.36 43.448 0.105 7.74 3.39 13.14
3/10/2021 3:45:00 PM 6.37 43.466 0.106 7.67 3.33 13.08
3/10/2021 4:00:00 PM 6.35 43.43 0.105 7.69 3.49 13.05
3/10/2021 4:15:00 PM 6.32 43.376 0.106 7.68 3.38 13.03
3/10/2021 4:30:00 PM 6.28 43.304 0.106 7.67 3.46 13.01
3/10/2021 4:45:00 PM 6.24 43.232 0.106 7.64 3.69 12.97
3/10/2021 5:00:00 PM 6.16 43.088 0.106 7.62 3.6 12.94
3/10/2021 5:15:00 PM 6.05 42.89 0.106 7.61 3.78 12.94
3/10/2021 5:30:00 PM 5.94 42.692 0.106 7.61 3.84 12.97
3/10/2021 5:45:00 PM 5.82 42.476 0.106 7.58 4.09 12.94
3/10/2021 6:00:00 PM 5.65 42.17 0.106 7.58 4.34 12.98
3/10/2021 6:15:00 PM 5.54 41.972 0.106 7.54 4.5 12.96
3/10/2021 6:30:00 PM 5.43 41.774 0.106 7.51 4.55 12.96
3/10/2021 6:45:00 PM 5.32 41.576 0.106 7.5 4.68 12.98
3/10/2021 7:00:00 PM 5.2 41.36 0.107 7.5 4.71 13.01
3/10/2021 7:15:00 PM 5.08 41.144 0.106 7.51 4.57 13.05
3/10/2021 7:30:00 PM 5.01 41.018 0.107 7.5 4.39 13.09
3/10/2021 7:45:00 PM 4.92 40.856 0.107 7.5 4.48 13.12
3/10/2021 8:00:00 PM 4.84 40.712 0.107 7.5 4.4 13.14
3/10/2021 8:15:00 PM 4.77 40.586 0.106 7.49 4.21 13.17
3/10/2021 8:30:00 PM 4.68 40.424 0.107 7.51 4.27 13.21
3/10/2021 8:45:00 PM 4.63 40.334 0.107 7.49 4.37 13.2
3/10/2021 9:00:00 PM 4.56 40.208 0.107 7.49 4.16 13.24
3/10/2021 9:15:00 PM 4.52 40.136 0.106 7.49 4.09 13.25
3/10/2021 9:30:00 PM 4.46 40.028 0.106 7.49 4.19 13.28
3/10/2021 9:45:00 PM 4.42 39.956 0.106 7.48 4.12 13.29
3/10/2021 10:00:00 PM 4.34 39.812 0.106 7.49 4.19 13.32
3/10/2021 10:15:00 PM 4.3 39.74 0.106 7.48 4.16 13.32
3/10/2021 10:30:00 PM 4.25 39.65 0.106 7.48 4.06 13.34
3/10/2021 10:45:00 PM 4.19 39.542 0.106 7.48 4.12 13.36
3/10/2021 11:00:00 PM 4.13 39.434 0.106 7.48 4.05 13.39
3/10/2021 11:15:00 PM 4.08 39.344 0.106 7.5 4.07 13.42
3/10/2021 11:30:00 PM 4.03 39.254 0.106 7.47 3.96 13.42
3/10/2021 11:45:00 PM 3.98 39.164 0.106 7.48 4.14 13.44
3/11/2021 12:00:00 AM 3.95 39.11 0.106 7.48 3.89 13.44
3/11/2021 12:15:00 AM 3.92 39.056 0.106 7.48 3.99 13.46
3/11/2021 12:30:00 AM 3.87 38.966 0.105 7.49 4.13 13.5
3/11/2021 12:45:00 AM 3.84 38.912 0.105 7.48 4.42 13.52
3/11/2021 1:00:00 AM 3.81 38.858 0.105 7.48 4.08 13.52
3/11/2021 1:15:00 AM 3.76 38.768 0.105 7.49 3.99 13.55
3/11/2021 1:30:00 AM 3.73 38.714 0.105 7.48 4.07 13.56
3/11/2021 1:45:00 AM 3.69 38.642 0.106 7.48 3.99 13.56
3/11/2021 2:00:00 AM 3.65 38.57 0.105 7.47 3.93 13.57
3/11/2021 2:15:00 AM 3.6 38.48 0.104 7.48 3.99 13.61
3/11/2021 2:30:00 AM 3.57 38.426 0.104 7.48 3.9 13.6
3/11/2021 2:45:00 AM 3.57 38.426 0.105 7.47 3.94 13.58
3/11/2021 3:00:00 AM 3.55 38.39 0.104 7.47 4.01 13.61
3/11/2021 3:15:00 AM 3.53 38.354 0.104 7.47 3.89 13.62
3/11/2021 3:30:00 AM 3.52 38.336 0.104 7.48 3.96 13.62
3/11/2021 3:45:00 AM 3.54 38.372 0.104 7.47 4.03 13.61
3/11/2021 4:00:00 AM 3.55 38.39 0.103 7.46 3.96 13.59
3/11/2021 4:15:00 AM 3.55 38.39 0.103 7.47 3.81 13.6
3/11/2021 4:30:00 AM 3.55 38.39 0.103 7.47 3.87 13.61
3/11/2021 4:45:00 AM 3.57 38.426 0.103 7.47 3.86 13.61
3/11/2021 5:00:00 AM 3.57 38.426 0.102 7.47 3.89 13.61
3/11/2021 5:15:00 AM 3.58 38.444 0.102 7.47 3.89 13.6
3/11/2021 5:30:00 AM 3.57 38.426 0.102 7.47 4.01 13.61
3/11/2021 5:45:00 AM 3.56 38.408 0.102 7.46 3.92 13.61
3/11/2021 6:00:00 AM 3.56 38.408 0.102 7.46 3.91 13.61
3/11/2021 6:15:00 AM 3.55 38.39 0.102 7.47 3.9 13.62
3/11/2021 6:30:00 AM 3.57 38.426 0.102 7.45 4 13.59
3/11/2021 6:45:00 AM 3.55 38.39 0.102 7.47 3.87 13.64
3/11/2021 7:00:00 AM 3.56 38.408 0.102 7.48 3.88 13.66
3/11/2021 7:15:00 AM 3.56 38.408 0.102 7.49 3.8 13.69
3/11/2021 7:30:00 AM 3.59 38.462 0.102 7.48 3.79 13.7
3/11/2021 7:45:00 AM 3.61 38.498 0.102 7.5 3.83 13.75
3/11/2021 8:00:00 AM 3.64 38.552 0.102 7.52 3.77 13.81
3/11/2021 8:15:00 AM 3.68 38.624 0.102 7.54 3.86 13.85
3/11/2021 8:30:00 AM 3.73 38.714 0.102 7.56 3.82 13.88
3/11/2021 8:45:00 AM 3.77 38.786 0.101 7.57 3.82 13.88
3/11/2021 9:00:00 AM 3.85 38.93 0.101 7.6 3.94 13.91
3/11/2021 9:15:00 AM 3.91 39.038 0.101 7.63 3.9 13.92
3/11/2021 9:30:00 AM 3.98 39.164 0.101 7.64 3.94 13.91
3/11/2021 9:45:00 AM 4.11 39.398 0.101 7.65 3.79 13.9
3/11/2021 10:00:00 AM 4.26 39.668 0.101 7.67 4.03 13.89
3/11/2021 10:15:00 AM 4.41 39.938 0.101 7.67 3.88 13.85
3/11/2021 10:30:00 AM 4.6 40.28 0.101 7.71 3.84 13.8
3/11/2021 10:45:00 AM 4.79 40.622 0.101 7.71 3.89 13.75
3/11/2021 11:00:00 AM 5 41 0.101 7.73 3.92 13.71
3/11/2021 11:15:00 AM 5.21 41.378 0.101 7.75 3.94 13.62
3/11/2021 11:30:00 AM 5.44 41.792 0.101 7.75 3.79 13.54
3/11/2021 11:45:00 AM 5.59 42.062 0.101 7.78 3.74 13.48
3/11/2021 12:00:00 PM 5.78 42.404 0.101 7.79 3.9 13.45
3/11/2021 12:15:00 PM 6 42.8 0.101 7.8 3.91 13.36
3/11/2021 12:30:00 PM 6.17 43.106 0.101 7.8 3.86 13.3
3/11/2021 12:45:00 PM 6.26 43.268 0.101 7.83 3.93 13.27
3/11/2021 1:00:00 PM 6.38 43.484 0.101 7.82 3.96 13.19
3/11/2021 1:15:00 PM 6.49 43.682 0.101 7.83 4.14 13.12
3/11/2021 1:30:00 PM 6.52 43.736 0.101 7.79 4.54 13.04
3/11/2021 1:45:00 PM 6.53 43.754 0.101 7.75 4.42 12.99
3/11/2021 2:00:00 PM 6.54 43.772 0.101 7.77 4.48 12.99
3/11/2021 2:15:00 PM 6.51 43.718 0.102 7.73 4.64 12.94
3/11/2021 2:30:00 PM 6.46 43.628 0.102 7.69 4.88 12.85
3/11/2021 2:45:00 PM 6.41 43.538 0.103 7.64 5.04 12.78
3/11/2021 3:00:00 PM 6.41 43.538 0.102 7.66 5.32 12.89
3/11/2021 3:15:00 PM 6.34 43.412 0.102 7.66 5.69 12.91
3/11/2021 3:30:00 PM 6.31 43.358 0.102 7.68 5.52 12.98
3/11/2021 3:45:00 PM 6.29 43.322 0.102 7.68 6.16 12.96
3/11/2021 4:00:00 PM 6.27 43.286 0.102 7.67 5.95 12.96
3/11/2021 4:15:00 PM 6.24 43.232 0.103 7.65 5.95 12.9
3/11/2021 4:30:00 PM 6.21 43.178 0.103 7.63 5.84 12.86
3/11/2021 4:45:00 PM 6.14 43.052 0.103 7.62 5.7 12.85
3/11/2021 5:00:00 PM 6.08 42.944 0.103 7.59 5.69 12.82
3/11/2021 5:15:00 PM 6.01 42.818 0.103 7.58 5.62 12.85
3/11/2021 5:30:00 PM 5.92 42.656 0.103 7.57 5.53 12.85
3/11/2021 5:45:00 PM 5.83 42.494 0.104 7.57 5.26 12.87
3/11/2021 6:00:00 PM 5.76 42.368 0.104 7.55 5.42 12.87
3/11/2021 6:15:00 PM 5.71 42.278 0.104 7.54 5.12 12.86
3/11/2021 6:30:00 PM 5.67 42.206 0.104 7.53 5.29 12.86
3/11/2021 6:45:00 PM 5.63 42.134 0.105 7.52 5.08 12.85
3/11/2021 7:00:00 PM 5.58 42.044 0.104 7.51 5.1 12.85
3/11/2021 7:15:00 PM 5.52 41.936 0.104 7.5 5.41 12.86
3/11/2021 7:30:00 PM 5.46 41.828 0.104 7.5 5.61 12.88
3/11/2021 7:45:00 PM 5.41 41.738 0.105 7.5 5.6 12.88
3/11/2021 8:00:00 PM 5.36 41.648 0.105 7.5 5.82 12.9
3/11/2021 8:15:00 PM 5.3 41.54 0.105 7.5 5.09 12.92
3/11/2021 8:30:00 PM 5.25 41.45 0.105 7.5 5.52 12.94
3/11/2021 8:45:00 PM 5.25 41.45 0.105 7.5 5.62 12.94
3/11/2021 9:00:00 PM 5.28 41.504 0.105 7.5 5.5 12.94
3/11/2021 9:15:00 PM 5.29 41.522 0.105 7.5 5.46 12.94
3/11/2021 9:30:00 PM 5.28 41.504 0.105 7.5 5.59 12.93
3/11/2021 9:45:00 PM 5.26 41.468 0.104 7.5 5.19 12.93
3/11/2021 10:00:00 PM 5.28 41.504 0.104 7.5 5.15 12.94
3/11/2021 10:15:00 PM 5.29 41.522 0.104 7.5 5.25 12.95
3/11/2021 10:30:00 PM 5.29 41.522 0.104 7.5 5.27 12.94
3/11/2021 10:45:00 PM 5.25 41.45 0.105 7.49 5.09 12.96
3/11/2021 11:00:00 PM 5.17 41.306 0.104 7.49 5.33 12.98
3/11/2021 11:15:00 PM 5.11 41.198 0.104 7.49 5.11 13
3/11/2021 11:30:00 PM 5.07 41.126 0.104 7.48 5.2 13.02
3/11/2021 11:45:00 PM 5.02 41.036 0.104 7.48 5.24 13.04
3/12/2021 12:00:00 AM 4.99 40.982 0.104 7.48 5.16 13.05
3/12/2021 12:15:00 AM 4.98 40.964 0.103 7.48 5.02 13.06
3/12/2021 12:30:00 AM 4.96 40.928 0.103 7.48 5.06 13.05
3/12/2021 12:45:00 AM 4.96 40.928 0.104 7.49 5.5 13.07
3/12/2021 1:00:00 AM 4.97 40.946 0.103 7.48 4.99 13.06
3/12/2021 1:15:00 AM 4.97 40.946 0.103 7.48 5 13.06
3/12/2021 1:30:00 AM 4.97 40.946 0.103 7.48 5.02 13.07
3/12/2021 1:45:00 AM 4.96 40.928 0.103 7.48 5.11 13.07
3/12/2021 2:00:00 AM 4.93 40.874 0.102 7.47 5.01 13.08
3/12/2021 2:15:00 AM 4.9 40.82 0.102 7.47 5.07 13.08
3/12/2021 2:30:00 AM 4.88 40.784 0.102 7.47 5.28 13.1
3/12/2021 2:45:00 AM 4.87 40.766 0.102 7.47 5 13.1
3/12/2021 3:00:00 AM 4.86 40.748 0.102 7.47 4.9 13.1
3/12/2021 3:15:00 AM 4.88 40.784 0.102 7.47 5.12 13.11
3/12/2021 3:30:00 AM 4.87 40.766 0.101 7.47 5.11 13.1
3/12/2021 3:45:00 AM 4.85 40.73 0.101 7.47 4.7 13.12
3/12/2021 4:00:00 AM 4.83 40.694 0.101 7.47 4.81 13.12
3/12/2021 4:15:00 AM 4.82 40.676 0.101 7.46 4.79 13.13
3/12/2021 4:30:00 AM 4.76 40.568 0.101 7.47 5.02 13.15
3/12/2021 4:45:00 AM 4.74 40.532 0.101 7.46 4.65 13.16
3/12/2021 5:00:00 AM 4.7 40.46 0.101 7.46 5.78 13.17
3/12/2021 5:15:00 AM 4.67 40.406 0.101 7.46 4.87 13.18
3/12/2021 5:30:00 AM 4.65 40.37 0.1 7.46 5.08 13.2
3/12/2021 5:45:00 AM 4.61 40.298 0.1 7.46 5.09 13.2
3/12/2021 6:00:00 AM 4.55 40.19 0.1 7.46 4.94 13.22
3/12/2021 6:15:00 AM 4.49 40.082 0.101 7.46 5.11 13.25
3/12/2021 6:30:00 AM 4.43 39.974 0.1 7.46 4.82 13.29
3/12/2021 6:45:00 AM 4.37 39.866 0.1 7.46 5.1 13.34
3/12/2021 7:00:00 AM 4.29 39.722 0.1 7.47 4.74 13.4
3/12/2021 7:15:00 AM 4.24 39.632 0.1 7.48 5.04 13.43
3/12/2021 7:30:00 AM 4.19 39.542 0.1 7.49 4.85 13.49
3/12/2021 7:45:00 AM 4.17 39.506 0.1 7.49 4.7 13.52
3/12/2021 8:00:00 AM 4.16 39.488 0.099 7.51 4.82 13.56
3/12/2021 8:15:00 AM 4.15 39.47 0.099 7.53 4.86 13.61
3/12/2021 8:30:00 AM 4.17 39.506 0.099 7.54 4.76 13.63
3/12/2021 8:45:00 AM 4.22 39.596 0.099 7.55 4.63 13.64
3/12/2021 9:00:00 AM 4.26 39.668 0.099 7.57 4.48 13.66
3/12/2021 9:15:00 AM 4.34 39.812 0.099 7.58 4.75 13.65
3/12/2021 9:30:00 AM 4.44 39.992 0.099 7.59 4.59 13.64
3/12/2021 9:45:00 AM 4.54 40.172 0.098 7.61 4.66 13.64
3/12/2021 10:00:00 AM 4.66 40.388 0.098 7.61 4.83 13.62
3/12/2021 10:15:00 AM 4.76 40.568 0.098 7.64 4.72 13.62
3/12/2021 10:30:00 AM 4.91 40.838 0.098 7.64 4.69 13.58
3/12/2021 10:45:00 AM 5.05 41.09 0.098 7.65 4.77 13.55
3/12/2021 11:00:00 AM 5.17 41.306 0.098 7.67 4.3 13.5
3/12/2021 11:15:00 AM 5.31 41.558 0.097 7.67 4.63 13.46
3/12/2021 11:30:00 AM 5.44 41.792 0.097 7.68 4.57 13.42
3/12/2021 11:45:00 AM 5.57 42.026 0.097 7.68 4.42 13.39
3/12/2021 12:00:00 PM 5.68 42.224 0.097 7.7 4.52 13.35
3/12/2021 12:15:00 PM 5.81 42.458 0.098 7.7 4.43 13.29
3/12/2021 12:30:00 PM 5.93 42.674 0.097 7.71 4.51 13.25
3/12/2021 12:45:00 PM 6.05 42.89 0.098 7.7 4.7 13.2
3/12/2021 1:00:00 PM 6.18 43.124 0.098 7.72 4.49 13.16
3/12/2021 1:15:00 PM 6.29 43.322 0.097 7.72 4.38 13.12
3/12/2021 1:30:00 PM 6.39 43.502 0.098 7.72 4.51 13.06
3/12/2021 1:45:00 PM 6.49 43.682 0.097 7.73 5.42 13.03
3/12/2021 2:00:00 PM 6.56 43.808 0.097 7.74 4.6 12.98
3/12/2021 2:15:00 PM 6.63 43.934 0.097 7.72 4.46 12.95
3/12/2021 2:30:00 PM 6.68 44.024 0.098 7.72 4.72 12.92
3/12/2021 2:45:00 PM 6.71 44.078 0.098 7.72 4.52 12.89
3/12/2021 3:00:00 PM 6.72 44.096 0.098 7.72 4.51 12.87
3/12/2021 3:15:00 PM 6.72 44.096 0.098 7.71 4.77 12.85
3/12/2021 3:30:00 PM 6.7 44.06 0.098 7.71 4.59 12.83
3/12/2021 3:45:00 PM 6.66 43.988 0.098 7.68 4.44 12.81
3/12/2021 4:00:00 PM 6.6 43.88 0.098 7.66 4.74 12.78
3/12/2021 4:15:00 PM 6.52 43.736 0.098 7.64 4.52 12.77
3/12/2021 4:30:00 PM 6.43 43.574 0.098 7.62 4.49 12.76
3/12/2021 4:45:00 PM 6.3 43.34 0.098 7.62 4.27 12.8
3/12/2021 5:00:00 PM 6.18 43.124 0.098 7.59 4.51 12.81
3/12/2021 5:15:00 PM 6.03 42.854 0.099 7.58 4.46 12.83
3/12/2021 5:30:00 PM 5.91 42.638 0.099 7.57 4.55 12.85
3/12/2021 5:45:00 PM 5.78 42.404 0.099 7.56 4.48 12.87
3/12/2021 6:00:00 PM 5.67 42.206 0.099 7.54 4.31 12.86
3/12/2021 6:15:00 PM 5.55 41.99 0.099 7.52 4.51 12.88
3/12/2021 6:30:00 PM 5.43 41.774 0.1 7.52 4.54 12.89
3/12/2021 6:45:00 PM 5.32 41.576 0.1 7.51 4.58 12.92
3/12/2021 7:00:00 PM 5.22 41.396 0.1 7.5 4.9 12.95
3/12/2021 7:15:00 PM 5.13 41.234 0.1 7.49 4.68 12.97
3/12/2021 7:30:00 PM 5.05 41.09 0.1 7.49 4.5 13.02
3/12/2021 7:45:00 PM 4.96 40.928 0.1 7.49 4.33 13.05
3/12/2021 8:00:00 PM 4.88 40.784 0.1 7.49 4.4 13.08
3/12/2021 8:15:00 PM 4.82 40.676 0.1 7.49 4.39 13.11
3/12/2021 8:30:00 PM 4.75 40.55 0.1 7.49 4.38 13.13
3/12/2021 8:45:00 PM 4.71 40.478 0.1 7.48 4.42 13.14
3/12/2021 9:00:00 PM 4.65 40.37 0.1 7.48 4.34 13.17
3/12/2021 9:15:00 PM 4.61 40.298 0.1 7.48 4.21 13.18
3/12/2021 9:30:00 PM 4.58 40.244 0.1 7.48 4.3 13.19
3/12/2021 9:45:00 PM 4.55 40.19 0.099 7.48 4.26 13.21
3/12/2021 10:00:00 PM 4.52 40.136 0.099 7.48 4.28 13.22
3/12/2021 10:15:00 PM 4.48 40.064 0.1 7.47 4.24 13.25
3/12/2021 10:30:00 PM 4.45 40.01 0.099 7.48 4.21 13.26
3/12/2021 10:45:00 PM 4.4 39.92 0.099 7.48 4.33 13.29
3/12/2021 11:00:00 PM 4.36 39.848 0.099 7.48 4.15 13.3
3/12/2021 11:15:00 PM 4.34 39.812 0.099 7.48 4.07 13.31
3/12/2021 11:30:00 PM 4.31 39.758 0.099 7.47 4.11 13.32
3/12/2021 11:45:00 PM 4.26 39.668 0.099 7.47 4.12 13.35
3/13/2021 12:00:00 AM 4.21 39.578 0.099 7.47 4.17 13.35
3/13/2021 12:15:00 AM 4.15 39.47 0.099 7.46 4.29 13.36
3/13/2021 12:30:00 AM 4.09 39.362 0.099 7.47 3.99 13.38
3/13/2021 12:45:00 AM 4.01 39.218 0.099 7.47 4.11 13.42
3/13/2021 1:00:00 AM 3.93 39.074 0.099 7.47 4.04 13.45
3/13/2021 1:15:00 AM 3.87 38.966 0.099 7.47 4.15 13.48
3/13/2021 1:30:00 AM 3.81 38.858 0.099 7.47 4.05 13.52
3/13/2021 1:45:00 AM 3.76 38.768 0.099 7.47 4.06 13.53
3/13/2021 2:00:00 AM 3.7 38.66 0.099 7.47 4.15 13.56
3/13/2021 2:15:00 AM 3.65 38.57 0.099 7.47 4.13 13.58
3/13/2021 2:30:00 AM 3.59 38.462 0.099 7.47 4.2 13.62
3/13/2021 2:45:00 AM 3.52 38.336 0.099 7.47 4.13 13.63
3/13/2021 3:00:00 AM 3.46 38.228 0.099 7.47 4.08 13.65
3/13/2021 3:15:00 AM 3.41 38.138 0.099 7.47 4.17 13.69
3/13/2021 3:30:00 AM 3.35 38.03 0.1 7.47 4.05 13.7
3/13/2021 3:45:00 AM 3.29 37.922 0.099 7.46 4.13 13.72
3/13/2021 4:00:00 AM 3.24 37.832 0.099 7.46 4.18 13.74
3/13/2021 4:15:00 AM 3.18 37.724 0.099 7.47 4.2 13.77
3/13/2021 4:30:00 AM 3.12 37.616 0.099 7.46 4.16 13.8
3/13/2021 4:45:00 AM 3.08 37.544 0.099 7.47 4.06 13.82
3/13/2021 5:00:00 AM 3.04 37.472 0.099 7.47 4.29 13.84
3/13/2021 5:15:00 AM 3 37.4 0.099 7.47 4.16 13.86
3/13/2021 5:30:00 AM 2.97 37.346 0.1 7.47 4.15 13.87
3/13/2021 5:45:00 AM 2.94 37.292 0.1 7.46 3.88 13.88
3/13/2021 6:00:00 AM 2.9 37.22 0.1 7.47 4.07 13.89
3/13/2021 6:15:00 AM 2.87 37.166 0.1 7.47 4.14 13.91
3/13/2021 6:30:00 AM 2.85 37.13 0.1 7.47 4.14 13.93
3/13/2021 6:45:00 AM 2.83 37.094 0.1 7.48 4.04 13.95
3/13/2021 7:00:00 AM 2.83 37.094 0.099 7.49 4.14 13.99
3/13/2021 7:15:00 AM 2.82 37.076 0.099 7.5 4.21 14.03
3/13/2021 7:30:00 AM 2.82 37.076 0.099 7.51 3.96 14.07
3/13/2021 7:45:00 AM 2.82 37.076 0.099 7.52 4.01 14.1
3/13/2021 8:00:00 AM 2.81 37.058 0.099 7.54 3.96 14.14
3/13/2021 8:15:00 AM 2.85 37.13 0.099 7.54 4.16 14.17
3/13/2021 8:30:00 AM 2.88 37.184 0.098 7.55 4 14.2
3/13/2021 8:45:00 AM 2.93 37.274 0.098 7.57 3.99 14.21
3/13/2021 9:00:00 AM 3.02 37.436 0.098 7.59 4 14.21
3/13/2021 9:15:00 AM 3.1 37.58 0.098 7.6 3.99 14.2
3/13/2021 9:30:00 AM 3.22 37.796 0.098 7.61 3.95 14.18
3/13/2021 9:45:00 AM 3.35 38.03 0.098 7.63 3.96 14.17
3/13/2021 10:00:00 AM 3.47 38.246 0.098 7.65 3.9 14.16
3/13/2021 10:15:00 AM 3.62 38.516 0.098 7.66 3.81 14.13
3/13/2021 10:30:00 AM 3.77 38.786 0.098 7.67 3.97 14.1
3/13/2021 10:45:00 AM 3.92 39.056 0.098 7.68 3.94 14.04
3/13/2021 11:00:00 AM 4.08 39.344 0.098 7.68 3.96 14
3/13/2021 11:15:00 AM 4.21 39.578 0.098 7.7 4.16 13.97
3/13/2021 11:30:00 AM 4.36 39.848 0.098 7.7 4.01 13.91
3/13/2021 11:45:00 AM 4.48 40.064 0.098 7.71 4.03 13.87
3/13/2021 12:00:00 PM 4.62 40.316 0.098 7.72 4.2 13.82
3/13/2021 12:15:00 PM 4.74 40.532 0.099 7.7 4.05 13.76
3/13/2021 12:30:00 PM 4.86 40.748 0.099 7.72 3.93 13.73
3/13/2021 12:45:00 PM 4.98 40.964 0.099 7.72 4.13 13.67
3/13/2021 1:00:00 PM 5.1 41.18 0.099 7.74 3.81 13.63
3/13/2021 1:15:00 PM 5.22 41.396 0.099 7.73 3.98 13.57
3/13/2021 1:30:00 PM 5.34 41.612 0.099 7.73 3.86 13.52
3/13/2021 1:45:00 PM 5.45 41.81 0.099 7.74 3.85 13.48
3/13/2021 2:00:00 PM 5.54 41.972 0.099 7.75 3.94 13.45
3/13/2021 2:15:00 PM 5.63 42.134 0.099 7.74 3.72 13.4
3/13/2021 2:30:00 PM 5.69 42.242 0.099 7.74 3.86 13.35
3/13/2021 2:45:00 PM 5.77 42.386 0.099 7.72 3.84 13.3
3/13/2021 3:00:00 PM 5.8 42.44 0.099 7.74 4.1 13.28
3/13/2021 3:15:00 PM 5.84 42.512 0.099 7.72 4.11 13.22
3/13/2021 3:30:00 PM 5.84 42.512 0.099 7.73 3.99 13.2
3/13/2021 3:45:00 PM 5.85 42.53 0.099 7.68 4.16 13.15
3/13/2021 4:00:00 PM 5.82 42.476 0.099 7.66 4.26 13.11
3/13/2021 4:15:00 PM 5.76 42.368 0.099 7.65 4.1 13.09
3/13/2021 4:30:00 PM 5.71 42.278 0.099 7.64 3.96 13.08
3/13/2021 4:45:00 PM 5.64 42.152 0.099 7.62 4.02 13.07
3/13/2021 5:00:00 PM 5.53 41.954 0.099 7.61 4.24 13.08
3/13/2021 5:15:00 PM 5.4 41.72 0.099 7.59 5.24 13.09
3/13/2021 5:30:00 PM 5.29 41.522 0.1 7.58 5.1 13.09
3/13/2021 5:45:00 PM 5.18 41.324 0.1 7.57 4.55 13.11
3/13/2021 6:00:00 PM 5.07 41.126 0.101 7.56 4.12 13.11
3/13/2021 6:15:00 PM 4.96 40.928 0.101 7.53 4.09 13.11
3/13/2021 6:30:00 PM 4.86 40.748 0.101 7.51 3.93 13.11
3/13/2021 6:45:00 PM 4.75 40.55 0.101 7.51 3.86 13.13
3/13/2021 7:00:00 PM 4.63 40.334 0.102 7.51 3.94 13.15
3/13/2021 7:15:00 PM 4.53 40.154 0.101 7.5 3.94 13.19
3/13/2021 7:30:00 PM 4.43 39.974 0.102 7.49 4.08 13.21
3/13/2021 7:45:00 PM 4.34 39.812 0.102 7.49 3.88 13.26
3/13/2021 8:00:00 PM 4.26 39.668 0.102 7.49 3.81 13.28
3/13/2021 8:15:00 PM 4.17 39.506 0.102 7.49 3.88 13.31
3/13/2021 8:30:00 PM 4.08 39.344 0.102 7.48 3.83 13.33
3/13/2021 8:45:00 PM 4 39.2 0.102 7.48 3.94 13.36
3/13/2021 9:00:00 PM 3.91 39.038 0.102 7.49 3.9 13.39
3/13/2021 9:15:00 PM 3.83 38.894 0.102 7.49 3.85 13.42
3/13/2021 9:30:00 PM 3.76 38.768 0.102 7.48 3.82 13.45
3/13/2021 9:45:00 PM 3.7 38.66 0.102 7.47 3.7 13.48
3/13/2021 10:00:00 PM 3.62 38.516 0.102 7.48 3.79 13.5
3/13/2021 10:15:00 PM 3.55 38.39 0.102 7.48 3.81 13.52
3/13/2021 10:30:00 PM 3.49 38.282 0.102 7.47 3.73 13.53
3/13/2021 10:45:00 PM 3.43 38.174 0.102 7.48 3.76 13.55
3/13/2021 11:00:00 PM 3.38 38.084 0.102 7.47 3.74 13.58
3/13/2021 11:15:00 PM 3.34 38.012 0.102 7.46 3.72 13.58
3/13/2021 11:30:00 PM 3.3 37.94 0.102 7.46 3.66 13.58
3/13/2021 11:45:00 PM 3.25 37.85 0.102 7.47 3.79 13.62
3/14/2021 12:00:00 AM 3.21 37.778 0.102 7.47 3.72 13.63
3/14/2021 12:15:00 AM 3.18 37.724 0.102 7.47 3.93 13.65
3/14/2021 12:30:00 AM 3.15 37.67 0.102 7.46 3.76 13.64
3/14/2021 12:45:00 AM 3.13 37.634 0.102 7.45 3.78 13.65
3/14/2021 1:00:00 AM 3.11 37.598 0.101 7.46 3.78 13.67
3/14/2021 1:15:00 AM 3.08 37.544 0.101 7.46 3.69 13.67
3/14/2021 1:30:00 AM 3.09 37.562 0.101 7.44 3.71 13.66
3/14/2021 1:45:00 AM 3.06 37.508 0.102 7.46 3.67 13.68
3/14/2021 3:00:00 AM 3.06 37.508 0.1 7.45 3.64 13.67
3/14/2021 3:15:00 AM 3.09 37.562 0.1 7.45 3.74 13.65
3/14/2021 3:30:00 AM 3.1 37.58 0.1 7.45 3.82 13.64
3/14/2021 3:45:00 AM 3.11 37.598 0.1 7.46 3.69 13.64
3/14/2021 4:00:00 AM 3.16 37.688 0.1 7.45 3.67 13.63
3/14/2021 5:15:00 AM 3.18 37.724 0.1 7.46 3.49 13.61
3/14/2021 5:30:00 AM 3.19 37.742 0.099 7.45 3.64 13.6
3/14/2021 5:45:00 AM 3.22 37.796 0.099 7.45 3.85 13.59
3/14/2021 6:00:00 AM 3.24 37.832 0.099 7.44 3.77 13.56
3/14/2021 6:15:00 AM 3.22 37.796 0.099 7.45 3.66 13.58
3/14/2021 6:30:00 AM 3.21 37.778 0.099 7.46 3.56 13.59
3/14/2021 6:45:00 AM 3.2 37.76 0.099 7.45 3.71 13.58
3/14/2021 7:00:00 AM 3.2 37.76 0.099 7.45 3.56 13.59
3/14/2021 7:15:00 AM 3.19 37.742 0.099 7.45 3.65 13.59
3/14/2021 7:30:00 AM 3.19 37.742 0.099 7.45 3.64 13.59
3/14/2021 7:45:00 AM 3.19 37.742 0.099 7.46 3.55 13.63
3/14/2021 8:00:00 AM 3.2 37.76 0.098 7.47 3.69 13.67
3/14/2021 8:15:00 AM 3.2 37.76 0.098 7.49 3.6 13.72
3/14/2021 8:30:00 AM 3.24 37.832 0.098 7.49 3.55 13.75
3/14/2021 8:45:00 AM 3.28 37.904 0.098 7.5 3.66 13.77
3/14/2021 9:00:00 AM 3.31 37.958 0.098 7.53 3.56 13.83
3/14/2021 9:15:00 AM 3.38 38.084 0.098 7.52 3.61 13.82
3/14/2021 9:30:00 AM 3.43 38.174 0.098 7.54 3.56 13.85
3/14/2021 9:45:00 AM 3.53 38.354 0.098 7.54 3.58 13.84
3/14/2021 10:00:00 AM 3.61 38.498 0.098 7.57 3.57 13.85
3/14/2021 10:15:00 AM 3.74 38.732 0.098 7.58 3.5 13.83
3/14/2021 10:30:00 AM 3.88 38.984 0.098 7.6 3.57 13.82
3/14/2021 10:45:00 AM 4.07 39.326 0.097 7.64 3.73 13.83
3/14/2021 11:00:00 AM 4.24 39.632 0.097 7.65 3.61 13.81
3/14/2021 11:15:00 AM 4.33 39.794 0.097 7.66 3.6 13.77
3/14/2021 11:30:00 AM 4.56 40.208 0.097 7.7 3.59 13.74
3/14/2021 11:45:00 AM 4.66 40.388 0.098 7.69 3.53 13.65
3/14/2021 12:00:00 PM 4.81 40.658 0.097 7.67 3.59 13.63
3/14/2021 12:15:00 PM 5.03 41.054 0.098 7.71 3.47 13.61
3/14/2021 12:30:00 PM 5.08 41.144 0.097 7.7 3.48 13.53
3/14/2021 12:45:00 PM 5.28 41.504 0.097 7.73 3.53 13.5
3/14/2021 1:00:00 PM 5.31 41.558 0.097 7.71 3.48 13.44
3/14/2021 1:15:00 PM 5.42 41.756 0.097 7.73 3.51 13.43
3/14/2021 1:30:00 PM 5.5 41.9 0.097 7.7 3.59 13.41
3/14/2021 1:45:00 PM 5.44 41.792 0.097 7.71 3.56 13.4
3/14/2021 2:00:00 PM 5.56 42.008 0.097 7.74 3.53 13.4
3/14/2021 2:15:00 PM 5.55 41.99 0.097 7.74 3.65 13.39
3/14/2021 2:30:00 PM 5.57 42.026 0.096 7.76 3.64 13.39
3/14/2021 2:45:00 PM 5.56 42.008 0.096 7.72 3.88 13.35
3/14/2021 3:00:00 PM 5.64 42.152 0.096 7.77 3.8 13.39
3/14/2021 3:15:00 PM 5.67 42.206 0.096 7.73 3.74 13.32
3/14/2021 3:30:00 PM 5.65 42.17 0.097 7.74 3.66 13.33
3/14/2021 3:45:00 PM 5.63 42.134 0.097 7.72 3.68 13.27
3/14/2021 4:00:00 PM 5.66 42.188 0.097 7.73 4.37 13.29
3/14/2021 4:15:00 PM 5.67 42.206 0.097 7.71 4.27 13.3
3/14/2021 4:30:00 PM 5.53 41.954 0.097 7.69 4.04 13.25
3/14/2021 4:45:00 PM 5.47 41.846 0.097 7.69 3.87 13.3
3/14/2021 5:00:00 PM 5.41 41.738 0.097 7.71 3.72 13.31
3/14/2021 5:15:00 PM 5.36 41.648 0.097 7.69 3.76 13.29
3/14/2021 5:30:00 PM 5.28 41.504 0.097 7.66 3.64 13.26
3/14/2021 5:45:00 PM 5.16 41.288 0.097 7.65 3.63 13.28
3/14/2021 6:00:00 PM 5.06 41.108 0.097 7.65 3.68 13.3
3/14/2021 6:15:00 PM 4.96 40.928 0.097 7.57 3.74 13.25
3/14/2021 6:30:00 PM 4.81 40.658 0.098 7.6 3.55 13.27
3/14/2021 6:45:00 PM 4.68 40.424 0.097 7.56 3.63 13.24
3/14/2021 7:00:00 PM 4.55 40.19 0.097 7.54 3.73 13.26
3/14/2021 7:15:00 PM 4.41 39.938 0.097 7.52 3.78 13.26
3/14/2021 7:30:00 PM 4.27 39.686 0.097 7.49 3.89 13.27
3/14/2021 7:45:00 PM 4.12 39.416 0.097 7.49 3.78 13.3
3/14/2021 8:00:00 PM 4.02 39.236 0.097 7.46 3.85 13.31
3/14/2021 8:15:00 PM 3.87 38.966 0.097 7.48 3.85 13.37
3/14/2021 8:30:00 PM 3.82 38.876 0.097 7.45 3.78 13.39
3/14/2021 8:45:00 PM 3.72 38.696 0.097 7.45 3.57 13.45
3/14/2021 9:00:00 PM 3.62 38.516 0.097 7.45 3.73 13.48
3/14/2021 9:15:00 PM 3.51 38.318 0.097 7.44 3.57 13.49
3/14/2021 9:30:00 PM 3.41 38.138 0.097 7.43 3.59 13.53
3/14/2021 9:45:00 PM 3.31 37.958 0.097 7.44 3.61 13.57
3/14/2021 10:00:00 PM 3.22 37.796 0.097 7.43 3.68 13.61
3/14/2021 10:15:00 PM 3.11 37.598 0.097 7.45 3.61 13.68
3/14/2021 10:30:00 PM 3 37.4 0.098 7.44 3.48 13.71
3/14/2021 10:45:00 PM 2.91 37.238 0.098 7.45 3.46 13.8
3/14/2021 11:00:00 PM 2.81 37.058 0.097 7.46 3.49 13.81
3/14/2021 11:15:00 PM 2.75 36.95 0.098 7.45 3.5 13.83
3/14/2021 11:30:00 PM 2.71 36.878 0.098 7.44 3.45 13.84
3/14/2021 11:45:00 PM 2.67 36.806 0.098 7.43 3.56 13.84
3/15/2021 12:00:00 AM 2.64 36.752 0.098 7.42 3.47 13.85
3/15/2021 12:15:00 AM 2.54 36.572 0.098 7.44 3.41 13.89
3/15/2021 12:30:00 AM 2.5 36.5 0.098 7.42 3.47 13.89
3/15/2021 12:45:00 AM 2.42 36.356 0.098 7.44 3.39 13.97
3/15/2021 1:00:00 AM 2.35 36.23 0.098 7.45 3.48 14.01
3/15/2021 1:15:00 AM 2.3 36.14 0.098 7.45 3.5 14.01
3/15/2021 1:30:00 AM 2.25 36.05 0.099 7.44 3.48 14.02
3/15/2021 1:45:00 AM 2.21 35.978 0.099 7.44 3.41 14.05
3/15/2021 2:00:00 AM 2.15 35.87 0.099 7.43 3.49 14.08
3/15/2021 2:15:00 AM 2.11 35.798 0.099 7.43 3.32 14.08
3/15/2021 2:30:00 AM 2.07 35.726 0.099 7.42 3.4 14.09
3/15/2021 2:45:00 AM 1.99 35.582 0.099 7.45 3.42 14.16
3/15/2021 3:00:00 AM 1.98 35.564 0.099 7.43 3.39 14.15
3/15/2021 3:15:00 AM 1.92 35.456 0.099 7.44 3.41 14.17
3/15/2021 3:30:00 AM 1.87 35.366 0.099 7.44 3.47 14.21
3/15/2021 3:45:00 AM 1.84 35.312 0.099 7.43 3.42 14.19
3/15/2021 4:00:00 AM 1.81 35.258 0.099 7.42 3.42 14.04
3/15/2021 4:15:00 AM 1.77 35.186 0.099 7.43 3.38 14.23
3/15/2021 4:30:00 AM 1.72 35.096 0.1 7.42 3.39 14.25
3/15/2021 4:45:00 AM 1.67 35.006 0.1 7.43 3.5 14.28
3/15/2021 5:00:00 AM 1.62 34.916 0.1 7.45 3.42 14.31
3/15/2021 5:15:00 AM 1.61 34.898 0.1 7.43 3.43 14.3
3/15/2021 5:30:00 AM 1.58 34.844 0.1 7.44 3.51 14.33
3/15/2021 5:45:00 AM 1.56 34.808 0.1 7.43 3.53 14.33
3/15/2021 6:00:00 AM 1.53 34.754 0.1 7.42 3.39 14.33
3/15/2021 6:15:00 AM 1.47 34.646 0.1 7.44 3.42 14.36
3/15/2021 6:30:00 AM 1.47 34.646 0.1 7.43 3.49 14.35
3/15/2021 6:45:00 AM 1.4 34.52 0.1 7.45 3.45 14.39
3/15/2021 7:00:00 AM 1.36 34.448 0.1 7.45 3.39 14.44
3/15/2021 7:15:00 AM 1.38 34.484 0.1 7.43 3.4 14.4
3/15/2021 7:30:00 AM 1.37 34.466 0.1 7.43 3.43 14.44
3/15/2021 7:45:00 AM 1.34 34.412 0.1 7.43 3.34 14.4
3/15/2021 8:00:00 AM 1.29 34.322 0.1 7.46 3.38 14.57
3/15/2021 8:15:00 AM 1.26 34.268 0.1 7.48 3.35 14.63
3/15/2021 8:30:00 AM 1.25 34.25 0.1 7.49 3.42 14.7
3/15/2021 8:45:00 AM 1.26 34.268 0.1 7.49 3.48 14.73
3/15/2021 9:00:00 AM 1.24 34.232 0.1 7.53 3.38 14.81
3/15/2021 9:15:00 AM 1.26 34.268 0.1 7.53 3.43 14.83
3/15/2021 9:30:00 AM 1.31 34.358 0.1 7.52 3.6 14.84
3/15/2021 9:45:00 AM 1.35 34.43 0.1 7.53 3.46 14.85
3/15/2021 10:00:00 AM 1.38 34.484 0.1 7.55 3.37 14.88
3/15/2021 10:15:00 AM 1.45 34.61 0.1 7.59 3.43 14.89
3/15/2021 10:30:00 AM 1.6 34.88 0.1 7.58 3.48 14.88
3/15/2021 10:45:00 AM 1.77 35.186 0.099 7.6 3.39 14.86
3/15/2021 11:00:00 AM 1.95 35.51 0.099 7.63 3.36 14.83
3/15/2021 11:15:00 AM 2.14 35.852 0.099 7.62 3.38 14.77
3/15/2021 11:30:00 AM 2.31 36.158 0.099 7.65 3.38 14.76
3/15/2021 11:45:00 AM 2.48 36.464 0.099 7.64 3.36 14.68
3/15/2021 12:00:00 PM 2.68 36.824 0.099 7.62 3.4 14.62
3/15/2021 12:15:00 PM 2.81 37.058 0.099 7.63 3.38 14.59
3/15/2021 12:30:00 PM 2.98 37.364 0.099 7.64 3.43 14.51
3/15/2021 12:45:00 PM 3.13 37.634 0.099 7.62 3.56 14.45
3/15/2021 1:00:00 PM 3.25 37.85 0.099 7.65 3.4 14.4
3/15/2021 1:15:00 PM 3.34 38.012 0.099 7.65 3.44 14.36
3/15/2021 1:30:00 PM 3.47 38.246 0.099 7.66 3.49 14.3
3/15/2021 1:45:00 PM 3.64 38.552 0.099 7.67 3.39 14.26
3/15/2021 2:00:00 PM 3.74 38.732 0.099 7.66 3.26 14.19
3/15/2021 2:15:00 PM 3.92 39.056 0.099 7.68 3.39 14.16
3/15/2021 2:30:00 PM 3.96 39.128 0.098 7.71 3.49 14.08
3/15/2021 2:45:00 PM 4.08 39.344 0.099 7.71 3.48 14.07
3/15/2021 3:00:00 PM 4.23 39.614 0.099 7.67 3.37 14
3/15/2021 3:15:00 PM 4.29 39.722 0.098 7.69 3.27 13.95
3/15/2021 3:30:00 PM 4.37 39.866 0.098 7.7 3.33 13.93
3/15/2021 3:45:00 PM 4.4 39.92 0.098 7.69 3.38 13.86
3/15/2021 4:00:00 PM 4.49 40.082 0.098 7.63 3.35 13.82
3/15/2021 4:15:00 PM 4.42 39.956 0.099 7.69 3.34 13.8
3/15/2021 4:30:00 PM 4.42 39.956 0.098 7.66 3.31 13.74
3/15/2021 4:45:00 PM 4.37 39.866 0.098 7.66 3.36 13.75
3/15/2021 5:00:00 PM 4.33 39.794 0.098 7.66 3.3 13.75
3/15/2021 5:15:00 PM 4.3 39.74 0.099 7.65 3.25 13.76
3/15/2021 5:30:00 PM 4.23 39.614 0.098 7.65 3.41 13.77
3/15/2021 5:45:00 PM 4.14 39.452 0.099 7.62 3.3 13.76
3/15/2021 6:00:00 PM 4.06 39.308 0.099 7.61 3.25 13.74
3/15/2021 6:15:00 PM 3.96 39.128 0.099 7.61 3.34 13.73
3/15/2021 6:30:00 PM 3.88 38.984 0.099 7.57 3.31 13.7
3/15/2021 6:45:00 PM 3.74 38.732 0.099 7.56 3.3 13.7
3/15/2021 7:00:00 PM 3.65 38.57 0.099 7.54 3.42 13.66
3/15/2021 7:15:00 PM 3.54 38.372 0.1 7.51 3.31 13.64
3/15/2021 7:30:00 PM 3.44 38.192 0.1 7.48 3.43 13.64
3/15/2021 7:45:00 PM 3.36 38.048 0.101 7.47 3.28 13.62
3/15/2021 8:00:00 PM 3.28 37.904 0.1 7.46 3.23 13.62
3/15/2021 8:15:00 PM 3.2 37.76 0.101 7.46 3.31 13.6
3/15/2021 8:30:00 PM 3.13 37.634 0.101 7.44 3.34 13.64
3/15/2021 8:45:00 PM 3.08 37.544 0.101 7.44 3.32 13.7
3/15/2021 9:00:00 PM 2.98 37.364 0.101 7.44 3.43 13.73
3/15/2021 9:15:00 PM 2.93 37.274 0.101 7.44 3.99 13.74
3/15/2021 9:30:00 PM 2.86 37.148 0.101 7.45 3.31 13.78
3/15/2021 9:45:00 PM 2.81 37.058 0.102 7.43 3.21 13.79
3/15/2021 10:00:00 PM 2.76 36.968 0.101 7.43 3.51 13.79
3/15/2021 10:15:00 PM 2.68 36.824 0.101 7.43 3.31 13.82
3/15/2021 10:30:00 PM 2.61 36.698 0.101 7.46 3.52 13.86
3/15/2021 10:45:00 PM 2.54 36.572 0.102 7.46 3.51 13.91
3/15/2021 11:00:00 PM 2.49 36.482 0.101 7.45 3.34 13.93
3/15/2021 11:15:00 PM 2.46 36.428 0.102 7.44 3.53 13.96
3/15/2021 11:30:00 PM 2.41 36.338 0.102 7.43 3.4 13.95
3/15/2021 11:45:00 PM 2.34 36.212 0.102 7.43 3.31 14
3/16/2021 12:00:00 AM 2.29 36.122 0.102 7.44 3.34 13.98
3/16/2021 12:15:00 AM 2.24 36.032 0.102 7.44 3.27 14.03
3/16/2021 12:30:00 AM 2.19 35.942 0.102 7.44 3.23 14.03
3/16/2021 12:45:00 AM 2.16 35.888 0.102 7.42 3.3 14.01
3/16/2021 1:00:00 AM 2.14 35.852 0.102 7.43 3.26 14.05
3/16/2021 1:15:00 AM 2.12 35.816 0.102 7.43 3.31 14.07
3/16/2021 1:30:00 AM 2.07 35.726 0.102 7.44 3.25 14.09
3/16/2021 1:45:00 AM 2.06 35.708 0.102 7.44 3.3 14.09
3/16/2021 2:00:00 AM 2.06 35.708 0.102 7.43 3.34 14.08
3/16/2021 2:15:00 AM 2.03 35.654 0.102 7.43 3.27 14.08
3/16/2021 2:30:00 AM 1.99 35.582 0.102 7.44 3.27 14.07
3/16/2021 2:45:00 AM 2.03 35.654 0.102 7.41 3.27 14.08
3/16/2021 3:00:00 AM 1.99 35.582 0.102 7.43 3.29 14.11
3/16/2021 3:15:00 AM 1.98 35.564 0.102 7.44 3.22 14.11
3/16/2021 3:30:00 AM 1.95 35.51 0.102 7.43 3.31 14.11
3/16/2021 3:45:00 AM 1.97 35.546 0.102 7.43 3.22 14.11
3/16/2021 4:00:00 AM 1.94 35.492 0.102 7.43 3.31 14.12
3/16/2021 4:15:00 AM 1.94 35.492 0.102 7.42 3.31 14.11
3/16/2021 4:30:00 AM 1.94 35.492 0.102 7.42 3.3 14.1
3/16/2021 4:45:00 AM 1.92 35.456 0.102 7.43 3.28 14.1
3/16/2021 5:00:00 AM 1.93 35.474 0.102 7.42 3.26 14.08
3/16/2021 5:15:00 AM 1.95 35.51 0.102 7.4 3.35 14.06
3/16/2021 5:30:00 AM 1.94 35.492 0.102 7.42 3.27 14.1
3/16/2021 5:45:00 AM 1.9 35.42 0.102 7.43 3.18 14.12
3/16/2021 6:00:00 AM 1.93 35.474 0.102 7.41 3.57 14.08
3/16/2021 6:15:00 AM 1.93 35.474 0.102 7.4 3.2 14.06
3/16/2021 6:30:00 AM 1.91 35.438 0.102 7.42 3.44 14.09
3/16/2021 6:45:00 AM 1.92 35.456 0.102 7.41 3.21 14.07
3/16/2021 7:00:00 AM 1.93 35.474 0.102 7.41 3.2 14.09
3/16/2021 7:15:00 AM 1.92 35.456 0.102 7.41 3.23 14.09
3/16/2021 7:30:00 AM 1.94 35.492 0.102 7.4 3.25 14.09
3/16/2021 7:45:00 AM 1.91 35.438 0.102 7.43 3.21 14.16
3/16/2021 8:00:00 AM 1.95 35.51 0.102 7.42 3.24 14.17
3/16/2021 8:15:00 AM 1.96 35.528 0.102 7.43 3.21 14.24
3/16/2021 8:30:00 AM 1.95 35.51 0.101 7.45 3.22 14.25
3/16/2021 8:45:00 AM 1.98 35.564 0.101 7.47 3.15 14.33
3/16/2021 9:00:00 AM 2.04 35.672 0.101 7.47 3.15 14.4
3/16/2021 9:15:00 AM 2.04 35.672 0.102 7.49 3.08 14.45
3/16/2021 9:30:00 AM 2.11 35.798 0.101 7.5 3.27 14.47
3/16/2021 9:45:00 AM 2.13 35.834 0.101 7.52 3.28 14.49
3/16/2021 10:00:00 AM 2.2 35.96 0.101 7.54 3.16 14.54
3/16/2021 10:15:00 AM 2.26 36.068 0.1 7.55 3.27 14.56
3/16/2021 10:30:00 AM 2.32 36.176 0.1 7.56 3.28 14.57
3/16/2021 10:45:00 AM 2.34 36.212 0.1 7.58 3.23 14.53
3/16/2021 11:00:00 AM 2.41 36.338 0.101 7.57 3.14 14.53
3/16/2021 11:15:00 AM 2.46 36.428 0.1 7.58 3.28 14.46
3/16/2021 11:30:00 AM 2.52 36.536 0.1 7.55 3.19 14.43
3/16/2021 11:45:00 AM 2.54 36.572 0.1 7.55 3.24 14.4
3/16/2021 12:00:00 PM 2.56 36.608 0.1 7.57 3.23 14.37
3/16/2021 12:15:00 PM 2.59 36.662 0.1 7.56 3.23 14.35
3/16/2021 12:30:00 PM 2.66 36.788 0.1 7.55 3.17 14.36
3/16/2021 12:45:00 PM 2.72 36.896 0.099 7.61 3.26 14.44
3/16/2021 1:00:00 PM 2.81 37.058 0.099 7.59 3.23 14.43
3/16/2021 1:15:00 PM 2.82 37.076 0.099 7.6 3.34 14.4
3/16/2021 1:30:00 PM 2.85 37.13 0.099 7.61 3.26 14.37
3/16/2021 1:45:00 PM 2.88 37.184 0.099 7.59 3.3 14.32
3/16/2021 2:00:00 PM 2.91 37.238 0.099 7.6 3.26 14.3
3/16/2021 2:15:00 PM 2.94 37.292 0.099 7.6 3.23 14.27
3/16/2021 2:30:00 PM 2.97 37.346 0.099 7.58 3.27 14.23
3/16/2021 2:45:00 PM 2.97 37.346 0.099 7.62 3.25 14.24
3/16/2021 3:00:00 PM 3.04 37.472 0.1 7.59 3.28 14.22
3/16/2021 3:15:00 PM 3.06 37.508 0.099 7.62 3.21 14.22
3/16/2021 3:30:00 PM 3.11 37.598 0.099 7.6 3.2 14.19
3/16/2021 3:45:00 PM 3.15 37.67 0.099 7.58 3.31 14.12
3/16/2021 4:00:00 PM 3.14 37.652 0.099 7.59 3.23 14.11
3/16/2021 4:15:00 PM 3.17 37.706 0.099 7.59 3.17 14.1
3/16/2021 4:30:00 PM 3.19 37.742 0.1 7.57 3.16 14.06
3/16/2021 4:45:00 PM 3.17 37.706 0.099 7.58 3.24 13.99
3/16/2021 5:00:00 PM 3.18 37.724 0.1 7.55 3.28 13.94
3/16/2021 5:15:00 PM 3.17 37.706 0.1 7.53 3.18 13.85
3/16/2021 5:30:00 PM 3.18 37.724 0.1 7.53 3.17 13.84
3/16/2021 5:45:00 PM 3.16 37.688 0.1 7.52 3.21 13.85
3/16/2021 6:00:00 PM 3.16 37.688 0.1 7.51 3.2 13.81
3/16/2021 6:15:00 PM 3.17 37.706 0.1 7.49 3.08 13.76
3/16/2021 6:30:00 PM 3.17 37.706 0.1 7.49 3.25 13.76
3/16/2021 6:45:00 PM 3.19 37.742 0.101 7.46 3.14 13.7
3/16/2021 7:00:00 PM 3.17 37.706 0.101 7.46 3.28 13.67
3/16/2021 7:15:00 PM 3.15 37.67 0.101 7.47 3.16 13.63
3/16/2021 7:30:00 PM 3.15 37.67 0.101 7.46 3.18 13.63
3/16/2021 7:45:00 PM 3.15 37.67 0.101 7.44 3.14 13.61
3/16/2021 8:00:00 PM 3.14 37.652 0.101 7.45 3.37 13.59
3/16/2021 8:15:00 PM 3.15 37.67 0.101 7.43 3.18 13.57
3/16/2021 8:30:00 PM 3.13 37.634 0.101 7.44 3.19 13.58
3/16/2021 8:45:00 PM 3.13 37.634 0.101 7.44 3.2 13.58
3/16/2021 9:00:00 PM 3.14 37.652 0.102 7.42 3.09 13.55
3/16/2021 9:15:00 PM 3.14 37.652 0.102 7.41 3.14 13.54
3/16/2021 9:30:00 PM 3.11 37.598 0.102 7.43 3.15 13.55
3/16/2021 9:45:00 PM 3.11 37.598 0.102 7.42 3.08 13.56
3/16/2021 10:00:00 PM 3.09 37.562 0.102 7.43 3.19 13.56
3/16/2021 10:15:00 PM 3.11 37.598 0.102 7.42 3.14 13.59
3/16/2021 10:30:00 PM 3.11 37.598 0.102 7.43 3.12 13.6
3/16/2021 10:45:00 PM 3.12 37.616 0.102 7.42 3.22 13.58
3/16/2021 11:00:00 PM 3.1 37.58 0.102 7.42 3.22 13.57
3/16/2021 11:15:00 PM 3.11 37.598 0.102 7.41 3.71 13.56
3/16/2021 11:30:00 PM 3.11 37.598 0.102 7.42 3.17 13.57
3/16/2021 11:45:00 PM 3.1 37.58 0.102 7.42 3.31 13.58
3/17/2021 12:00:00 AM 3.1 37.58 0.102 7.42 3.24 13.57
3/17/2021 12:15:00 AM 3.08 37.544 0.103 7.42 3.11 13.59
3/17/2021 12:30:00 AM 3.08 37.544 0.102 7.43 3.09 13.58
3/17/2021 12:45:00 AM 3.08 37.544 0.102 7.43 3.23 13.6
3/17/2021 1:00:00 AM 3.08 37.544 0.102 7.43 3.12 13.57
3/17/2021 1:15:00 AM 3.08 37.544 0.102 7.42 3.15 13.59
3/17/2021 1:30:00 AM 3.08 37.544 0.102 7.43 3.17 13.59
3/17/2021 1:45:00 AM 3.07 37.526 0.102 7.43 3.21 13.58
3/17/2021 2:00:00 AM 3.09 37.562 0.102 7.42 3.05 13.58
3/17/2021 2:15:00 AM 3.09 37.562 0.102 7.42 3.1 13.57
3/17/2021 2:30:00 AM 3.06 37.508 0.102 7.43 3.1 13.6
3/17/2021 2:45:00 AM 3.08 37.544 0.103 7.42 3.1 13.57
3/17/2021 3:00:00 AM 3.08 37.544 0.102 7.43 3.1 13.59
3/17/2021 3:15:00 AM 3.09 37.562 0.102 7.42 3.16 13.57
3/17/2021 3:30:00 AM 3.08 37.544 0.102 7.42 3.15 13.6
3/17/2021 3:45:00 AM 3.09 37.562 0.102 7.42 3.17 13.54
3/17/2021 4:00:00 AM 3.09 37.562 0.102 7.42 3.14 13.58
3/17/2021 4:15:00 AM 3.08 37.544 0.102 7.42 3.1 13.57
3/17/2021 4:30:00 AM 3.08 37.544 0.103 7.43 3.1 13.55
3/17/2021 4:45:00 AM 3.09 37.562 0.102 7.43 3.1 13.6
3/17/2021 5:00:00 AM 3.1 37.58 0.102 7.41 3.23 13.56
3/17/2021 5:15:00 AM 3.11 37.598 0.102 7.42 3.39 13.58
3/17/2021 5:30:00 AM 3.09 37.562 0.103 7.43 2.99 13.6
3/17/2021 5:45:00 AM 3.12 37.616 0.102 7.41 3.04 13.58
3/17/2021 6:00:00 AM 3.11 37.598 0.102 7.42 3.1 13.56
3/17/2021 6:15:00 AM 3.13 37.634 0.102 7.41 3.15 13.56
3/17/2021 6:30:00 AM 3.13 37.634 0.102 7.41 3.1 13.58
3/17/2021 6:45:00 AM 3.13 37.634 0.102 7.42 3.17 13.58
3/17/2021 7:00:00 AM 3.12 37.616 0.102 7.43 3.61 13.58
3/17/2021 7:15:00 AM 3.15 37.67 0.102 7.41 3.21 13.57
3/17/2021 7:30:00 AM 3.16 37.688 0.103 7.41 3.07 13.57
3/17/2021 7:45:00 AM 3.16 37.688 0.102 7.42 7.78 13.6
3/17/2021 8:00:00 AM 3.16 37.688 0.102 7.44 3.75 13.66
3/17/2021 8:15:00 AM 3.19 37.742 0.102 7.44 3.37 13.73
3/17/2021 8:30:00 AM 3.22 37.796 0.102 7.45 3.2 13.78
3/17/2021 8:45:00 AM 3.24 37.832 0.102 7.48 3.24 13.86
3/17/2021 9:00:00 AM 3.29 37.922 0.101 7.5 3.23 13.92
3/17/2021 9:15:00 AM 3.33 37.994 0.101 7.51 3.14 13.98
3/17/2021 9:30:00 AM 3.39 38.102 0.101 7.53 3.16 14.03
3/17/2021 9:45:00 AM 3.43 38.174 0.101 7.57 3.18 14.1
3/17/2021 10:00:00 AM 3.51 38.318 0.1 7.59 3.27 14.09
3/17/2021 10:15:00 AM 3.59 38.462 0.1 7.59 3.4 14.1
3/17/2021 10:30:00 AM 3.67 38.606 0.1 7.61 3.15 14.08
3/17/2021 10:45:00 AM 3.73 38.714 0.1 7.63 3.19 14.09
3/17/2021 11:00:00 AM 3.8 38.84 0.1 7.65 3.27 14.1
3/17/2021 11:15:00 AM 3.91 39.038 0.1 7.63 3.38 14.04
3/17/2021 11:30:00 AM 3.99 39.182 0.1 7.66 3.13 14.04
3/17/2021 11:45:00 AM 4.08 39.344 0.099 7.65 3.19 14.01
3/17/2021 12:00:00 PM 4.19 39.542 0.099 7.67 3.23 14.01
3/17/2021 12:15:00 PM 4.28 39.704 0.099 7.65 3.23 13.97
3/17/2021 12:30:00 PM 4.34 39.812 0.099 7.71 3.23 13.95
3/17/2021 12:45:00 PM 4.47 40.046 0.099 7.72 3.25 13.96
3/17/2021 1:00:00 PM 4.59 40.262 0.1 7.73 3.14 13.9
3/17/2021 1:15:00 PM 4.76 40.568 0.099 7.75 3.11 13.88
3/17/2021 1:30:00 PM 4.91 40.838 0.099 7.75 3.15 13.84
3/17/2021 1:45:00 PM 5.11 41.198 0.099 7.75 3.29 13.79
3/17/2021 2:00:00 PM 5.34 41.612 0.099 7.74 3.21 13.72
3/17/2021 2:15:00 PM 5.53 41.954 0.099 7.75 3.17 13.65
3/17/2021 2:30:00 PM 5.67 42.206 0.099 7.72 3.23 13.57
3/17/2021 2:45:00 PM 5.74 42.332 0.099 7.72 3.2 13.52
3/17/2021 3:00:00 PM 5.92 42.656 0.099 7.73 3.15 13.43
3/17/2021 3:15:00 PM 6.05 42.89 0.099 7.73 3.05 13.42
3/17/2021 3:30:00 PM 6.12 43.016 0.099 7.71 3.19 13.35
3/17/2021 3:45:00 PM 6.2 43.16 0.099 7.75 3.16 13.29
3/17/2021 4:00:00 PM 6.3 43.34 0.098 7.71 3.21 13.26
3/17/2021 4:15:00 PM 6.34 43.412 0.098 7.74 3.14 13.22
3/17/2021 4:30:00 PM 6.36 43.448 0.099 7.7 3.14 13.16
3/17/2021 4:45:00 PM 6.36 43.448 0.098 7.72 3.24 13.13
3/17/2021 5:00:00 PM 6.38 43.484 0.099 7.69 3.19 13.1
3/17/2021 5:15:00 PM 6.34 43.412 0.099 7.69 3.12 13.05
3/17/2021 5:30:00 PM 6.31 43.358 0.099 7.65 3.18 12.96
3/17/2021 5:45:00 PM 6.29 43.322 0.099 7.64 3.18 12.97
3/17/2021 6:00:00 PM 6.22 43.196 0.099 7.66 3.23 12.97
3/17/2021 6:15:00 PM 6.17 43.106 0.099 7.6 3.19 12.91
3/17/2021 6:30:00 PM 6.07 42.926 0.099 7.6 3.22 12.88
3/17/2021 6:45:00 PM 5.96 42.728 0.1 7.58 3.1 12.84
3/17/2021 7:00:00 PM 5.84 42.512 0.1 7.55 3.14 12.79
3/17/2021 7:15:00 PM 5.73 42.314 0.1 7.52 3.12 12.77
3/17/2021 7:30:00 PM 5.6 42.08 0.1 7.52 3.23 12.76
3/17/2021 7:45:00 PM 5.51 41.918 0.101 7.48 3.18 12.72
3/17/2021 8:00:00 PM 5.39 41.702 0.101 7.47 3.28 12.73
3/17/2021 8:15:00 PM 5.3 41.54 0.101 7.46 3.15 12.75
3/17/2021 8:30:00 PM 5.2 41.36 0.101 7.44 3.1 12.73
3/17/2021 8:45:00 PM 5.11 41.198 0.101 7.45 3.21 12.79
3/17/2021 9:00:00 PM 5.03 41.054 0.102 7.43 3.15 12.83
3/17/2021 9:15:00 PM 4.93 40.874 0.102 7.45 3.2 12.86
3/17/2021 9:30:00 PM 4.83 40.694 0.102 7.46 3.17 12.89
3/17/2021 9:45:00 PM 4.75 40.55 0.102 7.45 3.15 12.91
3/17/2021 10:00:00 PM 4.7 40.46 0.102 7.43 3.23 12.92
3/17/2021 10:15:00 PM 4.62 40.316 0.102 7.44 3.12 12.94
3/17/2021 10:30:00 PM 4.55 40.19 0.103 7.43 3.29 12.95
3/17/2021 10:45:00 PM 4.5 40.1 0.103 7.42 3.21 13
3/17/2021 11:00:00 PM 4.4 39.92 0.103 7.44 3.16 13.05
3/17/2021 11:15:00 PM 4.35 39.83 0.103 7.42 3.23 13.05
3/17/2021 11:30:00 PM 4.29 39.722 0.104 7.43 3.12 13.05
3/17/2021 11:45:00 PM 4.24 39.632 0.103 7.42 3.22 13.06
3/18/2021 12:00:00 AM 4.19 39.542 0.103 7.42 3.2 13.07
3/18/2021 12:15:00 AM 4.11 39.398 0.103 7.44 3.15 13.13
3/18/2021 12:30:00 AM 4.12 39.416 0.103 7.42 3.14 13.13
3/18/2021 12:45:00 AM 4.09 39.362 0.103 7.44 3.26 13.18
3/18/2021 1:00:00 AM 4.07 39.326 0.103 7.45 3.11 13.18
3/18/2021 1:15:00 AM 4.1 39.38 0.103 7.41 3.19 13.12
3/18/2021 1:30:00 AM 4.05 39.29 0.103 7.45 3.17 13.19
3/18/2021 1:45:00 AM 4.08 39.344 0.103 7.42 3.07 13.14
3/18/2021 2:00:00 AM 4.05 39.29 0.103 7.44 3.1 13.15
3/18/2021 2:15:00 AM 4.06 39.308 0.103 7.44 3.05 13.2
3/18/2021 2:30:00 AM 4.07 39.326 0.103 7.42 3.12 13.16
3/18/2021 2:45:00 AM 4.1 39.38 0.103 7.41 3.27 13.13
3/18/2021 3:00:00 AM 4.09 39.362 0.103 7.41 3.3 13.16
3/18/2021 3:15:00 AM 4.08 39.344 0.103 7.43 3.24 13.18
3/18/2021 3:30:00 AM 4.09 39.362 0.104 7.43 7.78 13.14
3/18/2021 3:45:00 AM 4.11 39.398 0.103 7.43 4.73 13.13
3/18/2021 4:00:00 AM 4.1 39.38 0.103 7.44 3.13 13.13
3/18/2021 4:15:00 AM 4.15 39.47 0.103 7.41 3.09 13.11
3/18/2021 4:30:00 AM 4.14 39.452 0.103 7.43 3.04 13.12
3/18/2021 4:45:00 AM 4.15 39.47 0.103 7.43 3.19 13.1
3/18/2021 5:00:00 AM 4.17 39.506 0.103 7.42 3.07 13.09
3/18/2021 5:15:00 AM 4.23 39.614 0.103 7.36 3.13 13.05
3/18/2021 5:30:00 AM 4.19 39.542 0.103 7.4 3.1 13.07
3/18/2021 5:45:00 AM 4.17 39.506 0.103 7.43 3.07 13.07
3/18/2021 6:00:00 AM 4.19 39.542 0.103 7.42 3.13 13.1
3/18/2021 6:15:00 AM 4.2 39.56 0.103 7.43 3.32 13.09
3/18/2021 6:30:00 AM 4.19 39.542 0.103 7.44 3.15 13.11
3/18/2021 6:45:00 AM 4.23 39.614 0.103 7.39 3.11 13.05
3/18/2021 7:00:00 AM 4.24 39.632 0.103 7.4 3.22 13.05
3/18/2021 7:15:00 AM 4.24 39.632 0.103 7.39 3.26 13.01
3/18/2021 7:30:00 AM 4.24 39.632 0.103 7.41 4.01 13.07
3/18/2021 7:45:00 AM 4.24 39.632 0.103 7.42 3.58 13.09
3/18/2021 8:00:00 AM 4.26 39.668 0.103 7.41 3.46 13.09
3/18/2021 8:15:00 AM 4.23 39.614 0.103 7.44 3.35 13.16
3/18/2021 8:30:00 AM 4.26 39.668 0.103 7.43 3.36 13.16
3/18/2021 8:45:00 AM 4.29 39.722 0.102 7.44 3.55 13.2
3/18/2021 9:00:00 AM 4.31 39.758 0.102 7.45 3.67 13.24
3/18/2021 9:15:00 AM 4.34 39.812 0.102 7.45 3.48 13.28
3/18/2021 9:30:00 AM 4.34 39.812 0.102 7.48 3.54 13.3
3/18/2021 9:45:00 AM 4.36 39.848 0.103 7.48 3.82 13.28
3/18/2021 10:00:00 AM 4.39 39.902 0.102 7.49 4.39 13.22
3/18/2021 10:15:00 AM 4.42 39.956 0.102 7.47 4.46 13.27
3/18/2021 10:30:00 AM 4.44 39.992 0.102 7.49 4.53 13.31
3/18/2021 10:45:00 AM 4.48 40.064 0.101 7.48 4.66 13.29
3/18/2021 11:00:00 AM 4.51 40.118 0.101 7.47 5.15 13.29
3/18/2021 11:15:00 AM 4.54 40.172 0.101 7.48 4.73 13.3
3/18/2021 11:30:00 AM 4.55 40.19 0.101 7.48 4.96 13.25
3/18/2021 11:45:00 AM 4.57 40.226 0.102 7.5 5.72 13.26
3/18/2021 12:00:00 PM 4.58 40.244 0.102 7.52 5.33 13.32
3/18/2021 12:15:00 PM 4.61 40.298 0.102 7.55 4.75 13.37
3/18/2021 12:30:00 PM 4.65 40.37 0.102 7.53 5.04 13.37
3/18/2021 12:45:00 PM 4.7 40.46 0.103 7.53 4.74 13.35
3/18/2021 1:00:00 PM 4.71 40.478 0.103 7.59 5.36 13.44
3/18/2021 1:15:00 PM 4.75 40.55 0.104 7.58 5.72 13.4
3/18/2021 1:30:00 PM 4.79 40.622 0.105 7.6 6.16 13.39
3/18/2021 1:45:00 PM 4.82 40.676 0.108 7.61 8.28 13.41
3/18/2021 2:00:00 PM 4.83 40.694 0.111 7.6 9.68 13.36
3/18/2021 2:15:00 PM 4.85 40.73 0.112 7.59 11.4 13.36
3/18/2021 2:30:00 PM 4.85 40.73 0.112 7.58 14.77 13.31
3/18/2021 2:45:00 PM 4.82 40.676 0.113 7.56 16.87 13.25
3/18/2021 3:00:00 PM 4.83 40.694 0.112 7.55 22.41 13.23
3/18/2021 3:15:00 PM 4.84 40.712 0.11 7.54 23.88 13.24
3/18/2021 3:30:00 PM 4.84 40.712 0.109 7.55 15.97 13.24
3/18/2021 3:45:00 PM 4.83 40.694 0.108 7.55 15.97 13.22
3/18/2021 4:00:00 PM 4.83 40.694 0.107 7.53 13.48 13.21
3/18/2021 4:15:00 PM 4.82 40.676 0.107 7.52 13.45 13.18
3/18/2021 4:30:00 PM 4.81 40.658 0.106 7.52 12.84 13.19
3/18/2021 4:45:00 PM 4.8 40.64 0.105 7.52 11.35 13.19
3/18/2021 5:00:00 PM 4.81 40.658 0.105 7.51 10.96 13.18
3/18/2021 5:15:00 PM 4.8 40.64 0.104 7.51 10.66 13.16
3/18/2021 5:30:00 PM 4.79 40.622 0.103 7.51 11.41 13.17
3/18/2021 5:45:00 PM 4.77 40.586 0.103 7.5 12.82 13.14
3/18/2021 6:00:00 PM 4.74 40.532 0.102 7.49 12.37 13.15
3/18/2021 6:15:00 PM 4.71 40.478 0.1 7.48 12.37 13.15
3/18/2021 6:30:00 PM 4.66 40.388 0.099 7.47 16.92 13.15
3/18/2021 6:45:00 PM 4.61 40.298 0.098 7.46 15.9 13.15
3/18/2021 7:00:00 PM 4.57 40.226 0.097 7.45 14.19 13.17
3/18/2021 7:15:00 PM 4.54 40.172 0.097 7.44 14.7 13.19
3/18/2021 7:30:00 PM 4.51 40.118 0.096 7.44 19.57 13.2
3/18/2021 7:45:00 PM 4.48 40.064 0.096 7.44 14.2 13.2
3/18/2021 8:00:00 PM 4.46 40.028 0.096 7.44 12.63 13.21
3/18/2021 8:15:00 PM 4.43 39.974 0.095 7.44 12.76 13.23
3/18/2021 8:30:00 PM 4.41 39.938 0.095 7.44 12.25 13.24
3/18/2021 8:45:00 PM 4.38 39.884 0.095 7.44 11.61 13.26
3/18/2021 9:00:00 PM 4.36 39.848 0.095 7.44 11.9 13.26
3/18/2021 9:15:00 PM 4.34 39.812 0.094 7.44 11.56 13.28
3/18/2021 9:30:00 PM 4.32 39.776 0.094 7.45 11.25 13.29
3/18/2021 9:45:00 PM 4.3 39.74 0.094 7.45 11.45 13.31
3/18/2021 10:00:00 PM 4.28 39.704 0.094 7.46 11.22 13.31
3/18/2021 10:15:00 PM 4.26 39.668 0.094 7.46 11.24 13.32
3/18/2021 10:30:00 PM 4.24 39.632 0.094 7.46 10.76 13.34
3/18/2021 10:45:00 PM 4.21 39.578 0.094 7.46 10.48 13.34
3/18/2021 11:00:00 PM 4.19 39.542 0.094 7.47 10.67 13.36
3/18/2021 11:15:00 PM 4.16 39.488 0.094 7.47 10.56 13.36
3/18/2021 11:30:00 PM 4.14 39.452 0.094 7.47 11.81 13.37
3/18/2021 11:45:00 PM 4.11 39.398 0.094 7.47 10.06 13.38
3/19/2021 12:00:00 AM 4.08 39.344 0.094 7.47 8.91 13.39
3/19/2021 12:15:00 AM 4.05 39.29 0.094 7.47 9.13 13.41
3/19/2021 12:30:00 AM 4.02 39.236 0.094 7.47 8.93 13.42
3/19/2021 12:45:00 AM 3.99 39.182 0.094 7.48 8.25 13.44
3/19/2021 1:00:00 AM 3.96 39.128 0.094 7.47 8.46 13.45
3/19/2021 1:15:00 AM 3.92 39.056 0.094 7.48 7.66 13.46
3/19/2021 1:30:00 AM 3.89 39.002 0.095 7.48 7.16 13.49
3/19/2021 1:45:00 AM 3.86 38.948 0.094 7.48 7.19 13.5
3/19/2021 2:00:00 AM 3.83 38.894 0.094 7.47 7.1 13.51
3/19/2021 2:15:00 AM 3.8 38.84 0.094 7.47 6.84 13.52
3/19/2021 2:30:00 AM 3.78 38.804 0.094 7.48 7.02 13.54
3/19/2021 2:45:00 AM 3.74 38.732 0.094 7.48 6.88 13.55
3/19/2021 3:00:00 AM 3.7 38.66 0.095 7.48 6.58 13.56
3/19/2021 3:15:00 AM 3.66 38.588 0.094 7.48 7.08 13.58
3/19/2021 3:30:00 AM 3.6 38.48 0.094 7.47 6.44 13.59
3/19/2021 3:45:00 AM 3.54 38.372 0.094 7.47 6.4 13.62
3/19/2021 4:00:00 AM 3.48 38.264 0.093 7.47 6.46 13.66
3/19/2021 4:15:00 AM 3.42 38.156 0.093 7.47 6.35 13.66
3/19/2021 4:30:00 AM 3.36 38.048 0.093 7.47 6.28 13.68
3/19/2021 4:45:00 AM 3.3 37.94 0.092 7.46 6 13.72
3/19/2021 5:00:00 AM 3.25 37.85 0.092 7.46 5.89 13.74
3/19/2021 5:15:00 AM 3.2 37.76 0.093 7.47 6.41 13.75
3/19/2021 5:30:00 AM 3.15 37.67 0.093 7.47 6.21 13.78
3/19/2021 5:45:00 AM 3.11 37.598 0.094 7.47 6.04 13.81
3/19/2021 6:00:00 AM 3.08 37.544 0.094 7.47 6.2 13.82
3/19/2021 6:15:00 AM 3.05 37.49 0.094 7.46 5.95 13.83
3/19/2021 6:30:00 AM 3 37.4 0.095 7.46 6.65 13.85
3/19/2021 6:45:00 AM 2.96 37.328 0.095 7.46 5.71 13.87
3/19/2021 7:00:00 AM 2.93 37.274 0.096 7.46 5.91 13.88
3/19/2021 7:15:00 AM 2.89 37.202 0.095 7.46 5.8 13.91
3/19/2021 7:30:00 AM 2.86 37.148 0.095 7.46 6.08 13.94
3/19/2021 7:45:00 AM 2.84 37.112 0.095 7.47 5.57 13.97
3/19/2021 8:00:00 AM 2.84 37.112 0.095 7.48 5.91 14.02
3/19/2021 8:15:00 AM 2.83 37.094 0.096 7.49 5.56 14.06
3/19/2021 8:30:00 AM 2.82 37.076 0.095 7.5 5.68 14.09
3/19/2021 8:45:00 AM 2.81 37.058 0.095 7.51 5.36 14.12
3/19/2021 9:00:00 AM 2.8 37.04 0.095 7.52 5.66 14.15
3/19/2021 9:15:00 AM 2.82 37.076 0.095 7.53 5.48 14.15
3/19/2021 9:30:00 AM 2.83 37.094 0.095 7.53 5.39 14.17
3/19/2021 9:45:00 AM 2.85 37.13 0.095 7.54 5.6 14.17
3/19/2021 10:00:00 AM 2.88 37.184 0.095 7.54 5.44 14.17
3/19/2021 10:15:00 AM 2.97 37.346 0.095 7.54 5.35 14.16
3/19/2021 10:30:00 AM 3.07 37.526 0.095 7.56 5.21 14.16
3/19/2021 10:45:00 AM 3.16 37.688 0.095 7.57 5.41 14.13
3/19/2021 11:00:00 AM 3.28 37.904 0.095 7.58 5.08 14.11
3/19/2021 11:15:00 AM 3.41 38.138 0.094 7.59 5.37 14.08
3/19/2021 11:30:00 AM 3.54 38.372 0.094 7.59 4.93 14.05
3/19/2021 11:45:00 AM 3.66 38.588 0.094 7.6 5.07 14.03
3/19/2021 12:00:00 PM 3.79 38.822 0.094 7.6 5.04 13.99
3/19/2021 12:15:00 PM 3.92 39.056 0.094 7.61 5.03 13.94
3/19/2021 12:30:00 PM 4.03 39.254 0.094 7.62 4.82 13.91
3/19/2021 12:45:00 PM 4.14 39.452 0.094 7.62 4.88 13.87
3/19/2021 1:00:00 PM 4.28 39.704 0.094 7.62 4.77 13.84
3/19/2021 1:15:00 PM 4.38 39.884 0.094 7.63 4.75 13.8
3/19/2021 1:30:00 PM 4.5 40.1 0.094 7.63 4.75 13.75
3/19/2021 1:45:00 PM 4.61 40.298 0.094 7.63 4.83 13.7
3/19/2021 2:00:00 PM 4.73 40.514 0.094 7.64 4.73 13.66
3/19/2021 2:15:00 PM 4.82 40.676 0.094 7.64 4.83 13.63
3/19/2021 2:30:00 PM 4.92 40.856 0.094 7.64 4.83 13.59
3/19/2021 2:45:00 PM 5.02 41.036 0.094 7.65 4.74 13.56
3/19/2021 3:00:00 PM 5.1 41.18 0.094 7.65 4.79 13.53
3/19/2021 3:15:00 PM 5.14 41.252 0.094 7.65 4.75 13.5
3/19/2021 3:30:00 PM 5.17 41.306 0.094 7.66 4.76 13.49
3/19/2021 3:45:00 PM 5.17 41.306 0.094 7.65 4.67 13.47
3/19/2021 4:00:00 PM 5.15 41.27 0.094 7.65 5.11 13.46
3/19/2021 4:15:00 PM 5.13 41.234 0.094 7.64 5.04 13.45
3/19/2021 4:30:00 PM 5.1 41.18 0.094 7.63 4.92 13.45
3/19/2021 4:45:00 PM 5.04 41.072 0.094 7.61 4.77 13.45
3/19/2021 5:00:00 PM 4.96 40.928 0.094 7.61 4.71 13.46
3/19/2021 5:15:00 PM 4.88 40.784 0.094 7.6 4.74 13.46
3/19/2021 5:30:00 PM 4.79 40.622 0.094 7.58 4.75 13.46
3/19/2021 5:45:00 PM 4.67 40.406 0.094 7.58 4.89 13.48
3/19/2021 6:00:00 PM 4.55 40.19 0.094 7.56 4.87 13.51
3/19/2021 6:15:00 PM 4.41 39.938 0.095 7.55 4.8 13.55
3/19/2021 6:30:00 PM 4.31 39.758 0.095 7.54 5 13.56
3/19/2021 6:45:00 PM 4.2 39.56 0.095 7.53 4.76 13.59
3/19/2021 7:00:00 PM 4.08 39.344 0.095 7.51 4.91 13.6
3/19/2021 7:15:00 PM 3.98 39.164 0.095 7.5 5.17 13.6
3/19/2021 7:30:00 PM 3.89 39.002 0.095 7.49 4.74 13.62
3/19/2021 7:45:00 PM 3.81 38.858 0.095 7.48 4.69 13.65
3/19/2021 8:00:00 PM 3.73 38.714 0.095 7.48 4.82 13.67
3/19/2021 8:15:00 PM 3.67 38.606 0.095 7.46 4.65 13.69
3/19/2021 8:30:00 PM 3.6 38.48 0.095 7.46 4.77 13.71
3/19/2021 8:45:00 PM 3.54 38.372 0.095 7.46 4.86 13.73
3/19/2021 9:00:00 PM 3.49 38.282 0.095 7.46 4.74 13.76
3/19/2021 9:15:00 PM 3.43 38.174 0.095 7.45 4.63 13.77
3/19/2021 9:30:00 PM 3.38 38.084 0.095 7.46 4.69 13.8
3/19/2021 9:45:00 PM 3.33 37.994 0.095 7.45 4.7 13.82
3/19/2021 10:00:00 PM 3.29 37.922 0.095 7.45 7.48 13.83
3/19/2021 10:15:00 PM 3.25 37.85 0.095 7.45 4.86 13.85
3/19/2021 10:30:00 PM 3.21 37.778 0.095 7.45 4.75 13.87
3/19/2021 10:45:00 PM 3.18 37.724 0.095 7.44 4.51 13.89
3/19/2021 11:00:00 PM 3.14 37.652 0.095 7.44 5.14 13.9
3/19/2021 11:15:00 PM 3.11 37.598 0.095 7.44 4.66 13.92
3/19/2021 11:30:00 PM 3.08 37.544 0.095 7.44 4.66 13.93
3/19/2021 11:45:00 PM 3.05 37.49 0.095 7.45 4.66 13.95
3/20/2021 12:00:00 AM 3.02 37.436 0.095 7.45 4.63 13.96
3/20/2021 12:15:00 AM 3 37.4 0.095 7.44 5.03 13.97
3/20/2021 12:30:00 AM 2.98 37.364 0.095 7.44 4.52 13.97
3/20/2021 12:45:00 AM 2.94 37.292 0.095 7.44 4.56 13.99
3/20/2021 1:00:00 AM 2.91 37.238 0.095 7.44 4.51 14
3/20/2021 1:15:00 AM 2.88 37.184 0.095 7.44 4.69 14.01
3/20/2021 1:30:00 AM 2.85 37.13 0.095 7.44 4.5 14.03
3/20/2021 1:45:00 AM 2.83 37.094 0.095 7.44 4.53 14.04
3/20/2021 2:00:00 AM 2.8 37.04 0.095 7.44 4.47 14.04
3/20/2021 2:15:00 AM 2.78 37.004 0.095 7.44 4.57 14.05
3/20/2021 2:30:00 AM 2.76 36.968 0.095 7.44 4.88 14.05
3/20/2021 2:45:00 AM 2.74 36.932 0.095 7.44 4.52 14.07
3/20/2021 3:00:00 AM 2.71 36.878 0.095 7.44 4.52 14.08
3/20/2021 3:15:00 AM 2.69 36.842 0.095 7.44 4.58 14.09
3/20/2021 3:30:00 AM 2.66 36.788 0.095 7.44 4.38 14.1
3/20/2021 3:45:00 AM 2.64 36.752 0.095 7.43 4.57 14.1
3/20/2021 4:00:00 AM 2.62 36.716 0.095 7.43 4.45 14.12
3/20/2021 4:15:00 AM 2.59 36.662 0.095 7.43 4.69 14.12
3/20/2021 4:30:00 AM 2.57 36.626 0.094 7.44 4.48 14.13
3/20/2021 4:45:00 AM 2.56 36.608 0.094 7.43 4.53 14.13
3/20/2021 5:00:00 AM 2.54 36.572 0.094 7.44 4.46 14.16
3/20/2021 5:15:00 AM 2.53 36.554 0.094 7.43 4.47 14.15
3/20/2021 5:30:00 AM 2.51 36.518 0.095 7.44 4.4 14.17
3/20/2021 5:45:00 AM 2.51 36.518 0.095 7.43 4.49 14.16
3/20/2021 6:00:00 AM 2.49 36.482 0.095 7.43 4.45 14.17
3/20/2021 6:15:00 AM 2.49 36.482 0.095 7.43 4.49 14.18
3/20/2021 6:30:00 AM 2.46 36.428 0.095 7.44 4.4 14.19
3/20/2021 6:45:00 AM 2.45 36.41 0.095 7.43 4.59 14.19
3/20/2021 7:00:00 AM 2.43 36.374 0.095 7.43 4.42 14.21
3/20/2021 7:15:00 AM 2.41 36.338 0.095 7.43 4.35 14.22
3/20/2021 7:30:00 AM 2.39 36.302 0.095 7.44 4.5 14.24
3/20/2021 7:45:00 AM 2.38 36.284 0.095 7.45 4.54 14.27
3/20/2021 8:00:00 AM 2.38 36.284 0.095 7.46 4.36 14.3
3/20/2021 8:15:00 AM 2.4 36.32 0.095 7.46 4.25 14.31
3/20/2021 8:30:00 AM 2.42 36.356 0.095 7.47 4.3 14.35
3/20/2021 8:45:00 AM 2.44 36.392 0.094 7.48 4.25 14.36
3/20/2021 9:00:00 AM 2.47 36.446 0.094 7.49 4.26 14.39
3/20/2021 9:15:00 AM 2.54 36.572 0.094 7.5 4.29 14.39
3/20/2021 9:30:00 AM 2.62 36.716 0.094 7.51 4.57 14.38
3/20/2021 9:45:00 AM 2.72 36.896 0.094 7.52 4.31 14.36
3/20/2021 10:00:00 AM 2.85 37.13 0.094 7.53 4.31 14.34
3/20/2021 10:15:00 AM 3 37.4 0.094 7.54 4.18 14.31
3/20/2021 10:30:00 AM 3.17 37.706 0.094 7.55 4.26 14.27
3/20/2021 10:45:00 AM 3.34 38.012 0.094 7.57 4.17 14.23
3/20/2021 11:00:00 AM 3.54 38.372 0.094 7.57 4.27 14.18
3/20/2021 11:15:00 AM 3.75 38.75 0.093 7.58 4.25 14.13
3/20/2021 11:30:00 AM 3.96 39.128 0.093 7.6 4.41 14.06
3/20/2021 11:45:00 AM 4.18 39.524 0.093 7.6 4.41 13.99
3/20/2021 12:00:00 PM 4.39 39.902 0.093 7.62 4.18 13.92
3/20/2021 12:15:00 PM 4.6 40.28 0.092 7.62 4.14 13.84
3/20/2021 12:30:00 PM 4.8 40.64 0.092 7.63 4.2 13.79
3/20/2021 12:45:00 PM 5 41 0.092 7.62 4.14 13.72
3/20/2021 1:00:00 PM 5.18 41.324 0.092 7.64 4.24 13.66
3/20/2021 1:15:00 PM 5.35 41.63 0.092 7.65 4.39 13.59
3/20/2021 1:30:00 PM 5.52 41.936 0.092 7.64 4.11 13.54
3/20/2021 1:45:00 PM 5.69 42.242 0.092 7.66 4.04 13.47
3/20/2021 2:00:00 PM 5.86 42.548 0.092 7.66 4.08 13.4
3/20/2021 2:15:00 PM 6.02 42.836 0.092 7.66 4.29 13.33
3/20/2021 2:30:00 PM 6.16 43.088 0.092 7.65 4.51 13.29
3/20/2021 2:45:00 PM 6.3 43.34 0.092 7.67 4.22 13.24
3/20/2021 3:00:00 PM 6.41 43.538 0.092 7.68 4.01 13.19
3/20/2021 3:15:00 PM 6.51 43.718 0.092 7.67 4.03 13.12
3/20/2021 3:30:00 PM 6.58 43.844 0.092 7.68 4.19 13.11
3/20/2021 3:45:00 PM 6.64 43.952 0.092 7.68 4.15 13.07
3/20/2021 4:00:00 PM 6.67 44.006 0.092 7.68 4.12 13.05
3/20/2021 4:15:00 PM 6.68 44.024 0.092 7.67 4.15 13.02
3/20/2021 4:30:00 PM 6.67 44.006 0.092 7.66 4.23 13
3/20/2021 4:45:00 PM 6.63 43.934 0.092 7.64 4.09 12.98
3/20/2021 5:00:00 PM 6.59 43.862 0.092 7.62 4.32 12.96
3/20/2021 5:15:00 PM 6.51 43.718 0.092 7.61 4.27 12.95
3/20/2021 5:30:00 PM 6.43 43.574 0.093 7.59 4.41 12.95
3/20/2021 5:45:00 PM 6.33 43.394 0.093 7.59 4.22 12.97
3/20/2021 6:00:00 PM 6.2 43.16 0.093 7.57 4.2 12.97
3/20/2021 6:15:00 PM 6.06 42.908 0.093 7.56 4.11 13
3/20/2021 6:30:00 PM 5.94 42.692 0.094 7.55 4.2 13.02
3/20/2021 6:45:00 PM 5.81 42.458 0.093 7.53 4.24 13.04
3/20/2021 7:00:00 PM 5.67 42.206 0.093 7.52 4.11 13.07
3/20/2021 7:15:00 PM 5.53 41.954 0.093 7.5 4.17 13.09
3/20/2021 7:30:00 PM 5.39 41.702 0.094 7.49 4.01 13.1
3/20/2021 7:45:00 PM 5.26 41.468 0.094 7.48 4.25 13.12
3/20/2021 8:00:00 PM 5.13 41.234 0.094 7.47 4.17 13.17
3/20/2021 8:15:00 PM 5.01 41.018 0.094 7.46 4.17 13.2
3/20/2021 8:30:00 PM 4.9 40.82 0.094 7.46 3.95 13.24
3/20/2021 8:45:00 PM 4.8 40.64 0.094 7.45 4.08 13.27
3/20/2021 9:00:00 PM 4.69 40.442 0.094 7.45 4.38 13.31
3/20/2021 9:15:00 PM 4.6 40.28 0.094 7.45 4.09 13.33
3/20/2021 9:30:00 PM 4.51 40.118 0.094 7.45 4.09 13.38
3/20/2021 9:45:00 PM 4.42 39.956 0.094 7.44 4.13 13.41
3/20/2021 10:00:00 PM 4.34 39.812 0.094 7.44 4 13.44
3/20/2021 10:15:00 PM 4.25 39.65 0.094 7.44 3.96 13.47
3/20/2021 10:30:00 PM 4.16 39.488 0.094 7.44 4.08 13.51
3/20/2021 10:45:00 PM 4.09 39.362 0.094 7.44 4.02 13.53
3/20/2021 11:00:00 PM 4.01 39.218 0.094 7.44 4.15 13.55
3/20/2021 11:15:00 PM 3.94 39.092 0.094 7.43 4.02 13.59
3/20/2021 11:30:00 PM 3.86 38.948 0.094 7.44 4.07 13.62
3/20/2021 11:45:00 PM 3.81 38.858 0.094 7.43 3.88 13.63
3/21/2021 12:00:00 AM 3.75 38.75 0.094 7.43 4.05 13.67
3/21/2021 12:15:00 AM 3.7 38.66 0.094 7.43 4.07 13.69
3/21/2021 12:30:00 AM 3.65 38.57 0.093 7.43 3.96 13.71
3/21/2021 12:45:00 AM 3.59 38.462 0.097 7.43 5.64 13.72
3/21/2021 1:00:00 AM 3.54 38.372 0.093 7.43 4 13.73
3/21/2021 1:15:00 AM 3.51 38.318 0.093 7.42 3.91 13.74
3/21/2021 1:30:00 AM 3.47 38.246 0.093 7.42 4.11 13.75
3/21/2021 1:45:00 AM 3.43 38.174 0.093 7.43 4 13.78
3/21/2021 2:00:00 AM 3.39 38.102 0.093 7.42 4.11 13.78
3/21/2021 2:15:00 AM 3.35 38.03 0.093 7.42 4.07 13.79
3/21/2021 2:30:00 AM 3.34 38.012 0.093 7.41 3.95 13.8
3/21/2021 2:45:00 AM 3.28 37.904 0.093 7.42 4.02 13.83
3/21/2021 3:00:00 AM 3.25 37.85 0.093 7.42 3.99 13.84
3/21/2021 3:15:00 AM 3.23 37.814 0.093 7.4 3.97 13.83
3/21/2021 3:30:00 AM 3.2 37.76 0.093 7.4 3.95 13.83
3/21/2021 3:45:00 AM 3.15 37.67 0.093 7.42 4.06 13.87
3/21/2021 4:00:00 AM 3.12 37.616 0.093 7.42 4.08 13.88
3/21/2021 4:15:00 AM 3.09 37.562 0.094 7.42 4.04 13.9
3/21/2021 4:30:00 AM 3.05 37.49 0.094 7.42 4.14 13.92
3/21/2021 4:45:00 AM 3.03 37.454 0.094 7.42 4.01 13.94
3/21/2021 5:00:00 AM 3.01 37.418 0.094 7.41 4 13.93
3/21/2021 5:15:00 AM 3 37.4 0.094 7.4 4.05 13.91
3/21/2021 5:30:00 AM 2.95 37.31 0.094 7.41 3.96 13.96
3/21/2021 5:45:00 AM 2.92 37.256 0.094 7.42 3.96 13.97
3/21/2021 6:00:00 AM 2.9 37.22 0.094 7.41 3.99 13.97
3/21/2021 6:15:00 AM 2.89 37.202 0.094 7.4 4.06 13.96
3/21/2021 6:30:00 AM 2.86 37.148 0.094 7.4 4.17 13.98
3/21/2021 6:45:00 AM 2.82 37.076 0.094 7.41 4.05 13.99
3/21/2021 7:00:00 AM 2.8 37.04 0.094 7.41 4.06 14.01
3/21/2021 7:15:00 AM 2.77 36.986 0.094 7.41 3.98 14.03
3/21/2021 7:30:00 AM 2.76 36.968 0.094 7.41 3.97 14.05
3/21/2021 7:45:00 AM 2.74 36.932 0.094 7.43 3.96 14.1
3/21/2021 8:00:00 AM 2.73 36.914 0.094 7.44 3.98 14.14
3/21/2021 8:15:00 AM 2.74 36.932 0.094 7.45 4.01 14.17
3/21/2021 8:30:00 AM 2.75 36.95 0.094 7.46 4.02 14.2
3/21/2021 8:45:00 AM 2.78 37.004 0.094 7.47 3.97 14.21
3/21/2021 9:00:00 AM 2.84 37.112 0.094 7.46 4 14.22
3/21/2021 9:15:00 AM 2.88 37.184 0.094 7.48 3.77 14.26
3/21/2021 9:30:00 AM 2.96 37.328 0.094 7.49 4.03 14.26
3/21/2021 9:45:00 AM 3.1 37.58 0.094 7.49 3.93 14.23
3/21/2021 10:00:00 AM 3.23 37.814 0.094 7.5 3.97 14.17
3/21/2021 10:15:00 AM 3.38 38.084 0.093 7.52 3.99 14.16
3/21/2021 10:30:00 AM 3.57 38.426 0.093 7.52 3.87 14.13
3/21/2021 10:45:00 AM 3.77 38.786 0.093 7.53 3.82 14.1
3/21/2021 11:00:00 AM 3.99 39.182 0.092 7.55 3.85 14.04
3/21/2021 11:15:00 AM 4.21 39.578 0.092 7.54 3.86 13.98
3/21/2021 11:30:00 AM 4.46 40.028 0.091 7.55 3.86 13.91
3/21/2021 11:45:00 AM 4.68 40.424 0.091 7.56 3.82 13.82
3/21/2021 12:00:00 PM 4.94 40.892 0.091 7.57 3.72 13.76
3/21/2021 12:15:00 PM 5.17 41.306 0.091 7.59 3.87 13.68
3/21/2021 12:30:00 PM 5.37 41.666 0.091 7.59 3.73 13.62
3/21/2021 12:45:00 PM 5.6 42.08 0.091 7.58 3.68 13.53
3/21/2021 1:00:00 PM 5.81 42.458 0.091 7.62 3.86 13.46
3/21/2021 1:15:00 PM 5.98 42.764 0.09 7.63 3.67 13.38
3/21/2021 1:30:00 PM 6.19 43.142 0.091 7.63 3.73 13.33
3/21/2021 1:45:00 PM 6.37 43.466 0.09 7.65 3.86 13.26
3/21/2021 2:00:00 PM 6.56 43.808 0.091 7.65 3.91 13.18
3/21/2021 2:15:00 PM 6.75 44.15 0.091 7.63 3.83 13.11
3/21/2021 2:30:00 PM 6.92 44.456 0.091 7.65 3.77 13.05
3/21/2021 2:45:00 PM 7.07 44.726 0.091 7.64 3.96 12.96
3/21/2021 3:00:00 PM 7.22 44.996 0.091 7.64 3.76 12.88
3/21/2021 3:15:00 PM 7.35 45.23 0.091 7.68 3.78 12.88
3/21/2021 3:30:00 PM 7.44 45.392 0.091 7.66 3.72 12.83
3/21/2021 3:45:00 PM 7.52 45.536 0.091 7.67 3.83 12.8
3/21/2021 4:00:00 PM 7.56 45.608 0.091 7.68 3.84 12.76
3/21/2021 4:15:00 PM 7.59 45.662 0.091 7.66 3.62 12.73
3/21/2021 4:30:00 PM 7.6 45.68 0.092 7.62 3.74 12.68
3/21/2021 4:45:00 PM 7.58 45.644 0.092 7.62 3.68 12.66
3/21/2021 5:00:00 PM 7.56 45.608 0.092 7.59 3.46 12.62
3/21/2021 5:15:00 PM 7.49 45.482 0.092 7.59 3.49 12.59
3/21/2021 5:30:00 PM 7.42 45.356 0.092 7.59 3.54 12.59
3/21/2021 5:45:00 PM 7.35 45.23 0.092 7.56 3.51 12.58
3/21/2021 6:00:00 PM 7.24 45.032 0.092 7.55 3.53 12.58
3/21/2021 6:15:00 PM 7.09 44.762 0.092 7.53 3.6 12.6
3/21/2021 6:30:00 PM 6.96 44.528 0.092 7.52 3.86 12.63
3/21/2021 6:45:00 PM 6.82 44.276 0.093 7.51 3.69 12.65
3/21/2021 7:00:00 PM 6.68 44.024 0.093 7.49 3.54 12.65
3/21/2021 7:15:00 PM 6.52 43.736 0.093 7.48 3.48 12.66
3/21/2021 7:30:00 PM 6.37 43.466 0.093 7.46 3.63 12.69
3/21/2021 7:45:00 PM 6.23 43.214 0.093 7.46 3.38 12.73
3/21/2021 8:00:00 PM 6.1 42.98 0.094 7.44 3.55 12.73
3/21/2021 8:15:00 PM 5.95 42.71 0.094 7.45 3.56 12.79
3/21/2021 8:30:00 PM 5.82 42.476 0.094 7.44 3.76 12.81
3/21/2021 8:45:00 PM 5.7 42.26 0.095 7.43 3.63 12.86
3/21/2021 9:00:00 PM 5.59 42.062 0.094 7.43 3.41 12.89
3/21/2021 9:15:00 PM 5.47 41.846 0.094 7.42 3.53 12.93
3/21/2021 9:30:00 PM 5.35 41.63 0.094 7.43 3.6 12.98
3/21/2021 9:45:00 PM 5.26 41.468 0.095 7.42 3.58 13
3/21/2021 10:00:00 PM 5.16 41.288 0.095 7.41 3.53 13.04
3/21/2021 10:15:00 PM 5.06 41.108 0.095 7.42 3.56 13.09
3/21/2021 10:30:00 PM 4.95 40.91 0.095 7.42 3.62 13.13
3/21/2021 10:45:00 PM 4.87 40.766 0.095 7.42 3.66 13.15
3/21/2021 11:00:00 PM 4.76 40.568 0.095 7.43 3.54 13.2
3/21/2021 11:15:00 PM 4.66 40.388 0.095 7.43 3.62 13.24
3/21/2021 11:30:00 PM 4.59 40.262 0.096 7.41 3.56 13.24
3/21/2021 11:45:00 PM 4.5 40.1 0.096 7.42 3.59 13.29
3/22/2021 12:00:00 AM 4.41 39.938 0.096 7.42 3.57 13.32
3/22/2021 12:15:00 AM 4.33 39.794 0.096 7.42 3.49 13.36
3/22/2021 12:30:00 AM 4.28 39.704 0.096 7.4 3.52 13.34
3/22/2021 12:45:00 AM 4.17 39.506 0.096 7.42 3.51 13.42
3/22/2021 1:00:00 AM 4.1 39.38 0.096 7.42 3.6 13.42
3/22/2021 1:15:00 AM 4.05 39.29 0.097 7.41 3.41 13.42
3/22/2021 1:30:00 AM 3.97 39.146 0.097 7.41 3.48 13.46
3/22/2021 1:45:00 AM 3.92 39.056 0.098 7.41 3.73 13.47
3/22/2021 2:00:00 AM 3.86 38.948 0.097 7.41 3.68 13.5
3/22/2021 2:15:00 AM 3.8 38.84 0.097 7.41 3.62 13.52
3/22/2021 2:30:00 AM 3.73 38.714 0.097 7.41 3.57 13.56
3/22/2021 2:45:00 AM 3.7 38.66 0.098 7.41 3.54 13.57
3/22/2021 3:00:00 AM 3.67 38.606 0.098 7.39 3.59 13.57
3/22/2021 3:15:00 AM 3.6 38.48 0.098 7.4 3.47 13.6
3/22/2021 3:30:00 AM 3.57 38.426 0.097 7.4 3.65 13.59
3/22/2021 3:45:00 AM 3.5 38.3 0.097 7.41 3.52 13.64
3/22/2021 4:00:00 AM 3.46 38.228 0.097 7.41 3.57 13.65
3/22/2021 4:15:00 AM 3.43 38.174 0.097 7.4 3.55 13.65
3/22/2021 4:30:00 AM 3.42 38.156 0.097 7.39 3.48 13.63
3/22/2021 4:45:00 AM 3.36 38.048 0.097 7.41 3.46 13.68
3/22/2021 5:00:00 AM 3.31 37.958 0.097 7.41 3.49 13.71
3/22/2021 5:15:00 AM 3.28 37.904 0.097 7.41 3.54 13.72
3/22/2021 5:30:00 AM 3.25 37.85 0.097 7.4 3.38 13.73
3/22/2021 5:45:00 AM 3.23 37.814 0.096 7.4 3.44 13.75
3/22/2021 6:00:00 AM 3.19 37.742 0.096 7.4 3.45 13.75
3/22/2021 6:15:00 AM 3.17 37.706 0.096 7.39 3.36 13.74
3/22/2021 6:30:00 AM 3.13 37.634 0.095 7.39 3.32 13.77
3/22/2021 6:45:00 AM 3.08 37.544 0.095 7.39 3.4 13.8
3/22/2021 7:00:00 AM 3.05 37.49 0.095 7.39 3.48 13.8
3/22/2021 7:15:00 AM 3.04 37.472 0.095 7.39 3.28 13.82
3/22/2021 7:30:00 AM 3 37.4 0.094 7.4 3.32 13.88
3/22/2021 7:45:00 AM 2.99 37.382 0.094 7.41 3.4 13.93
3/22/2021 8:00:00 AM 3 37.4 0.094 7.41 3.36 13.94
3/22/2021 8:15:00 AM 3 37.4 0.094 7.43 3.41 13.98
3/22/2021 8:30:00 AM 3.03 37.454 0.094 7.43 3.37 14.02
3/22/2021 8:45:00 AM 3.06 37.508 0.094 7.45 3.34 14.04
3/22/2021 9:00:00 AM 3.09 37.562 0.094 7.46 3.2 14.07
3/22/2021 9:15:00 AM 3.16 37.688 0.094 7.47 3.24 14.07
3/22/2021 9:30:00 AM 3.24 37.832 0.094 7.47 3.77 14.07
3/22/2021 9:45:00 AM 3.36 38.048 0.094 7.49 3.34 14.06
3/22/2021 10:00:00 AM 3.47 38.246 0.094 7.5 3.33 14.04
3/22/2021 10:15:00 AM 3.66 38.588 0.094 7.49 3.38 13.99
3/22/2021 10:30:00 AM 3.88 38.984 0.094 7.51 3.27 13.95
3/22/2021 10:45:00 AM 4.09 39.362 0.093 7.54 3.31 13.93
3/22/2021 11:00:00 AM 4.36 39.848 0.094 7.54 3.26 13.87
3/22/2021 11:15:00 AM 4.58 40.244 0.093 7.55 3.4 13.81
3/22/2021 11:30:00 AM 4.83 40.694 0.093 7.57 3.23 13.75
3/22/2021 11:45:00 AM 5.11 41.198 0.093 7.57 3.35 13.66
3/22/2021 12:00:00 PM 5.35 41.63 0.093 7.59 3.36 13.58
3/22/2021 12:15:00 PM 5.6 42.08 0.093 7.6 3.23 13.51
3/22/2021 12:30:00 PM 5.87 42.566 0.093 7.61 3.31 13.42
3/22/2021 12:45:00 PM 6.11 42.998 0.093 7.61 3.4 13.32
3/22/2021 1:00:00 PM 6.34 43.412 0.093 7.6 3.24 13.25
3/22/2021 1:15:00 PM 6.53 43.754 0.093 7.61 3.41 13.17
3/22/2021 1:30:00 PM 6.7 44.06 0.092 7.64 3.32 13.1
3/22/2021 1:45:00 PM 6.91 44.438 0.092 7.66 3.41 13.03
3/22/2021 2:00:00 PM 7.11 44.798 0.092 7.64 3.31 12.96
3/22/2021 2:15:00 PM 7.32 45.176 0.092 7.66 3.28 12.89
3/22/2021 2:30:00 PM 7.5 45.5 0.092 7.65 3.23 12.8
3/22/2021 2:45:00 PM 7.67 45.806 0.092 7.67 3.18 12.77
3/22/2021 3:00:00 PM 7.85 46.13 0.093 7.65 3.28 12.7
3/22/2021 3:15:00 PM 7.97 46.346 0.092 7.67 3.29 12.66
3/22/2021 3:30:00 PM 8.08 46.544 0.092 7.65 3.23 12.61
3/22/2021 3:45:00 PM 8.13 46.634 0.092 7.66 3.28 12.54
3/22/2021 4:00:00 PM 8.19 46.742 0.092 7.63 3.32 12.51
3/22/2021 4:15:00 PM 8.17 46.706 0.092 7.68 3.36 12.5
3/22/2021 4:30:00 PM 8.19 46.742 0.093 7.63 3.2 12.44
3/22/2021 4:45:00 PM 8.18 46.724 0.093 7.62 3.35 12.41
3/22/2021 5:00:00 PM 8.16 46.688 0.093 7.61 3.35 12.38
3/22/2021 5:15:00 PM 8.1 46.58 0.093 7.59 3.3 12.35
3/22/2021 5:30:00 PM 8.03 46.454 0.093 7.58 3.4 12.35
3/22/2021 5:45:00 PM 7.96 46.328 0.093 7.59 3.4 12.33
3/22/2021 6:00:00 PM 7.86 46.148 0.093 7.57 3.66 12.32
3/22/2021 6:15:00 PM 7.75 45.95 0.093 7.56 5.64 12.33
3/22/2021 6:30:00 PM 7.6 45.68 0.094 7.55 3.54 12.37
3/22/2021 6:45:00 PM 7.48 45.464 0.094 7.52 3.44 12.36
3/22/2021 7:00:00 PM 7.35 45.23 0.094 7.5 3.3 12.34
3/22/2021 7:15:00 PM 7.19 44.942 0.094 7.49 3.25 12.35
3/22/2021 7:30:00 PM 7.03 44.654 0.095 7.47 3.41 12.35
3/22/2021 7:45:00 PM 6.89 44.402 0.095 7.46 3.37 12.39
3/22/2021 8:00:00 PM 6.76 44.168 0.095 7.43 3.3 12.4
3/22/2021 8:15:00 PM 6.61 43.898 0.096 7.44 3.16 12.44
3/22/2021 8:30:00 PM 6.48 43.664 0.096 7.43 3.42 12.46
3/22/2021 8:45:00 PM 6.34 43.412 0.096 7.43 3.42 12.52
3/22/2021 9:00:00 PM 6.21 43.178 0.096 7.43 3.44 12.58
3/22/2021 9:15:00 PM 6.09 42.962 0.097 7.43 3.43 12.6
3/22/2021 9:30:00 PM 5.98 42.764 0.097 7.43 3.4 12.64
3/22/2021 9:45:00 PM 5.87 42.566 0.097 7.42 3.63 12.67
3/22/2021 10:00:00 PM 5.76 42.368 0.097 7.41 3.36 12.7
3/22/2021 10:15:00 PM 5.66 42.188 0.097 7.43 3.34 12.75
3/22/2021 10:30:00 PM 5.57 42.026 0.097 7.41 3.26 12.8
3/22/2021 10:45:00 PM 5.46 41.828 0.097 7.42 3.38 12.83
3/22/2021 11:00:00 PM 5.38 41.684 0.097 7.4 3.47 12.82
3/22/2021 11:15:00 PM 5.24 41.432 0.097 7.44 3.37 12.92
3/22/2021 11:30:00 PM 5.17 41.306 0.097 7.42 3.41 12.93
3/22/2021 11:45:00 PM 5.08 41.144 0.098 7.42 3.5 12.96
3/23/2021 12:00:00 AM 4.99 40.982 0.098 7.41 3.34 12.99
3/23/2021 12:15:00 AM 4.9 40.82 0.098 7.41 3.3 13.02
3/23/2021 12:30:00 AM 4.81 40.658 0.098 7.41 3.49 13.05
3/23/2021 12:45:00 AM 4.73 40.514 0.098 7.41 3.5 13.06
3/23/2021 1:00:00 AM 4.64 40.352 0.098 7.41 3.33 13.11
3/23/2021 1:15:00 AM 4.55 40.19 0.097 7.41 3.31 13.14
3/23/2021 1:30:00 AM 4.49 40.082 0.098 7.42 3.3 13.18
3/23/2021 1:45:00 AM 4.42 39.956 0.097 7.41 3.33 13.2
3/23/2021 2:00:00 AM 4.36 39.848 0.097 7.42 3.29 13.23
3/23/2021 2:15:00 AM 4.32 39.776 0.097 7.39 3.25 13.23
3/23/2021 2:30:00 AM 4.25 39.65 0.097 7.41 3.31 13.27
3/23/2021 2:45:00 AM 4.21 39.578 0.097 7.4 3.31 13.27
3/23/2021 3:00:00 AM 4.15 39.47 0.097 7.41 3.25 13.29
3/23/2021 3:15:00 AM 4.12 39.416 0.096 7.41 3.28 13.3
3/23/2021 3:30:00 AM 4.1 39.38 0.096 7.39 3.26 13.31
3/23/2021 3:45:00 AM 4.07 39.326 0.096 7.4 3.26 13.31
3/23/2021 4:00:00 AM 4.01 39.218 0.096 7.4 3.18 13.33
3/23/2021 4:15:00 AM 4 39.2 0.096 7.4 3.29 13.34
3/23/2021 4:30:00 AM 3.97 39.146 0.096 7.4 3.29 13.35
3/23/2021 4:45:00 AM 3.93 39.074 0.096 7.4 3.25 13.38
3/23/2021 5:00:00 AM 3.92 39.056 0.096 7.39 3.34 13.35
3/23/2021 5:15:00 AM 3.89 39.002 0.096 7.39 3.16 13.37
3/23/2021 5:30:00 AM 3.85 38.93 0.096 7.4 3.25 13.41
3/23/2021 5:45:00 AM 3.83 38.894 0.097 7.4 3.27 13.41
3/23/2021 6:00:00 AM 3.79 38.822 0.096 7.4 3.23 13.4
3/23/2021 6:15:00 AM 3.77 38.786 0.096 7.4 3.4 13.45
3/23/2021 6:30:00 AM 3.72 38.696 0.096 7.41 3.26 13.46
3/23/2021 6:45:00 AM 3.7 38.66 0.096 7.39 3.25 13.45
3/23/2021 7:00:00 AM 3.66 38.588 0.096 7.4 3.32 13.48
3/23/2021 7:15:00 AM 3.66 38.588 0.096 7.39 3.18 13.48
3/23/2021 7:30:00 AM 3.62 38.516 0.096 7.4 3.17 13.55
3/23/2021 7:45:00 AM 3.62 38.516 0.096 7.41 3.18 13.6
3/23/2021 8:00:00 AM 3.62 38.516 0.097 7.41 3.06 13.63
3/23/2021 8:15:00 AM 3.62 38.516 0.096 7.45 3.19 13.7
3/23/2021 8:30:00 AM 3.65 38.57 0.096 7.45 3.3 13.74
3/23/2021 8:45:00 AM 3.7 38.66 0.096 7.45 3.25 13.74
3/23/2021 9:00:00 AM 3.73 38.714 0.095 7.48 3.08 13.79
3/23/2021 9:15:00 AM 3.81 38.858 0.095 7.47 3.19 13.78
3/23/2021 9:30:00 AM 3.88 38.984 0.095 7.5 3.2 13.81
3/23/2021 9:45:00 AM 4.01 39.218 0.095 7.49 3.26 13.77
3/23/2021 10:00:00 AM 4.13 39.434 0.095 7.52 3.15 13.77
3/23/2021 10:15:00 AM 4.31 39.758 0.095 7.51 3.19 13.75
3/23/2021 10:30:00 AM 4.51 40.118 0.095 7.54 3.08 13.75
3/23/2021 10:45:00 AM 4.74 40.532 0.094 7.55 3.21 13.7
3/23/2021 11:00:00 AM 5.02 41.036 0.094 7.55 3.2 13.61
3/23/2021 11:15:00 AM 5.27 41.486 0.094 7.58 3.2 13.55
3/23/2021 11:30:00 AM 5.53 41.954 0.094 7.57 3.17 13.5
3/23/2021 11:45:00 AM 5.87 42.566 0.094 7.58 3.19 13.42
3/23/2021 12:00:00 PM 6.09 42.962 0.094 7.61 3.22 13.36
3/23/2021 12:15:00 PM 6.4 43.52 0.094 7.6 3.16 13.26
3/23/2021 12:30:00 PM 6.6 43.88 0.094 7.62 3.15 13.15
3/23/2021 12:45:00 PM 6.89 44.402 0.094 7.66 3.24 13.12
3/23/2021 1:00:00 PM 7.13 44.834 0.094 7.66 3.2 13.04
3/23/2021 1:15:00 PM 7.39 45.302 0.093 7.65 3.14 12.95
3/23/2021 1:30:00 PM 7.54 45.572 0.093 7.66 3.14 12.91
3/23/2021 1:45:00 PM 7.72 45.896 0.093 7.67 3.17 12.82
3/23/2021 2:00:00 PM 7.89 46.202 0.093 7.7 3.19 12.72
3/23/2021 2:15:00 PM 8.11 46.598 0.093 7.7 3.12 12.69
3/23/2021 2:30:00 PM 8.31 46.958 0.093 7.67 3.17 12.63
3/23/2021 2:45:00 PM 8.46 47.228 0.093 7.72 3.21 12.57
3/23/2021 3:00:00 PM 8.54 47.372 0.093 7.7 3.1 12.5
3/23/2021 3:15:00 PM 8.68 47.624 0.093 7.72 3.25 12.48
3/23/2021 3:30:00 PM 8.73 47.714 0.093 7.72 3.43 12.45
3/23/2021 3:45:00 PM 8.77 47.786 0.093 7.71 3.12 12.39
3/23/2021 4:00:00 PM 8.84 47.912 0.093 7.74 3.09 12.39
3/23/2021 4:15:00 PM 8.86 47.948 0.093 7.72 3.03 12.38
3/23/2021 4:30:00 PM 8.81 47.858 0.093 7.71 3.11 12.33
3/23/2021 4:45:00 PM 8.79 47.822 0.093 7.71 3.14 12.35
3/23/2021 5:00:00 PM 8.77 47.786 0.093 7.72 3.06 12.31
3/23/2021 5:15:00 PM 8.75 47.75 0.094 7.68 3.11 12.3
3/23/2021 5:30:00 PM 8.7 47.66 0.093 7.67 3.14 12.27
3/23/2021 5:45:00 PM 8.66 47.588 0.094 7.62 3.02 12.25
3/23/2021 6:00:00 PM 8.57 47.426 0.094 7.61 3.17 12.15
3/23/2021 6:15:00 PM 8.49 47.282 0.094 7.59 3.72 12.13
3/23/2021 6:30:00 PM 8.42 47.156 0.094 7.56 3.19 12.09
3/23/2021 6:45:00 PM 8.33 46.994 0.094 7.54 3.16 12.05
3/23/2021 7:00:00 PM 8.25 46.85 0.094 7.51 3.11 12.03
3/23/2021 7:15:00 PM 8.14 46.652 0.095 7.51 3.23 12.03
3/23/2021 7:30:00 PM 8.04 46.472 0.095 7.48 3.2 12
3/23/2021 7:45:00 PM 7.93 46.274 0.095 7.47 3.16 11.99
3/23/2021 8:00:00 PM 7.84 46.112 0.096 7.45 3.16 11.98
3/23/2021 8:15:00 PM 7.72 45.896 0.096 7.45 3.28 12.02
3/23/2021 8:30:00 PM 7.62 45.716 0.096 7.43 3.32 12.04
3/23/2021 8:45:00 PM 7.51 45.518 0.096 7.44 3.29 12.11
3/23/2021 9:00:00 PM 7.41 45.338 0.096 7.43 3.16 12.12
3/23/2021 9:15:00 PM 7.31 45.158 0.096 7.42 3.09 12.13
3/23/2021 9:30:00 PM 7.21 44.978 0.096 7.43 3.4 12.18
3/23/2021 9:45:00 PM 7.12 44.816 0.097 7.42 3.1 12.21
3/23/2021 10:00:00 PM 7.03 44.654 0.097 7.42 3.17 12.24
3/23/2021 10:15:00 PM 6.95 44.51 0.097 7.42 3.08 12.25
3/23/2021 10:30:00 PM 6.87 44.366 0.097 7.43 3.25 12.3
3/23/2021 10:45:00 PM 6.8 44.24 0.097 7.43 3.09 12.28
3/23/2021 11:00:00 PM 6.73 44.114 0.097 7.41 3.13 12.31
3/23/2021 11:15:00 PM 6.66 43.988 0.097 7.42 3.15 12.35
3/23/2021 11:30:00 PM 6.62 43.916 0.097 7.41 3.14 12.34
3/23/2021 11:45:00 PM 6.55 43.79 0.097 7.41 3.14 12.36
3/24/2021 12:00:00 AM 6.49 43.682 0.097 7.41 3.14 12.38
3/24/2021 12:15:00 AM 6.44 43.592 0.097 7.42 2.98 12.41
3/24/2021 12:30:00 AM 6.39 43.502 0.097 7.41 3.12 12.42
3/24/2021 12:45:00 AM 6.34 43.412 0.097 7.43 3.02 12.47
3/24/2021 1:00:00 AM 6.3 43.34 0.097 7.4 3.08 12.46
3/24/2021 1:15:00 AM 6.27 43.286 0.097 7.4 3.07 12.47
3/24/2021 1:30:00 AM 6.24 43.232 0.097 7.41 2.97 12.5
3/24/2021 1:45:00 AM 6.22 43.196 0.097 7.42 3.09 12.51
3/24/2021 2:00:00 AM 6.22 43.196 0.097 7.39 3.01 12.48
3/24/2021 2:15:00 AM 6.22 43.196 0.097 7.4 3.09 12.49
3/24/2021 2:30:00 AM 6.23 43.214 0.097 7.4 3.07 12.5
3/24/2021 2:45:00 AM 6.23 43.214 0.097 7.4 2.92 12.49
3/24/2021 3:00:00 AM 6.23 43.214 0.097 7.4 3.06 12.49
3/24/2021 3:15:00 AM 6.22 43.196 0.097 7.41 3.15 12.51
3/24/2021 3:30:00 AM 6.23 43.214 0.097 7.4 3 12.48
3/24/2021 3:45:00 AM 6.24 43.232 0.097 7.4 3.08 12.45
3/24/2021 4:00:00 AM 6.24 43.232 0.097 7.4 3.11 12.5
3/24/2021 4:15:00 AM 6.24 43.232 0.096 7.41 3.1 12.5
3/24/2021 4:30:00 AM 6.25 43.25 0.096 7.4 3.15 12.48
3/24/2021 4:45:00 AM 6.26 43.268 0.096 7.41 3.09 12.48
3/24/2021 5:00:00 AM 6.25 43.25 0.096 7.41 3.03 12.48
3/24/2021 5:15:00 AM 6.26 43.268 0.097 7.39 2.95 12.47
3/24/2021 5:30:00 AM 6.27 43.286 0.096 7.39 3.12 12.46
3/24/2021 5:45:00 AM 6.26 43.268 0.096 7.4 3.08 12.47
3/24/2021 6:00:00 AM 6.27 43.286 0.097 7.4 3 12.46
3/24/2021 6:15:00 AM 6.27 43.286 0.096 7.4 2.98 12.48
3/24/2021 6:30:00 AM 6.29 43.322 0.096 7.4 3.18 12.48
3/24/2021 6:45:00 AM 6.29 43.322 0.096 7.41 3.14 12.47
3/24/2021 7:00:00 AM 6.32 43.376 0.096 7.39 3.08 12.44
3/24/2021 7:15:00 AM 6.33 43.394 0.096 7.38 3 12.44
3/24/2021 7:30:00 AM 6.32 43.376 0.096 7.41 3.07 12.48
3/24/2021 7:45:00 AM 6.35 43.43 0.097 7.39 3.07 12.45
3/24/2021 8:00:00 AM 6.36 43.448 0.097 7.4 3.04 12.49
3/24/2021 8:15:00 AM 6.38 43.484 0.097 7.4 3.03 12.48
3/24/2021 8:30:00 AM 6.38 43.484 0.096 7.43 3.16 12.55
3/24/2021 8:45:00 AM 6.4 43.52 0.096 7.43 2.95 12.56
3/24/2021 9:00:00 AM 6.43 43.574 0.096 7.44 3.2 12.58
3/24/2021 9:15:00 AM 6.46 43.628 0.096 7.43 2.98 12.56
3/24/2021 9:30:00 AM 6.48 43.664 0.096 7.46 3.03 12.62
3/24/2021 9:45:00 AM 6.52 43.736 0.096 7.47 3.14 12.67
3/24/2021 10:00:00 AM 6.55 43.79 0.095 7.49 3.19 12.66
3/24/2021 10:15:00 AM 6.59 43.862 0.095 7.47 3.07 12.64
3/24/2021 10:30:00 AM 6.63 43.934 0.095 7.5 3.01 12.67
3/24/2021 10:45:00 AM 6.68 44.024 0.095 7.5 3.21 12.66
3/24/2021 11:00:00 AM 6.73 44.114 0.095 7.51 3.15 12.67
3/24/2021 11:15:00 AM 6.77 44.186 0.095 7.51 3.11 12.64
3/24/2021 11:30:00 AM 6.82 44.276 0.094 7.5 3.18 12.62
3/24/2021 11:45:00 AM 6.88 44.384 0.094 7.53 3 12.67
3/24/2021 12:00:00 PM 6.93 44.474 0.094 7.53 3.13 12.67
3/24/2021 12:15:00 PM 7.01 44.618 0.094 7.54 3.14 12.71
3/24/2021 12:30:00 PM 7.07 44.726 0.094 7.55 3.15 12.67
3/24/2021 12:45:00 PM 7.14 44.852 0.094 7.58 3.17 12.71
3/24/2021 1:00:00 PM 7.23 45.014 0.094 7.57 3.2 12.7
3/24/2021 1:15:00 PM 7.31 45.158 0.093 7.6 3.31 12.7
3/24/2021 1:30:00 PM 7.37 45.266 0.093 7.6 3.25 12.65
3/24/2021 1:45:00 PM 7.43 45.374 0.093 7.59 3.28 12.58
3/24/2021 2:00:00 PM 7.5 45.5 0.094 7.57 3.42 12.49
3/24/2021 2:15:00 PM 7.56 45.608 0.093 7.57 3.97 12.48
3/24/2021 2:30:00 PM 7.63 45.734 0.093 7.57 4.18 12.48
3/24/2021 2:45:00 PM 7.66 45.788 0.093 7.57 3.98 12.43
3/24/2021 3:00:00 PM 7.69 45.842 0.092 7.55 4.19 12.36
3/24/2021 3:15:00 PM 7.72 45.896 0.092 7.55 4.38 12.39
3/24/2021 3:30:00 PM 7.7 45.86 0.093 7.53 3.86 12.34
3/24/2021 3:45:00 PM 7.69 45.842 0.093 7.54 3.68 12.33
3/24/2021 4:00:00 PM 7.69 45.842 0.093 7.54 3.76 12.32
3/24/2021 4:15:00 PM 7.7 45.86 0.094 7.53 3.93 12.28
3/24/2021 4:30:00 PM 7.71 45.878 0.094 7.52 4.22 12.28
3/24/2021 4:45:00 PM 7.73 45.914 0.095 7.54 4.84 12.28
3/24/2021 5:00:00 PM 7.73 45.914 0.095 7.52 4.75 12.24
3/24/2021 5:15:00 PM 7.73 45.914 0.096 7.51 5.36 12.21
3/24/2021 5:30:00 PM 7.74 45.932 0.096 7.51 6.21 12.22
3/24/2021 5:45:00 PM 7.73 45.914 0.097 7.51 7.45 12.21
3/24/2021 6:00:00 PM 7.72 45.896 0.097 7.49 9.64 12.17
3/24/2021 6:15:00 PM 7.7 45.86 0.097 7.48 8.37 12.17
3/24/2021 6:30:00 PM 7.67 45.806 0.097 7.47 8.34 12.16
3/24/2021 6:45:00 PM 7.65 45.77 0.096 7.47 8.32 12.16
3/24/2021 7:00:00 PM 7.64 45.752 0.096 7.45 7.06 12.14
3/24/2021 7:15:00 PM 7.6 45.68 0.096 7.45 6.04 12.12
3/24/2021 7:30:00 PM 7.58 45.644 0.095 7.44 6.1 12.09
3/24/2021 7:45:00 PM 7.55 45.59 0.095 7.44 5.18 12.11
3/24/2021 8:00:00 PM 7.53 45.554 0.095 7.43 4.92 12.1
3/24/2021 8:15:00 PM 7.51 45.518 0.095 7.43 5.1 12.1
3/24/2021 8:30:00 PM 7.51 45.518 0.096 7.41 4.64 12.09
3/24/2021 8:45:00 PM 7.48 45.464 0.095 7.43 4.82 12.12
3/24/2021 9:00:00 PM 7.48 45.464 0.095 7.41 4.58 12.1
3/24/2021 9:15:00 PM 7.46 45.428 0.095 7.42 4.38 12.11
3/24/2021 9:30:00 PM 7.44 45.392 0.095 7.43 4.51 12.12
3/24/2021 9:45:00 PM 7.44 45.392 0.095 7.43 4.29 12.14
3/24/2021 10:00:00 PM 7.42 45.356 0.095 7.43 4.2 12.15
3/24/2021 10:15:00 PM 7.41 45.338 0.095 7.42 4.3 12.13
3/24/2021 10:30:00 PM 7.41 45.338 0.095 7.42 4.31 12.14
3/24/2021 10:45:00 PM 7.4 45.32 0.095 7.44 4.27 12.15
3/24/2021 11:00:00 PM 7.4 45.32 0.094 7.42 4.43 12.13
3/24/2021 11:15:00 PM 7.39 45.302 0.094 7.41 4.07 12.13
3/24/2021 11:30:00 PM 7.36 45.248 0.094 7.43 4.08 12.17
3/24/2021 11:45:00 PM 7.34 45.212 0.094 7.43 4.14 12.17
3/25/2021 12:00:00 AM 7.33 45.194 0.094 7.4 4 12.16
3/25/2021 12:15:00 AM 7.31 45.158 0.094 7.41 4.06 12.17
3/25/2021 12:30:00 AM 7.29 45.122 0.094 7.41 3.95 12.18
3/25/2021 12:45:00 AM 7.28 45.104 0.094 7.4 4.01 12.17
3/25/2021 1:00:00 AM 7.27 45.086 0.094 7.4 3.92 12.18
3/25/2021 1:15:00 AM 7.26 45.068 0.094 7.41 3.91 12.18
3/25/2021 1:30:00 AM 7.26 45.068 0.093 7.42 3.92 12.2
3/25/2021 1:45:00 AM 7.26 45.068 0.093 7.42 3.89 12.19
3/25/2021 2:00:00 AM 7.28 45.104 0.094 7.41 3.78 12.17
3/25/2021 2:15:00 AM 7.27 45.086 0.093 7.4 3.9 12.17
3/25/2021 2:30:00 AM 7.27 45.086 0.093 7.41 3.78 12.18
3/25/2021 2:45:00 AM 7.28 45.104 0.093 7.39 3.88 12.16
3/25/2021 3:00:00 AM 7.28 45.104 0.093 7.41 4.07 12.17
3/25/2021 3:15:00 AM 7.28 45.104 0.093 7.41 3.71 12.18
3/25/2021 3:30:00 AM 7.28 45.104 0.094 7.41 4.45 12.17
3/25/2021 3:45:00 AM 7.28 45.104 0.094 7.41 3.89 12.16
3/25/2021 4:00:00 AM 7.28 45.104 0.093 7.42 3.77 12.17
3/25/2021 4:15:00 AM 7.29 45.122 0.093 7.41 3.67 12.17
3/25/2021 4:30:00 AM 7.28 45.104 0.093 7.42 3.86 12.17
3/25/2021 4:45:00 AM 7.29 45.122 0.094 7.41 4.16 12.15
3/25/2021 5:00:00 AM 7.28 45.104 0.094 7.41 3.89 12.16
3/25/2021 5:15:00 AM 7.25 45.05 0.093 7.41 3.7 12.19
3/25/2021 5:30:00 AM 7.25 45.05 0.093 7.41 3.74 12.18
3/25/2021 5:45:00 AM 7.23 45.014 0.093 7.41 3.7 12.18
3/25/2021 6:00:00 AM 7.21 44.978 0.094 7.4 3.68 12.19
3/25/2021 6:15:00 AM 7.19 44.942 0.094 7.4 3.65 12.19
3/25/2021 6:30:00 AM 7.17 44.906 0.094 7.39 3.72 12.18
3/25/2021 6:45:00 AM 7.16 44.888 0.094 7.39 3.65 12.2
3/25/2021 7:00:00 AM 7.14 44.852 0.094 7.39 3.9 12.22
3/25/2021 7:15:00 AM 7.11 44.798 0.093 7.41 3.79 12.28
3/25/2021 7:30:00 AM 7.11 44.798 0.093 7.41 3.68 12.28
3/25/2021 7:45:00 AM 7.13 44.834 0.094 7.4 3.59 12.29
3/25/2021 8:00:00 AM 7.14 44.852 0.093 7.42 3.82 12.36
3/25/2021 8:15:00 AM 7.14 44.852 0.093 7.46 3.69 12.44
3/25/2021 8:30:00 AM 7.18 44.924 0.093 7.48 3.78 12.47
3/25/2021 8:45:00 AM 7.22 44.996 0.093 7.48 3.69 12.48
3/25/2021 9:00:00 AM 7.25 45.05 0.093 7.5 3.7 12.51
3/25/2021 9:15:00 AM 7.31 45.158 0.093 7.52 3.93 12.53
3/25/2021 9:30:00 AM 7.38 45.284 0.092 7.53 3.81 12.54
3/25/2021 9:45:00 AM 7.47 45.446 0.092 7.56 3.82 12.54
3/25/2021 10:00:00 AM 7.61 45.698 0.092 7.56 3.62 12.52
3/25/2021 10:15:00 AM 7.78 46.004 0.091 7.57 3.7 12.49
3/25/2021 10:30:00 AM 7.97 46.346 0.091 7.61 3.7 12.48
3/25/2021 10:45:00 AM 8.15 46.67 0.091 7.61 3.68 12.45
3/25/2021 11:00:00 AM 8.37 47.066 0.091 7.62 3.67 12.42
3/25/2021 11:15:00 AM 8.61 47.498 0.09 7.62 3.71 12.35
3/25/2021 11:30:00 AM 8.84 47.912 0.09 7.61 3.59 12.3
3/25/2021 11:45:00 AM 9.08 48.344 0.09 7.64 3.73 12.25
3/25/2021 12:00:00 PM 9.29 48.722 0.09 7.65 3.56 12.19
3/25/2021 12:15:00 PM 9.5 49.1 0.09 7.64 3.51 12.13
3/25/2021 12:30:00 PM 9.69 49.442 0.09 7.63 3.53 12.07
3/25/2021 12:45:00 PM 9.89 49.802 0.09 7.64 3.61 12.01
3/25/2021 1:00:00 PM 10.06 50.108 0.089 7.65 3.47 11.96
3/25/2021 1:15:00 PM 10.23 50.414 0.089 7.67 3.79 11.93
3/25/2021 1:30:00 PM 10.39 50.702 0.089 7.67 3.52 11.87
3/25/2021 1:45:00 PM 10.55 50.99 0.089 7.67 3.6 11.82
3/25/2021 2:00:00 PM 10.73 51.314 0.089 7.67 3.53 11.77
3/25/2021 2:15:00 PM 10.92 51.656 0.089 7.69 3.55 11.73
3/25/2021 2:30:00 PM 11.07 51.926 0.089 7.7 3.58 11.69
3/25/2021 2:45:00 PM 11.2 52.16 0.089 7.7 3.7 11.63
3/25/2021 3:00:00 PM 11.3 52.34 0.089 7.7 3.52 11.59
3/25/2021 3:15:00 PM 11.4 52.52 0.089 7.72 4.05 11.57
3/25/2021 3:30:00 PM 11.46 52.628 0.089 7.74 3.65 11.52
3/25/2021 3:45:00 PM 11.48 52.664 0.09 7.71 3.76 11.51
3/25/2021 4:00:00 PM 11.46 52.628 0.09 7.7 3.69 11.49
3/25/2021 4:15:00 PM 11.44 52.592 0.09 7.68 3.74 11.46
3/25/2021 4:30:00 PM 11.4 52.52 0.09 7.7 3.53 11.44
3/25/2021 4:45:00 PM 11.33 52.394 0.09 7.64 3.84 11.43
3/25/2021 5:00:00 PM 11.27 52.286 0.09 7.67 3.68 11.46
3/25/2021 5:15:00 PM 11.19 52.142 0.09 7.64 3.6 11.42
3/25/2021 5:30:00 PM 11.12 52.016 0.091 7.62 3.63 11.4
3/25/2021 5:45:00 PM 11.06 51.908 0.091 7.6 3.45 11.35
3/25/2021 6:00:00 PM 10.97 51.746 0.09 7.6 3.51 11.37
3/25/2021 6:15:00 PM 10.87 51.566 0.091 7.57 3.56 11.35
3/25/2021 6:30:00 PM 10.77 51.386 0.091 7.57 3.86 11.35
3/25/2021 6:45:00 PM 10.65 51.17 0.091 7.52 3.58 11.3
3/25/2021 7:00:00 PM 10.53 50.954 0.091 7.5 3.89 11.29
3/25/2021 7:15:00 PM 10.4 50.72 0.091 7.46 3.58 11.27
3/25/2021 7:30:00 PM 10.27 50.486 0.091 7.45 3.68 11.27
3/25/2021 7:45:00 PM 10.15 50.27 0.091 7.43 3.77 11.28
3/25/2021 8:00:00 PM 10.04 50.072 0.091 7.44 3.63 11.31
3/25/2021 8:15:00 PM 9.93 49.874 0.091 7.4 3.54 11.29
3/25/2021 8:30:00 PM 9.84 49.712 0.092 7.42 3.57 11.33
3/25/2021 8:45:00 PM 9.76 49.568 0.092 7.4 3.59 11.35
3/25/2021 9:00:00 PM 9.71 49.478 0.093 7.41 3.64 11.37
3/25/2021 9:15:00 PM 9.69 49.442 0.093 7.42 4.35 11.37
3/25/2021 9:30:00 PM 9.68 49.424 0.094 7.42 3.49 11.37
3/25/2021 9:45:00 PM 9.69 49.442 0.094 7.4 3.48 11.34
3/25/2021 10:00:00 PM 9.7 49.46 0.094 7.41 3.7 11.34
3/25/2021 10:15:00 PM 9.7 49.46 0.094 7.41 3.46 11.31
3/25/2021 10:30:00 PM 9.72 49.496 0.094 7.43 3.51 11.34
3/25/2021 10:45:00 PM 9.73 49.514 0.094 7.42 3.39 11.32
3/25/2021 11:00:00 PM 9.75 49.55 0.095 7.38 3.45 11.28
3/25/2021 11:15:00 PM 9.78 49.604 0.095 7.43 3.46 11.31
3/25/2021 11:30:00 PM 9.78 49.604 0.095 7.44 3.62 11.33
3/25/2021 11:45:00 PM 9.76 49.568 0.095 7.42 3.75 11.31
3/26/2021 12:00:00 AM 9.75 49.55 0.095 7.43 3.54 11.33
3/26/2021 12:15:00 AM 9.71 49.478 0.095 7.42 3.66 11.32
3/26/2021 12:30:00 AM 9.67 49.406 0.094 7.42 3.69 11.34
3/26/2021 12:45:00 AM 9.62 49.316 0.095 7.4 3.7 11.34
3/26/2021 1:00:00 AM 9.56 49.208 0.094 7.41 3.77 11.37
3/26/2021 1:15:00 AM 9.52 49.136 0.094 7.41 3.67 11.38
3/26/2021 1:30:00 AM 9.48 49.064 0.094 7.42 3.67 11.4
3/26/2021 1:45:00 AM 9.46 49.028 0.094 7.42 3.79 11.39
3/26/2021 2:00:00 AM 9.47 49.046 0.094 7.4 3.6 11.37
3/26/2021 2:15:00 AM 9.48 49.064 0.094 7.42 3.78 11.38
3/26/2021 2:30:00 AM 9.5 49.1 0.094 7.42 3.67 11.37
3/26/2021 2:45:00 AM 9.53 49.154 0.094 7.41 3.52 11.36
3/26/2021 3:00:00 AM 9.56 49.208 0.094 7.4 3.55 11.34
3/26/2021 3:15:00 AM 9.59 49.262 0.094 7.42 3.52 11.35
3/26/2021 3:30:00 AM 9.6 49.28 0.094 7.41 3.55 11.33
3/26/2021 3:45:00 AM 9.61 49.298 0.094 7.41 3.64 11.32
3/26/2021 4:00:00 AM 9.6 49.28 0.094 7.41 3.94 11.33
3/26/2021 4:15:00 AM 9.58 49.244 0.094 7.41 3.74 11.32
3/26/2021 4:30:00 AM 9.57 49.226 0.094 7.41 3.59 11.34
3/26/2021 4:45:00 AM 9.55 49.19 0.094 7.4 3.53 11.33
3/26/2021 5:00:00 AM 9.5 49.1 0.093 7.4 3.64 11.34
3/26/2021 5:15:00 AM 9.46 49.028 0.093 7.41 3.65 11.34
3/26/2021 5:30:00 AM 9.43 48.974 0.093 7.41 3.61 11.35
3/26/2021 5:45:00 AM 9.38 48.884 0.093 7.41 3.55 11.35
3/26/2021 6:00:00 AM 9.33 48.794 0.093 7.39 3.76 11.37
3/26/2021 6:15:00 AM 9.29 48.722 0.093 7.38 3.58 11.35
3/26/2021 6:30:00 AM 9.24 48.632 0.093 7.39 3.76 11.39
3/26/2021 6:45:00 AM 9.21 48.578 0.093 7.42 3.58 11.41
3/26/2021 7:00:00 AM 9.2 48.56 0.093 7.41 3.63 11.4
3/26/2021 7:15:00 AM 9.2 48.56 0.094 7.42 3.67 11.41
3/26/2021 7:30:00 AM 9.2 48.56 0.094 7.42 3.6 11.43
3/26/2021 7:45:00 AM 9.2 48.56 0.094 7.44 3.6 11.49
3/26/2021 8:00:00 AM 9.25 48.65 0.094 7.46 3.57 11.51
3/26/2021 8:15:00 AM 9.33 48.794 0.094 7.46 3.6 11.56
3/26/2021 8:30:00 AM 9.46 49.028 0.094 7.48 3.62 11.57
3/26/2021 8:45:00 AM 9.63 49.334 0.094 7.5 3.66 11.58
3/26/2021 9:00:00 AM 9.73 49.514 0.094 7.54 3.67 11.57
3/26/2021 9:15:00 AM 9.84 49.712 0.094 7.54 3.61 11.57
3/26/2021 9:30:00 AM 9.97 49.946 0.094 7.57 3.59 11.58
3/26/2021 9:45:00 AM 10.12 50.216 0.093 7.55 3.58 11.54
3/26/2021 10:00:00 AM 10.29 50.522 0.093 7.58 3.52 11.53
3/26/2021 10:15:00 AM 10.49 50.882 0.093 7.58 3.56 11.48
3/26/2021 10:30:00 AM 10.7 51.26 0.093 7.63 3.59 11.51
3/26/2021 10:45:00 AM 10.9 51.62 0.093 7.67 3.5 11.49
3/26/2021 11:00:00 AM 11.08 51.944 0.093 7.65 3.61 11.44
3/26/2021 11:15:00 AM 11.35 52.43 0.093 7.69 3.48 11.47
3/26/2021 11:30:00 AM 11.51 52.718 0.093 7.69 3.67 11.39
3/26/2021 11:45:00 AM 11.61 52.898 0.092 7.66 3.64 11.34
3/26/2021 12:00:00 PM 11.71 53.078 0.093 7.64 3.45 11.27
3/26/2021 12:15:00 PM 11.91 53.438 0.092 7.69 3.51 11.28
3/26/2021 12:30:00 PM 12.05 53.69 0.092 7.74 3.62 11.28
3/26/2021 12:45:00 PM 12 53.6 0.092 7.68 3.61 11.19
3/26/2021 1:00:00 PM 12.08 53.744 0.092 7.7 3.52 11.14
3/26/2021 1:15:00 PM 12.09 53.762 0.092 7.72 3.65 11.15
3/26/2021 1:30:00 PM 12.05 53.69 0.093 7.65 3.78 11.15
3/26/2021 1:45:00 PM 12.02 53.636 0.092 7.68 3.58 11.15
3/26/2021 2:00:00 PM 11.96 53.528 0.092 7.68 3.68 11.14
3/26/2021 2:15:00 PM 11.95 53.51 0.092 7.7 4.06 11.19
3/26/2021 2:30:00 PM 11.88 53.384 0.092 7.68 3.96 11.18
3/26/2021 2:45:00 PM 11.8 53.24 0.093 7.68 3.75 11.19
3/26/2021 3:00:00 PM 11.74 53.132 0.092 7.65 3.71 11.18
3/26/2021 3:15:00 PM 11.69 53.042 0.092 7.7 3.69 11.21
3/26/2021 3:30:00 PM 11.63 52.934 0.092 7.69 3.5 11.23
3/26/2021 3:45:00 PM 11.63 52.934 0.092 7.69 3.71 11.24
3/26/2021 4:00:00 PM 11.68 53.024 0.092 7.71 3.69 11.27
3/26/2021 4:15:00 PM 11.61 52.898 0.092 7.69 3.87 11.25
3/26/2021 4:30:00 PM 11.62 52.916 0.092 7.69 3.48 11.28
3/26/2021 4:45:00 PM 11.61 52.898 0.092 7.66 3.74 11.24
3/26/2021 5:00:00 PM 11.63 52.934 0.092 7.69 3.68 11.26
3/26/2021 5:15:00 PM 11.58 52.844 0.093 7.68 3.71 11.26
3/26/2021 5:30:00 PM 11.47 52.646 0.093 7.65 3.75 11.24
3/26/2021 5:45:00 PM 11.41 52.538 0.093 7.63 3.57 11.19
3/26/2021 6:00:00 PM 11.35 52.43 0.093 7.62 3.7 11.16
3/26/2021 6:15:00 PM 11.27 52.286 0.093 7.57 3.59 11.1
3/26/2021 6:30:00 PM 11.17 52.106 0.093 7.55 3.68 11.08
3/26/2021 6:45:00 PM 11.04 51.872 0.094 7.52 3.76 11.08
3/26/2021 7:00:00 PM 10.95 51.71 0.094 7.53 3.57 11.1
3/26/2021 7:15:00 PM 10.85 51.53 0.094 7.51 3.73 11.1
3/26/2021 7:30:00 PM 10.76 51.368 0.094 7.51 3.93 11.12
3/26/2021 7:45:00 PM 10.67 51.206 0.094 7.49 3.74 11.11
3/26/2021 8:00:00 PM 10.58 51.044 0.094 7.46 3.77 11.1
3/26/2021 8:15:00 PM 10.52 50.936 0.094 7.47 3.62 11.13
3/26/2021 8:30:00 PM 10.46 50.828 0.095 7.45 3.63 11.15
3/26/2021 8:45:00 PM 10.38 50.684 0.095 7.47 3.67 11.16
3/26/2021 9:00:00 PM 10.32 50.576 0.095 7.45 3.6 11.17
3/26/2021 9:15:00 PM 10.27 50.486 0.095 7.45 3.65 11.19
3/26/2021 9:30:00 PM 10.21 50.378 0.095 7.45 3.55 11.19
3/26/2021 9:45:00 PM 10.16 50.288 0.095 7.46 3.59 11.24
3/26/2021 10:00:00 PM 10.1 50.18 0.095 7.45 3.48 11.25
3/26/2021 10:15:00 PM 10.04 50.072 0.095 7.45 3.53 11.28
3/26/2021 10:30:00 PM 9.96 49.928 0.096 7.45 3.53 11.29
3/26/2021 10:45:00 PM 9.91 49.838 0.095 7.47 3.53 11.34
3/26/2021 11:00:00 PM 9.84 49.712 0.095 7.45 3.53 11.31
3/26/2021 11:15:00 PM 9.76 49.568 0.096 7.44 3.59 11.34
3/26/2021 11:30:00 PM 9.68 49.424 0.096 7.46 3.55 11.38
3/26/2021 11:45:00 PM 9.63 49.334 0.096 7.45 3.6 11.39
3/27/2021 12:00:00 AM 9.56 49.208 0.096 7.44 3.64 11.41
3/27/2021 12:15:00 AM 9.51 49.118 0.096 7.43 3.48 11.42
3/27/2021 12:30:00 AM 9.46 49.028 0.096 7.45 3.59 11.45
3/27/2021 12:45:00 AM 9.41 48.938 0.096 7.43 3.41 11.47
3/27/2021 1:00:00 AM 9.34 48.812 0.096 7.43 3.41 11.46
3/27/2021 1:15:00 AM 9.29 48.722 0.096 7.44 3.41 11.49
3/27/2021 1:30:00 AM 9.22 48.596 0.096 7.44 3.51 11.52
3/27/2021 1:45:00 AM 9.17 48.506 0.096 7.44 3.62 11.54
3/27/2021 2:00:00 AM 9.13 48.434 0.096 7.43 3.44 11.53
3/27/2021 2:15:00 AM 9.1 48.38 0.096 7.43 3.57 11.54
3/27/2021 2:30:00 AM 9.07 48.326 0.096 7.42 3.39 11.54
3/27/2021 2:45:00 AM 9.05 48.29 0.096 7.42 3.41 11.55
3/27/2021 3:00:00 AM 9.03 48.254 0.096 7.43 3.43 11.58
3/27/2021 3:15:00 AM 9.02 48.236 0.096 7.42 3.47 11.59
3/27/2021 3:30:00 AM 9 48.2 0.096 7.43 3.82 11.58
3/27/2021 3:45:00 AM 8.98 48.164 0.096 7.41 3.62 11.58
3/27/2021 4:00:00 AM 8.96 48.128 0.096 7.42 3.58 11.58
3/27/2021 4:15:00 AM 8.94 48.092 0.096 7.43 3.56 11.61
3/27/2021 4:30:00 AM 8.92 48.056 0.096 7.42 3.42 11.59
3/27/2021 4:45:00 AM 8.9 48.02 0.096 7.42 3.55 11.61
3/27/2021 5:00:00 AM 8.88 47.984 0.096 7.43 3.55 11.63
3/27/2021 5:15:00 AM 8.86 47.948 0.096 7.4 3.42 11.59
3/27/2021 5:30:00 AM 8.84 47.912 0.096 7.42 3.45 11.63
3/27/2021 5:45:00 AM 8.82 47.876 0.096 7.42 3.38 11.63
3/27/2021 6:00:00 AM 8.81 47.858 0.096 7.42 3.4 11.64
3/27/2021 6:15:00 AM 8.79 47.822 0.096 7.42 3.58 11.65
3/27/2021 6:30:00 AM 8.77 47.786 0.096 7.42 3.44 11.64
3/27/2021 6:45:00 AM 8.75 47.75 0.096 7.41 3.41 11.66
3/27/2021 7:00:00 AM 8.73 47.714 0.097 7.4 3.45 11.66
3/27/2021 7:15:00 AM 8.71 47.678 0.096 7.41 3.35 11.68
3/27/2021 7:30:00 AM 8.7 47.66 0.096 7.43 3.68 11.75
3/27/2021 7:45:00 AM 8.69 47.642 0.096 7.45 3.47 11.8
3/27/2021 8:00:00 AM 8.69 47.642 0.096 7.46 3.56 11.84
3/27/2021 8:15:00 AM 8.71 47.678 0.096 7.47 3.61 11.91
3/27/2021 8:30:00 AM 8.72 47.696 0.096 7.47 3.47 11.91
3/27/2021 8:45:00 AM 8.75 47.75 0.096 7.47 3.64 11.98
3/27/2021 9:00:00 AM 8.8 47.84 0.095 7.52 3.4 12.06
3/27/2021 9:15:00 AM 8.84 47.912 0.095 7.53 3.37 12.11
3/27/2021 9:30:00 AM 8.92 48.056 0.095 7.57 3.61 12.14
3/27/2021 9:45:00 AM 8.98 48.164 0.095 7.57 3.53 12.11
3/27/2021 10:00:00 AM 9.11 48.398 0.095 7.57 3.4 12.12
3/27/2021 10:15:00 AM 9.22 48.596 0.095 7.61 3.42 12.08
3/27/2021 10:30:00 AM 9.32 48.776 0.094 7.65 3.45 12.14
3/27/2021 10:45:00 AM 9.5 49.1 0.094 7.65 3.37 12.12
3/27/2021 11:00:00 AM 9.61 49.298 0.094 7.64 3.38 12.07
3/27/2021 11:15:00 AM 9.83 49.694 0.094 7.64 3.37 12.02
3/27/2021 11:30:00 AM 10.11 50.198 0.094 7.68 3.45 11.98
3/27/2021 11:45:00 AM 10.28 50.504 0.094 7.69 3.52 11.92
3/27/2021 12:00:00 PM 10.52 50.936 0.094 7.67 3.48 11.86
3/27/2021 12:15:00 PM 10.59 51.062 0.094 7.69 3.44 11.81
3/27/2021 12:30:00 PM 10.74 51.332 0.094 7.69 3.34 11.8
3/27/2021 12:45:00 PM 10.96 51.728 0.094 7.69 3.43 11.75
3/27/2021 1:00:00 PM 11.16 52.088 0.094 7.69 3.5 11.7
3/27/2021 1:15:00 PM 11.31 52.358 0.094 7.69 3.68 11.64
3/27/2021 1:30:00 PM 11.45 52.61 0.094 7.69 3.53 11.6
3/27/2021 1:45:00 PM 11.54 52.772 0.094 7.68 3.49 11.55
3/27/2021 2:00:00 PM 11.6 52.88 0.095 7.71 3.45 11.53
3/27/2021 2:15:00 PM 11.75 53.15 0.095 7.7 3.43 11.51
3/27/2021 2:30:00 PM 11.88 53.384 0.095 7.7 3.51 11.48
3/27/2021 2:45:00 PM 11.98 53.564 0.095 7.7 3.46 11.47
3/27/2021 3:00:00 PM 12.05 53.69 0.095 7.74 3.45 11.44
3/27/2021 3:15:00 PM 12.1 53.78 0.095 7.72 3.53 11.4
3/27/2021 3:30:00 PM 12.18 53.924 0.095 7.72 3.75 11.37
3/27/2021 3:45:00 PM 12.21 53.978 0.095 7.74 3.31 11.35
3/27/2021 4:00:00 PM 12.23 54.014 0.095 7.73 3.34 11.31
3/27/2021 4:15:00 PM 12.21 53.978 0.095 7.71 3.38 11.28
3/27/2021 4:30:00 PM 12.19 53.942 0.095 7.71 3.42 11.27
3/27/2021 4:45:00 PM 12.14 53.852 0.096 7.68 3.37 11.28
3/27/2021 5:00:00 PM 12.07 53.726 0.095 7.69 3.45 11.26
3/27/2021 5:15:00 PM 11.98 53.564 0.095 7.68 3.61 11.27
3/27/2021 5:30:00 PM 11.9 53.42 0.095 7.63 3.34 11.25
3/27/2021 5:45:00 PM 11.83 53.294 0.095 7.62 3.37 11.23
3/27/2021 6:00:00 PM 11.77 53.186 0.095 7.63 3.42 11.21
3/27/2021 6:15:00 PM 11.71 53.078 0.096 7.59 3.58 11.15
3/27/2021 6:30:00 PM 11.63 52.934 0.096 7.58 3.26 11.14
3/27/2021 6:45:00 PM 11.56 52.808 0.096 7.58 3.35 11.11
3/27/2021 7:00:00 PM 11.48 52.664 0.096 7.55 3.39 11.08
3/27/2021 7:15:00 PM 11.37 52.466 0.096 7.48 3.4 11.02
3/27/2021 7:30:00 PM 11.28 52.304 0.096 7.48 3.51 10.97
3/27/2021 7:45:00 PM 11.19 52.142 0.097 7.49 3.96 10.97
3/27/2021 8:00:00 PM 11.09 51.962 0.097 7.45 3.66 10.97
3/27/2021 8:15:00 PM 10.98 51.764 0.097 7.46 3.44 10.97
3/27/2021 8:30:00 PM 10.87 51.566 0.097 7.44 3.39 11.02
3/27/2021 8:45:00 PM 10.77 51.386 0.098 7.44 3.45 11.04
3/27/2021 9:00:00 PM 10.67 51.206 0.098 7.44 3.33 11.04
3/27/2021 9:15:00 PM 10.57 51.026 0.098 7.43 3.6 11.07
3/27/2021 9:30:00 PM 10.5 50.9 0.098 7.43 3.64 11.09
3/27/2021 9:45:00 PM 10.41 50.738 0.098 7.43 3.4 11.11
3/27/2021 10:00:00 PM 10.33 50.594 0.098 7.44 3.36 11.15
3/27/2021 10:15:00 PM 10.25 50.45 0.098 7.42 3.36 11.12
3/27/2021 10:30:00 PM 10.17 50.306 0.098 7.42 3.46 11.17
3/27/2021 10:45:00 PM 10.09 50.162 0.098 7.43 3.45 11.2
3/27/2021 11:00:00 PM 10.02 50.036 0.098 7.43 3.41 11.24
3/27/2021 11:15:00 PM 9.93 49.874 0.098 7.43 3.28 11.25
3/27/2021 11:30:00 PM 9.85 49.73 0.098 7.41 3.35 11.25
3/27/2021 11:45:00 PM 9.78 49.604 0.098 7.43 3.41 11.29
3/28/2021 12:00:00 AM 9.71 49.478 0.098 7.44 3.34 11.32
3/28/2021 12:15:00 AM 9.65 49.37 0.098 7.42 3.34 11.32
3/28/2021 12:30:00 AM 9.61 49.298 0.098 7.43 3.27 11.35
3/28/2021 12:45:00 AM 9.56 49.208 0.098 7.42 3.3 11.35
3/28/2021 1:00:00 AM 9.51 49.118 0.098 7.44 3.33 11.39
3/28/2021 1:15:00 AM 9.47 49.046 0.098 7.43 3.56 11.37
3/28/2021 1:30:00 AM 9.43 48.974 0.098 7.42 3.41 11.38
3/28/2021 1:45:00 AM 9.41 48.938 0.098 7.43 3.34 11.4
3/28/2021 2:00:00 AM 9.38 48.884 0.098 7.42 3.34 11.38
3/28/2021 2:15:00 AM 9.35 48.83 0.098 7.41 3.39 11.39
3/28/2021 2:30:00 AM 9.33 48.794 0.098 7.41 3.27 11.39
3/28/2021 2:45:00 AM 9.31 48.758 0.098 7.44 3.26 11.42
3/28/2021 3:00:00 AM 9.29 48.722 0.098 7.43 3.43 11.41
3/28/2021 3:15:00 AM 9.27 48.686 0.098 7.42 3.26 11.39
3/28/2021 3:30:00 AM 9.25 48.65 0.098 7.42 3.32 11.4
3/28/2021 3:45:00 AM 9.23 48.614 0.098 7.41 3.22 11.4
3/28/2021 4:00:00 AM 9.2 48.56 0.098 7.42 3.32 11.4
3/28/2021 4:15:00 AM 9.18 48.524 0.098 7.4 3.23 11.4
3/28/2021 4:30:00 AM 9.16 48.488 0.098 7.43 3.34 11.43
3/28/2021 4:45:00 AM 9.15 48.47 0.098 7.42 3.34 11.42
3/28/2021 5:00:00 AM 9.14 48.452 0.102 7.42 4.11 11.44
3/28/2021 5:15:00 AM 9.15 48.47 0.098 7.4 3.33 11.39
3/28/2021 5:30:00 AM 9.15 48.47 0.098 7.4 3.23 11.42
3/28/2021 5:45:00 AM 9.17 48.506 0.097 7.44 3.3 11.4
3/28/2021 6:00:00 AM 9.18 48.524 0.098 7.41 3.35 11.4
3/28/2021 6:15:00 AM 9.2 48.56 0.098 7.42 3.27 11.39
3/28/2021 6:30:00 AM 9.23 48.614 0.098 7.4 3.33 11.35
3/28/2021 6:45:00 AM 9.26 48.668 0.097 7.41 3.34 11.34
3/28/2021 7:00:00 AM 9.28 48.704 0.097 7.43 3.37 11.38
3/28/2021 7:15:00 AM 9.3 48.74 0.098 7.43 3.26 11.37
3/28/2021 7:30:00 AM 9.32 48.776 0.098 7.45 3.3 11.39
3/28/2021 7:45:00 AM 9.35 48.83 0.098 7.43 3.34 11.38
3/28/2021 8:00:00 AM 9.37 48.866 0.097 7.42 3.32 11.4
3/28/2021 8:15:00 AM 9.39 48.902 0.098 7.42 3.23 11.38
3/28/2021 8:30:00 AM 9.41 48.938 0.098 7.45 3.38 11.4
3/28/2021 8:45:00 AM 9.43 48.974 0.098 7.44 3.34 11.39
3/28/2021 9:00:00 AM 9.45 49.01 0.097 7.46 3.27 11.44
3/28/2021 9:15:00 AM 9.46 49.028 0.097 7.45 3.37 11.43
3/28/2021 9:30:00 AM 9.47 49.046 0.097 7.45 3.35 11.45
3/28/2021 9:45:00 AM 9.49 49.082 0.097 7.47 3.4 11.53
3/28/2021 10:00:00 AM 9.51 49.118 0.097 7.49 3.6 11.52
3/28/2021 10:15:00 AM 9.53 49.154 0.097 7.52 3.33 11.52
3/28/2021 10:30:00 AM 9.54 49.172 0.097 7.49 3.29 11.48
3/28/2021 10:45:00 AM 9.56 49.208 0.096 7.49 3.43 11.57
3/28/2021 11:00:00 AM 9.6 49.28 0.096 7.51 3.48 11.58
3/28/2021 11:15:00 AM 9.64 49.352 0.096 7.53 3.46 11.63
3/28/2021 11:30:00 AM 9.69 49.442 0.096 7.55 3.44 11.66
3/28/2021 11:45:00 AM 9.72 49.496 0.096 7.54 3.61 11.61
3/28/2021 12:00:00 PM 9.76 49.568 0.096 7.54 3.49 11.58
3/28/2021 12:15:00 PM 9.81 49.658 0.096 7.55 3.46 11.57
3/28/2021 12:30:00 PM 9.87 49.766 0.096 7.58 3.41 11.62
3/28/2021 12:45:00 PM 9.93 49.874 0.096 7.59 3.33 11.6
3/28/2021 1:00:00 PM 9.96 49.928 0.096 7.58 3.44 11.52
3/28/2021 1:15:00 PM 9.97 49.946 0.096 7.57 3.28 11.48
3/28/2021 1:30:00 PM 10 50 0.096 7.55 3.41 11.45
3/28/2021 1:45:00 PM 10.04 50.072 0.096 7.56 3.46 11.54
3/28/2021 2:00:00 PM 10.08 50.144 0.096 7.6 3.36 11.52
3/28/2021 2:15:00 PM 10.12 50.216 0.096 7.58 3.58 11.53
3/28/2021 2:30:00 PM 10.14 50.252 0.096 7.59 3.42 11.45
3/28/2021 2:45:00 PM 10.14 50.252 0.096 7.53 3.52 11.41
3/28/2021 3:00:00 PM 10.17 50.306 0.096 7.54 3.49 11.39
3/28/2021 3:15:00 PM 10.16 50.288 0.096 7.48 3.74 11.28
3/28/2021 3:30:00 PM 10.17 50.306 0.096 7.49 3.53 11.29
3/28/2021 3:45:00 PM 10.19 50.342 0.096 7.55 3.49 11.35
3/28/2021 4:00:00 PM 10.21 50.378 0.096 7.53 3.56 11.35
3/28/2021 4:15:00 PM 10.28 50.504 0.096 7.55 3.57 11.43
3/28/2021 4:30:00 PM 10.37 50.666 0.096 7.54 3.4 11.43
3/28/2021 4:45:00 PM 10.4 50.72 0.096 7.52 3.48 11.34
3/28/2021 5:00:00 PM 10.45 50.81 0.096 7.55 3.39 11.27
3/28/2021 5:15:00 PM 10.51 50.918 0.096 7.56 3.56 11.27
3/28/2021 5:30:00 PM 10.55 50.99 0.095 7.57 3.77 11.26
3/28/2021 5:45:00 PM 10.57 51.026 0.095 7.56 3.57 11.21
3/28/2021 6:00:00 PM 10.55 50.99 0.095 7.52 3.46 11.12
3/28/2021 6:15:00 PM 10.53 50.954 0.095 7.51 3.47 11.08
3/28/2021 6:30:00 PM 10.48 50.864 0.096 7.47 3.79 11.08
3/28/2021 6:45:00 PM 10.43 50.774 0.096 7.51 3.62 11.16
3/28/2021 7:00:00 PM 10.37 50.666 0.096 7.49 3.45 11.11
3/28/2021 7:15:00 PM 10.3 50.54 0.096 7.47 3.49 11.07
3/28/2021 7:30:00 PM 10.25 50.45 0.096 7.47 3.41 11.07
3/28/2021 7:45:00 PM 10.18 50.324 0.096 7.46 3.48 11.05
3/28/2021 8:00:00 PM 10.12 50.216 0.096 7.46 3.44 11.08
3/28/2021 8:15:00 PM 10.06 50.108 0.097 7.45 5.4 11.1
3/28/2021 8:30:00 PM 9.99 49.982 0.097 7.45 4.24 11.12
3/28/2021 8:45:00 PM 9.94 49.892 0.097 7.44 3.52 11.11
3/28/2021 9:00:00 PM 9.88 49.784 0.097 7.46 3.44 11.14
3/28/2021 9:15:00 PM 9.82 49.676 0.097 7.45 3.56 11.13
3/28/2021 9:30:00 PM 9.76 49.568 0.097 7.46 3.48 11.17
3/28/2021 9:45:00 PM 9.68 49.424 0.097 7.44 3.69 11.19
3/28/2021 10:00:00 PM 9.59 49.262 0.097 7.44 3.48 11.2
3/28/2021 10:15:00 PM 9.51 49.118 0.097 7.44 3.46 11.22
3/28/2021 10:30:00 PM 9.42 48.956 0.097 7.44 3.58 11.25
3/28/2021 10:45:00 PM 9.36 48.848 0.098 7.45 3.56 11.29
3/28/2021 11:00:00 PM 9.27 48.686 0.098 7.45 3.42 11.31
3/28/2021 11:15:00 PM 9.17 48.506 0.098 7.4 3.48 11.29
3/28/2021 11:30:00 PM 9.11 48.398 0.098 7.46 3.62 11.37
3/28/2021 11:45:00 PM 9.04 48.272 0.098 7.44 3.63 11.38
3/29/2021 12:00:00 AM 8.95 48.11 0.098 7.45 3.47 11.42
3/29/2021 12:15:00 AM 8.85 47.93 0.098 7.44 3.44 11.44
3/29/2021 12:30:00 AM 8.78 47.804 0.098 7.44 3.34 11.45
3/29/2021 12:45:00 AM 8.72 47.696 0.098 7.46 3.52 11.5
3/29/2021 1:00:00 AM 8.66 47.588 0.098 7.45 3.45 11.5
3/29/2021 1:15:00 AM 8.61 47.498 0.098 7.45 3.69 11.53
3/29/2021 1:30:00 AM 8.52 47.336 0.098 7.46 3.82 11.56
3/29/2021 1:45:00 AM 8.41 47.138 0.098 7.45 3.51 11.59
3/29/2021 2:00:00 AM 8.34 47.012 0.098 7.46 3.6 11.63
3/29/2021 2:15:00 AM 8.29 46.922 0.098 7.45 3.38 11.65
3/29/2021 2:30:00 AM 8.2 46.76 0.098 7.46 3.37 11.69
3/29/2021 2:45:00 AM 8.13 46.634 0.098 7.46 3.4 11.7
3/29/2021 3:00:00 AM 8.07 46.526 0.098 7.46 3.6 11.71
3/29/2021 3:15:00 AM 8.01 46.418 0.098 7.46 3.37 11.75
3/29/2021 3:30:00 AM 7.95 46.31 0.098 7.43 3.4 11.72
3/29/2021 3:45:00 AM 7.89 46.202 0.098 7.45 3.36 11.76
3/29/2021 4:00:00 AM 7.84 46.112 0.098 7.46 3.26 11.79
3/29/2021 4:15:00 AM 7.77 45.986 0.098 7.45 3.67 11.81
3/29/2021 4:30:00 AM 7.72 45.896 0.098 7.45 3.33 11.84
3/29/2021 4:45:00 AM 7.67 45.806 0.098 7.46 3.48 11.85
3/29/2021 5:00:00 AM 7.64 45.752 0.098 7.45 3.58 11.86
3/29/2021 5:15:00 AM 7.6 45.68 0.098 7.47 3.51 11.89
3/29/2021 5:30:00 AM 7.58 45.644 0.098 7.44 3.41 11.9
3/29/2021 5:45:00 AM 7.52 45.536 0.097 7.43 3.6 11.91
3/29/2021 6:00:00 AM 7.49 45.482 0.098 7.45 3.37 11.92
3/29/2021 6:15:00 AM 7.45 45.41 0.098 7.44 3.6 11.94
3/29/2021 6:30:00 AM 7.42 45.356 0.098 7.45 3.42 11.97
3/29/2021 6:45:00 AM 7.38 45.284 0.097 7.46 3.49 11.97
3/29/2021 7:00:00 AM 7.34 45.212 0.097 7.46 3.32 12.01
3/29/2021 7:15:00 AM 7.33 45.194 0.097 7.45 3.28 12.02
3/29/2021 7:30:00 AM 7.32 45.176 0.097 7.45 3.64 12.04
3/29/2021 7:45:00 AM 7.27 45.086 0.097 7.47 3.27 12.09
3/29/2021 8:00:00 AM 7.24 45.032 0.097 7.48 3.27 12.15
3/29/2021 8:15:00 AM 7.2 44.96 0.097 7.49 3.39 12.26
3/29/2021 8:30:00 AM 7.19 44.942 0.097 7.49 3.4 12.28
3/29/2021 8:45:00 AM 7.17 44.906 0.097 7.5 3.41 12.26
3/29/2021 9:00:00 AM 7.14 44.852 0.097 7.51 3.34 12.32
3/29/2021 9:15:00 AM 7.12 44.816 0.097 7.49 3.41 12.32
3/29/2021 9:30:00 AM 7.1 44.78 0.097 7.52 3.32 12.38
3/29/2021 9:45:00 AM 7.08 44.744 0.097 7.54 3.34 12.43
3/29/2021 10:00:00 AM 7.09 44.762 0.097 7.52 3.35 12.46
3/29/2021 10:15:00 AM 7.11 44.798 0.096 7.58 3.27 12.55
3/29/2021 10:30:00 AM 7.17 44.906 0.096 7.57 3.23 12.58
3/29/2021 10:45:00 AM 7.26 45.068 0.096 7.6 3.34 12.61
3/29/2021 11:00:00 AM 7.34 45.212 0.096 7.61 3.31 12.62
3/29/2021 11:15:00 AM 7.41 45.338 0.096 7.61 3.43 12.61
3/29/2021 11:30:00 AM 7.51 45.518 0.096 7.62 3.39 12.59
3/29/2021 11:45:00 AM 7.63 45.734 0.096 7.65 3.59 12.58
3/29/2021 12:00:00 PM 7.69 45.842 0.095 7.64 3.33 12.56
3/29/2021 12:15:00 PM 7.76 45.968 0.095 7.63 3.68 12.51
3/29/2021 12:30:00 PM 8.09 46.562 0.095 7.66 3.4 12.5
3/29/2021 12:45:00 PM 8.23 46.814 0.095 7.68 3.49 12.44
3/29/2021 1:00:00 PM 8.31 46.958 0.095 7.66 3.34 12.38
3/29/2021 1:15:00 PM 8.5 47.3 0.095 7.65 3.4 12.37
3/29/2021 1:30:00 PM 8.72 47.696 0.095 7.66 3.39 12.31
3/29/2021 1:45:00 PM 8.83 47.894 0.095 7.64 3.37 12.24
3/29/2021 2:00:00 PM 9.01 48.218 0.095 7.67 3.32 12.22
3/29/2021 2:15:00 PM 9.18 48.524 0.095 7.65 3.33 12.11
3/29/2021 2:30:00 PM 9.37 48.866 0.095 7.64 3.39 12.07
3/29/2021 2:45:00 PM 9.53 49.154 0.095 7.67 3.32 12.03
3/29/2021 3:00:00 PM 9.69 49.442 0.095 7.68 3.35 12.01
3/29/2021 3:15:00 PM 9.79 49.622 0.095 7.63 3.29 11.91
3/29/2021 3:30:00 PM 9.85 49.73 0.095 7.64 3.25 11.89
3/29/2021 3:45:00 PM 9.92 49.856 0.095 7.66 3.31 11.87
3/29/2021 4:00:00 PM 10 50 0.095 7.66 3.29 11.88
3/29/2021 4:15:00 PM 9.96 49.928 0.095 7.61 3.37 11.83
3/29/2021 4:30:00 PM 9.91 49.838 0.095 7.65 3.39 11.83
3/29/2021 4:45:00 PM 9.88 49.784 0.095 7.61 3.31 11.81
3/29/2021 5:00:00 PM 9.84 49.712 0.095 7.6 3.31 11.79
3/29/2021 5:15:00 PM 9.76 49.568 0.095 7.62 3.33 11.8
3/29/2021 5:30:00 PM 9.66 49.388 0.095 7.61 3.4 11.75
3/29/2021 5:45:00 PM 9.58 49.244 0.096 7.58 3.21 11.74
3/29/2021 6:00:00 PM 9.49 49.082 0.096 7.55 3.25 11.73
3/29/2021 6:15:00 PM 9.4 48.92 0.096 7.57 3.5 11.71
3/29/2021 6:30:00 PM 9.3 48.74 0.096 7.54 3.34 11.72
3/29/2021 6:45:00 PM 9.17 48.506 0.096 7.55 3.24 11.76
3/29/2021 7:00:00 PM 9.05 48.29 0.096 7.51 3.3 11.71
3/29/2021 7:15:00 PM 8.94 48.092 0.097 7.49 3.26 11.71
3/29/2021 7:30:00 PM 8.81 47.858 0.097 7.49 3.24 11.72
3/29/2021 7:45:00 PM 8.69 47.642 0.097 7.46 3.36 11.7
3/29/2021 8:00:00 PM 8.57 47.426 0.097 7.46 3.31 11.71
3/29/2021 8:15:00 PM 8.43 47.174 0.097 7.44 3.25 11.72
3/29/2021 8:30:00 PM 8.33 46.994 0.097 7.44 3.25 11.73
3/29/2021 8:45:00 PM 8.21 46.778 0.098 7.45 3.34 11.81
3/29/2021 9:00:00 PM 8.12 46.616 0.098 7.43 3.45 11.83
3/29/2021 9:15:00 PM 8.03 46.454 0.098 7.44 3.34 11.85
3/29/2021 9:30:00 PM 7.93 46.274 0.098 7.44 3.36 11.87
3/29/2021 9:45:00 PM 7.84 46.112 0.098 7.43 3.24 11.91
3/29/2021 10:00:00 PM 7.75 45.95 0.098 7.42 3.22 11.9
3/29/2021 10:15:00 PM 7.66 45.788 0.099 7.43 3.39 11.96
3/29/2021 10:30:00 PM 7.57 45.626 0.099 7.4 3.25 11.95
3/29/2021 10:45:00 PM 7.49 45.482 0.099 7.4 3.36 11.99
3/29/2021 11:00:00 PM 7.41 45.338 0.099 7.41 3.27 12.02
3/29/2021 11:15:00 PM 7.32 45.176 0.099 7.41 3.23 12.05
3/29/2021 11:30:00 PM 7.25 45.05 0.099 7.4 3.26 12.07
3/29/2021 11:45:00 PM 7.17 44.906 0.099 7.41 3.34 12.08
3/30/2021 12:00:00 AM 7.1 44.78 0.099 7.4 3.27 12.11
3/30/2021 12:15:00 AM 7.02 44.636 0.099 7.42 3.23 12.18
3/30/2021 12:30:00 AM 6.95 44.51 0.099 7.4 3.38 12.17
3/30/2021 12:45:00 AM 6.87 44.366 0.099 7.42 3.22 12.21
3/30/2021 1:00:00 AM 6.81 44.258 0.099 7.41 3.27 12.21
3/30/2021 1:15:00 AM 6.75 44.15 0.099 7.41 3.49 12.26
3/30/2021 1:30:00 AM 6.68 44.024 0.099 7.42 3.29 12.31
3/30/2021 1:45:00 AM 6.62 43.916 0.099 7.4 3.25 12.28
3/30/2021 2:00:00 AM 6.53 43.754 0.099 7.42 3.2 12.33
3/30/2021 2:15:00 AM 6.47 43.646 0.099 7.41 3.36 12.32
3/30/2021 2:30:00 AM 6.42 43.556 0.099 7.42 3.26 12.36
3/30/2021 2:45:00 AM 6.37 43.466 0.099 7.41 3.23 12.39
3/30/2021 3:00:00 AM 6.3 43.34 0.099 7.42 3.2 12.41
3/30/2021 3:15:00 AM 6.26 43.268 0.099 7.4 3.2 12.41
3/30/2021 3:30:00 AM 6.19 43.142 0.099 7.41 3.18 12.43
3/30/2021 3:45:00 AM 6.13 43.034 0.099 7.41 3.23 12.46
3/30/2021 4:00:00 AM 6.1 42.98 0.099 7.43 3.39 12.49
3/30/2021 4:15:00 AM 6.05 42.89 0.099 7.4 3.23 12.5
3/30/2021 4:30:00 AM 6 42.8 0.099 7.41 3.17 12.51
3/30/2021 4:45:00 AM 5.94 42.692 0.099 7.41 3.2 12.52
3/30/2021 5:00:00 AM 5.91 42.638 0.099 7.4 3.24 12.51
3/30/2021 5:15:00 AM 5.87 42.566 0.099 7.39 3.25 12.51
3/30/2021 5:30:00 AM 5.8 42.44 0.099 7.39 3.21 12.57
3/30/2021 5:45:00 AM 5.78 42.404 0.099 7.39 3.18 12.57
3/30/2021 6:00:00 AM 5.73 42.314 0.099 7.39 3.23 12.59
3/30/2021 6:15:00 AM 5.67 42.206 0.099 7.41 3.13 12.64
3/30/2021 6:30:00 AM 5.64 42.152 0.099 7.4 3.14 12.62
3/30/2021 6:45:00 AM 5.6 42.08 0.099 7.39 3.24 12.63
3/30/2021 7:00:00 AM 5.56 42.008 0.099 7.4 3.28 12.67
3/30/2021 7:15:00 AM 5.54 41.972 0.099 7.41 3.13 12.75
3/30/2021 7:30:00 AM 5.52 41.936 0.099 7.42 3.15 12.77
3/30/2021 7:45:00 AM 5.5 41.9 0.099 7.41 3.19 12.84
3/30/2021 8:00:00 AM 5.51 41.918 0.099 7.43 3.2 12.9
3/30/2021 8:15:00 AM 5.53 41.954 0.099 7.46 3.2 12.96
3/30/2021 8:30:00 AM 5.55 41.99 0.099 7.48 3.18 13.01
3/30/2021 8:45:00 AM 5.63 42.134 0.099 7.46 3.18 13.01
3/30/2021 9:00:00 AM 5.69 42.242 0.098 7.51 3.21 13.04
3/30/2021 9:15:00 AM 5.79 42.422 0.098 7.51 3.18 13.12
3/30/2021 9:30:00 AM 5.91 42.638 0.098 7.5 3.22 13.05
3/30/2021 9:45:00 AM 6.06 42.908 0.098 7.5 3.12 13.01
3/30/2021 10:00:00 AM 6.23 43.214 0.098 7.52 3.15 12.98
3/30/2021 10:15:00 AM 6.43 43.574 0.098 7.56 3.16 12.95
3/30/2021 10:30:00 AM 6.68 44.024 0.097 7.56 3.15 12.88
3/30/2021 10:45:00 AM 6.97 44.546 0.097 7.56 3.15 12.85
3/30/2021 11:00:00 AM 7.32 45.176 0.097 7.57 3.16 12.8
3/30/2021 11:15:00 AM 7.68 45.824 0.097 7.6 3.17 12.78
3/30/2021 11:30:00 AM 7.94 46.292 0.097 7.58 3.15 12.62
3/30/2021 11:45:00 AM 8.25 46.85 0.097 7.56 3.22 12.55
3/30/2021 12:00:00 PM 8.52 47.336 0.097 7.61 3.17 12.45
3/30/2021 12:15:00 PM 8.88 47.984 0.097 7.61 3.13 12.41
3/30/2021 12:30:00 PM 9.11 48.398 0.097 7.6 3.19 12.3
3/30/2021 12:45:00 PM 9.42 48.956 0.097 7.56 3.11 12.23
3/30/2021 1:00:00 PM 9.65 49.37 0.097 7.6 3.18 12.18
3/30/2021 1:15:00 PM 9.82 49.676 0.097 7.57 3.16 12.1
3/30/2021 1:30:00 PM 10.02 50.036 0.097 7.61 3.14 12.04
3/30/2021 1:45:00 PM 10.26 50.468 0.097 7.61 3.11 12
3/30/2021 2:00:00 PM 10.45 50.81 0.097 7.65 3.07 11.94
3/30/2021 2:15:00 PM 10.55 50.99 0.097 7.64 3.14 11.86
3/30/2021 2:30:00 PM 10.72 51.296 0.097 7.63 3.08 11.83
3/30/2021 2:45:00 PM 10.98 51.764 0.097 7.63 3.19 11.78
3/30/2021 3:00:00 PM 11.18 52.124 0.097 7.63 3.18 11.7
3/30/2021 3:15:00 PM 11.26 52.268 0.096 7.64 4.59 11.69
3/30/2021 3:30:00 PM 11.29 52.322 0.097 7.65 3.23 11.59
3/30/2021 3:45:00 PM 11.42 52.556 0.097 7.64 3.1 11.58
3/30/2021 4:00:00 PM 11.44 52.592 0.097 7.66 3.11 11.53
3/30/2021 4:15:00 PM 11.5 52.7 0.097 7.66 3.12 11.52
3/30/2021 4:30:00 PM 11.57 52.826 0.097 7.67 3.22 11.57
3/30/2021 4:45:00 PM 11.49 52.682 0.097 7.63 3.16 11.45
3/30/2021 5:00:00 PM 11.49 52.682 0.097 7.66 3.16 11.48
3/30/2021 5:15:00 PM 11.42 52.556 0.097 7.64 3.12 11.42
3/30/2021 5:30:00 PM 11.33 52.394 0.097 7.62 3.16 11.39
3/30/2021 5:45:00 PM 11.27 52.286 0.097 7.59 3.23 11.36
3/30/2021 6:00:00 PM 11.23 52.214 0.098 7.61 3.14 11.4
3/30/2021 6:15:00 PM 11.14 52.052 0.097 7.6 3.27 11.32
3/30/2021 6:30:00 PM 11.03 51.854 0.097 7.59 3.22 11.29
3/30/2021 6:45:00 PM 10.89 51.602 0.098 7.55 3.21 11.28
3/30/2021 7:00:00 PM 10.76 51.368 0.098 7.55 3.2 11.27
3/30/2021 7:15:00 PM 10.6 51.08 0.098 7.52 3.21 11.21
3/30/2021 7:30:00 PM 10.46 50.828 0.098 7.48 3.15 11.16
3/30/2021 7:45:00 PM 10.33 50.594 0.099 7.45 3.24 11.13
3/30/2021 8:00:00 PM 10.23 50.414 0.099 7.46 3.3 11.15
3/30/2021 8:15:00 PM 10.12 50.216 0.099 7.45 3.12 11.17
3/30/2021 8:30:00 PM 10.02 50.036 0.099 7.43 3.12 11.16
3/30/2021 8:45:00 PM 9.94 49.892 0.099 7.44 3.2 11.2
3/30/2021 9:00:00 PM 9.86 49.748 0.099 7.42 3.21 11.17
3/30/2021 9:15:00 PM 9.77 49.586 0.1 7.44 3.48 11.25
3/30/2021 9:30:00 PM 9.7 49.46 0.1 7.43 3.23 11.26
3/30/2021 9:45:00 PM 9.62 49.316 0.1 7.43 3.11 11.29
3/30/2021 10:00:00 PM 9.55 49.19 0.1 7.43 3.19 11.33
3/30/2021 10:15:00 PM 9.49 49.082 0.1 7.44 3.21 11.39
3/30/2021 10:30:00 PM 9.41 48.938 0.1 7.42 3.25 11.34
3/30/2021 10:45:00 PM 9.36 48.848 0.1 7.41 3.13 11.36
3/30/2021 11:00:00 PM 9.32 48.776 0.1 7.44 3.06 11.39
3/30/2021 11:15:00 PM 9.27 48.686 0.101 7.44 3.09 11.41
3/30/2021 11:30:00 PM 9.22 48.596 0.1 7.43 3.16 11.41
3/30/2021 11:45:00 PM 9.17 48.506 0.1 7.43 3.16 11.44
3/31/2021 12:00:00 AM 9.12 48.416 0.1 7.42 3.12 11.45
3/31/2021 12:15:00 AM 9.08 48.344 0.1 7.42 3.16 11.43
3/31/2021 12:30:00 AM 9.04 48.272 0.1 7.43 3.11 11.45
3/31/2021 12:45:00 AM 8.99 48.182 0.1 7.39 3.16 11.4
3/31/2021 1:00:00 AM 8.95 48.11 0.1 7.4 3.13 11.46
3/31/2021 1:15:00 AM 8.91 48.038 0.1 7.41 3.17 11.49
3/31/2021 1:30:00 AM 8.86 47.948 0.1 7.43 3.07 11.52
3/31/2021 1:45:00 AM 8.82 47.876 0.1 7.42 3.14 11.53
3/31/2021 2:00:00 AM 8.79 47.822 0.1 7.39 3.22 11.49
3/31/2021 2:15:00 AM 8.77 47.786 0.1 7.42 3.09 11.55
3/31/2021 2:30:00 AM 8.72 47.696 0.1 7.41 4.1 11.53
3/31/2021 2:45:00 AM 8.69 47.642 0.1 7.4 3.29 11.52
3/31/2021 3:00:00 AM 8.66 47.588 0.1 7.41 3.42 11.56
3/31/2021 3:15:00 AM 8.64 47.552 0.1 7.43 3.56 11.57
3/31/2021 3:30:00 AM 8.62 47.516 0.1 7.41 3.2 11.56
3/31/2021 3:45:00 AM 8.59 47.462 0.101 7.39 3.22 11.52
3/31/2021 4:00:00 AM 8.57 47.426 0.1 7.42 3.12 11.57
3/31/2021 4:15:00 AM 8.55 47.39 0.101 7.39 3.27 11.55
3/31/2021 4:30:00 AM 8.54 47.372 0.1 7.41 3.14 11.57
3/31/2021 4:45:00 AM 8.51 47.318 0.101 7.41 3.26 11.56
3/31/2021 5:00:00 AM 8.5 47.3 0.1 7.41 3.19 11.59
3/31/2021 5:15:00 AM 8.48 47.264 0.1 7.41 3.17 11.59
3/31/2021 5:30:00 AM 8.46 47.228 0.1 7.42 3.23 11.62
3/31/2021 5:45:00 AM 8.44 47.192 0.1 7.4 3.18 11.57
3/31/2021 6:00:00 AM 8.43 47.174 0.101 7.39 3.13 11.56
3/31/2021 6:15:00 AM 8.41 47.138 0.101 7.38 3.03 11.58
3/31/2021 6:30:00 AM 8.4 47.12 0.101 7.4 2.95 11.58
3/31/2021 6:45:00 AM 8.4 47.12 0.101 7.42 3.17 11.62
3/31/2021 7:00:00 AM 8.4 47.12 0.1 7.41 3.07 11.63
3/31/2021 7:15:00 AM 8.4 47.12 0.1 7.41 3.21 11.66
3/31/2021 7:30:00 AM 8.41 47.138 0.1 7.43 3.06 11.71
3/31/2021 7:45:00 AM 8.42 47.156 0.1 7.46 3.07 11.78
3/31/2021 8:00:00 AM 8.44 47.192 0.1 7.45 3.06 11.85
3/31/2021 8:15:00 AM 8.47 47.246 0.1 7.47 3.24 11.88
3/31/2021 8:30:00 AM 8.51 47.318 0.1 7.5 3.19 12.02
3/31/2021 8:45:00 AM 8.56 47.408 0.1 7.5 3.09 12.11
3/31/2021 9:00:00 AM 8.62 47.516 0.1 7.55 3.19 12.16
3/31/2021 9:15:00 AM 8.67 47.606 0.1 7.56 3.08 12.19
3/31/2021 9:30:00 AM 8.73 47.714 0.099 7.56 3.12 12.15
3/31/2021 9:45:00 AM 8.8 47.84 0.099 7.56 3.18 12.22
3/31/2021 10:00:00 AM 8.88 47.984 0.099 7.61 3.13 12.23
3/31/2021 10:15:00 AM 8.99 48.182 0.099 7.64 3.08 12.2
3/31/2021 10:30:00 AM 9.1 48.38 0.099 7.66 3.13 12.21
3/31/2021 10:45:00 AM 9.18 48.524 0.099 7.64 3.08 12.15
3/31/2021 11:00:00 AM 9.28 48.704 0.099 7.65 3.2 12.12
3/31/2021 11:15:00 AM 9.35 48.83 0.099 7.65 3.13 12.11
3/31/2021 11:30:00 AM 9.41 48.938 0.099 7.6 3.14 11.96
3/31/2021 11:45:00 AM 9.48 49.064 0.098 7.66 3.19 11.97
3/31/2021 12:00:00 PM 9.53 49.154 0.098 7.64 3.17 11.91
3/31/2021 12:15:00 PM 9.58 49.244 0.098 7.63 3.1 11.88
3/31/2021 12:30:00 PM 9.63 49.334 0.098</